<?xml version="1.0" encoding="UTF-8" standalone="no" ?>
<gpx xmlns="http://www.topografix.com/GPX/1/1" xmlns:xsi="http://www.w3.org/2001/XMLSchema-instance" xsi:schemaLocation="http://www.topografix.com/GPX/1/1 http://www.topografix.com/GPX/1/1/gpx.xsd" version="1.1" creator="VisuGPX - https://www.visugpx.com">
  <metadata>
    <name>Munet - Vallée du Valmorey 25km</name>
    <desc><![CDATA[fait le 07/05/2023 - Départ d'un lieu privé - ]]></desc>
  </metadata>
  <trk>
    <name><![CDATA[2023-05-07 16:31:52]]></name>
    <extensions>
      <line xmlns="http://www.topografix.com/GPX/gpx_style/0/2">
        <color>0000FF</color>
        <width>4</width>
      </line>
    </extensions>
    <trkseg>
      <trkpt lat="45.90031" lon="5.71949">
        <ele>561.55</ele>
        <time>2023-05-07T07:35:55Z</time>
      </trkpt>
      <trkpt lat="45.90031" lon="5.71948">
        <ele>559.62</ele>
        <time>2023-05-07T07:36:08Z</time>
      </trkpt>
      <trkpt lat="45.90027" lon="5.7192">
        <ele>548.09</ele>
        <time>2023-05-07T07:57:58Z</time>
      </trkpt>
      <trkpt lat="45.9002" lon="5.71925">
        <ele>550.97</ele>
        <time>2023-05-07T07:58:12Z</time>
      </trkpt>
      <trkpt lat="45.90016" lon="5.71928">
        <ele>547.13</ele>
        <time>2023-05-07T07:58:23Z</time>
      </trkpt>
      <trkpt lat="45.90014" lon="5.71918">
        <ele>548.57</ele>
        <time>2023-05-07T07:58:30Z</time>
      </trkpt>
      <trkpt lat="45.9001" lon="5.71903">
        <ele>551.45</ele>
        <time>2023-05-07T07:58:46Z</time>
      </trkpt>
      <trkpt lat="45.90009" lon="5.71903">
        <ele>551.45</ele>
        <time>2023-05-07T07:58:47Z</time>
      </trkpt>
      <trkpt lat="45.90003" lon="5.71901">
        <ele>550.49</ele>
        <time>2023-05-07T07:58:54Z</time>
      </trkpt>
      <trkpt lat="45.89994" lon="5.71898">
        <ele>550.01</ele>
        <time>2023-05-07T07:59:03Z</time>
      </trkpt>
      <trkpt lat="45.8997" lon="5.71897">
        <ele>551.45</ele>
        <time>2023-05-07T07:59:20Z</time>
      </trkpt>
      <trkpt lat="45.89947" lon="5.71889">
        <ele>550.01</ele>
        <time>2023-05-07T07:59:37Z</time>
      </trkpt>
      <trkpt lat="45.89946" lon="5.71889">
        <ele>550.01</ele>
        <time>2023-05-07T07:59:38Z</time>
      </trkpt>
      <trkpt lat="45.89932" lon="5.71878">
        <ele>549.05</ele>
        <time>2023-05-07T07:59:54Z</time>
      </trkpt>
      <trkpt lat="45.89916" lon="5.71852">
        <ele>545.69</ele>
        <time>2023-05-07T08:00:12Z</time>
      </trkpt>
      <trkpt lat="45.89899" lon="5.7182">
        <ele>541.36</ele>
        <time>2023-05-07T08:00:32Z</time>
      </trkpt>
      <trkpt lat="45.8988" lon="5.71779">
        <ele>534.63</ele>
        <time>2023-05-07T08:00:55Z</time>
      </trkpt>
      <trkpt lat="45.8987" lon="5.71743">
        <ele>530.79</ele>
        <time>2023-05-07T08:01:15Z</time>
      </trkpt>
      <trkpt lat="45.89877" lon="5.71704">
        <ele>529.82</ele>
        <time>2023-05-07T08:01:30Z</time>
      </trkpt>
      <trkpt lat="45.89885" lon="5.71669">
        <ele>530.79</ele>
        <time>2023-05-07T08:01:46Z</time>
      </trkpt>
      <trkpt lat="45.89895" lon="5.71638">
        <ele>529.82</ele>
        <time>2023-05-07T08:02:02Z</time>
      </trkpt>
      <trkpt lat="45.89904" lon="5.71603">
        <ele>525.98</ele>
        <time>2023-05-07T08:02:19Z</time>
      </trkpt>
      <trkpt lat="45.89916" lon="5.71564">
        <ele>523.58</ele>
        <time>2023-05-07T08:02:41Z</time>
      </trkpt>
      <trkpt lat="45.89918" lon="5.71531">
        <ele>523.58</ele>
        <time>2023-05-07T08:02:58Z</time>
      </trkpt>
      <trkpt lat="45.89919" lon="5.71485">
        <ele>524.54</ele>
        <time>2023-05-07T08:03:19Z</time>
      </trkpt>
      <trkpt lat="45.8992" lon="5.71442">
        <ele>526.46</ele>
        <time>2023-05-07T08:03:39Z</time>
      </trkpt>
      <trkpt lat="45.89917" lon="5.71394">
        <ele>525.98</ele>
        <time>2023-05-07T08:04:00Z</time>
      </trkpt>
      <trkpt lat="45.89916" lon="5.71361">
        <ele>525.02</ele>
        <time>2023-05-07T08:04:15Z</time>
      </trkpt>
      <trkpt lat="45.89919" lon="5.71321">
        <ele>525.5</ele>
        <time>2023-05-07T08:04:34Z</time>
      </trkpt>
      <trkpt lat="45.89924" lon="5.71275">
        <ele>528.38</ele>
        <time>2023-05-07T08:04:54Z</time>
      </trkpt>
      <trkpt lat="45.89928" lon="5.71243">
        <ele>527.9</ele>
        <time>2023-05-07T08:05:10Z</time>
      </trkpt>
      <trkpt lat="45.89937" lon="5.7121">
        <ele>527.42</ele>
        <time>2023-05-07T08:05:28Z</time>
      </trkpt>
      <trkpt lat="45.89943" lon="5.71181">
        <ele>522.13</ele>
        <time>2023-05-07T08:05:45Z</time>
      </trkpt>
      <trkpt lat="45.89952" lon="5.71144">
        <ele>513.96</ele>
        <time>2023-05-07T08:06:05Z</time>
      </trkpt>
      <trkpt lat="45.89954" lon="5.71112">
        <ele>511.08</ele>
        <time>2023-05-07T08:06:21Z</time>
      </trkpt>
      <trkpt lat="45.89972" lon="5.71076">
        <ele>508.67</ele>
        <time>2023-05-07T08:06:39Z</time>
      </trkpt>
      <trkpt lat="45.89982" lon="5.7105">
        <ele>506.75</ele>
        <time>2023-05-07T08:06:57Z</time>
      </trkpt>
      <trkpt lat="45.90004" lon="5.71017">
        <ele>502.43</ele>
        <time>2023-05-07T08:07:16Z</time>
      </trkpt>
      <trkpt lat="45.90028" lon="5.70996">
        <ele>501.46</ele>
        <time>2023-05-07T08:07:33Z</time>
      </trkpt>
      <trkpt lat="45.90054" lon="5.70977">
        <ele>498.1</ele>
        <time>2023-05-07T08:07:52Z</time>
      </trkpt>
      <trkpt lat="45.90078" lon="5.70958">
        <ele>499.54</ele>
        <time>2023-05-07T08:08:11Z</time>
      </trkpt>
      <trkpt lat="45.90107" lon="5.70938">
        <ele>501.95</ele>
        <time>2023-05-07T08:08:29Z</time>
      </trkpt>
      <trkpt lat="45.90142" lon="5.7092">
        <ele>504.35</ele>
        <time>2023-05-07T08:08:52Z</time>
      </trkpt>
      <trkpt lat="45.90162" lon="5.70887">
        <ele>505.31</ele>
        <time>2023-05-07T08:09:10Z</time>
      </trkpt>
      <trkpt lat="45.90185" lon="5.70872">
        <ele>506.27</ele>
        <time>2023-05-07T08:09:26Z</time>
      </trkpt>
      <trkpt lat="45.90212" lon="5.70859">
        <ele>507.71</ele>
        <time>2023-05-07T08:09:43Z</time>
      </trkpt>
      <trkpt lat="45.90238" lon="5.70837">
        <ele>507.23</ele>
        <time>2023-05-07T08:10:00Z</time>
      </trkpt>
      <trkpt lat="45.90253" lon="5.70828">
        <ele>504.83</ele>
        <time>2023-05-07T08:10:13Z</time>
      </trkpt>
      <trkpt lat="45.90278" lon="5.70815">
        <ele>499.54</ele>
        <time>2023-05-07T08:10:31Z</time>
      </trkpt>
      <trkpt lat="45.90295" lon="5.70788">
        <ele>490.41</ele>
        <time>2023-05-07T08:10:50Z</time>
      </trkpt>
      <trkpt lat="45.9031" lon="5.7076">
        <ele>478.87</ele>
        <time>2023-05-07T08:11:07Z</time>
      </trkpt>
      <trkpt lat="45.90321" lon="5.70737">
        <ele>468.3</ele>
        <time>2023-05-07T08:11:23Z</time>
      </trkpt>
      <trkpt lat="45.90326" lon="5.70681">
        <ele>477.91</ele>
        <time>2023-05-07T08:11:42Z</time>
      </trkpt>
      <trkpt lat="45.90327" lon="5.70677">
        <ele>478.39</ele>
        <time>2023-05-07T08:11:44Z</time>
      </trkpt>
      <trkpt lat="45.90328" lon="5.70669">
        <ele>479.35</ele>
        <time>2023-05-07T08:11:47Z</time>
      </trkpt>
      <trkpt lat="45.90329" lon="5.70665">
        <ele>479.35</ele>
        <time>2023-05-07T08:11:48Z</time>
      </trkpt>
      <trkpt lat="45.90329" lon="5.70663">
        <ele>479.84</ele>
        <time>2023-05-07T08:11:49Z</time>
      </trkpt>
      <trkpt lat="45.90336" lon="5.70612">
        <ele>479.35</ele>
        <time>2023-05-07T08:12:08Z</time>
      </trkpt>
      <trkpt lat="45.9035" lon="5.70586">
        <ele>476.95</ele>
        <time>2023-05-07T08:12:23Z</time>
      </trkpt>
      <trkpt lat="45.90369" lon="5.70549">
        <ele>475.51</ele>
        <time>2023-05-07T08:12:40Z</time>
      </trkpt>
      <trkpt lat="45.90393" lon="5.70522">
        <ele>474.55</ele>
        <time>2023-05-07T08:12:58Z</time>
      </trkpt>
      <trkpt lat="45.90395" lon="5.70492">
        <ele>471.66</ele>
        <time>2023-05-07T08:13:15Z</time>
      </trkpt>
      <trkpt lat="45.90402" lon="5.70449">
        <ele>471.18</ele>
        <time>2023-05-07T08:13:36Z</time>
      </trkpt>
      <trkpt lat="45.90415" lon="5.70411">
        <ele>471.66</ele>
        <time>2023-05-07T08:13:56Z</time>
      </trkpt>
      <trkpt lat="45.90439" lon="5.70411">
        <ele>470.22</ele>
        <time>2023-05-07T08:14:14Z</time>
      </trkpt>
      <trkpt lat="45.9047" lon="5.7042">
        <ele>466.38</ele>
        <time>2023-05-07T08:14:33Z</time>
      </trkpt>
      <trkpt lat="45.90503" lon="5.70406">
        <ele>461.57</ele>
        <time>2023-05-07T08:14:54Z</time>
      </trkpt>
      <trkpt lat="45.90513" lon="5.70381">
        <ele>457.24</ele>
        <time>2023-05-07T08:15:10Z</time>
      </trkpt>
      <trkpt lat="45.90505" lon="5.7036">
        <ele>450.03</ele>
        <time>2023-05-07T08:15:27Z</time>
      </trkpt>
      <trkpt lat="45.9053" lon="5.7036">
        <ele>445.71</ele>
        <time>2023-05-07T08:15:45Z</time>
      </trkpt>
      <trkpt lat="45.90556" lon="5.70352">
        <ele>444.27</ele>
        <time>2023-05-07T08:16:04Z</time>
      </trkpt>
      <trkpt lat="45.90586" lon="5.70346">
        <ele>438.5</ele>
        <time>2023-05-07T08:16:22Z</time>
      </trkpt>
      <trkpt lat="45.90605" lon="5.7037">
        <ele>430.81</ele>
        <time>2023-05-07T08:16:39Z</time>
      </trkpt>
      <trkpt lat="45.90626" lon="5.70358">
        <ele>424.08</ele>
        <time>2023-05-07T08:16:58Z</time>
      </trkpt>
      <trkpt lat="45.90643" lon="5.70341">
        <ele>424.56</ele>
        <time>2023-05-07T08:17:15Z</time>
      </trkpt>
      <trkpt lat="45.90663" lon="5.70334">
        <ele>426</ele>
        <time>2023-05-07T08:17:34Z</time>
      </trkpt>
      <trkpt lat="45.90675" lon="5.70324">
        <ele>423.6</ele>
        <time>2023-05-07T08:17:52Z</time>
      </trkpt>
      <trkpt lat="45.90676" lon="5.70322">
        <ele>423.12</ele>
        <time>2023-05-07T08:17:54Z</time>
      </trkpt>
      <trkpt lat="45.90672" lon="5.70309">
        <ele>420.71</ele>
        <time>2023-05-07T08:18:09Z</time>
      </trkpt>
      <trkpt lat="45.9067" lon="5.70302">
        <ele>420.71</ele>
        <time>2023-05-07T08:18:29Z</time>
      </trkpt>
      <trkpt lat="45.90668" lon="5.70297">
        <ele>420.71</ele>
        <time>2023-05-07T08:18:54Z</time>
      </trkpt>
      <trkpt lat="45.90672" lon="5.70285">
        <ele>419.27</ele>
        <time>2023-05-07T08:19:26Z</time>
      </trkpt>
      <trkpt lat="45.90678" lon="5.70276">
        <ele>420.23</ele>
        <time>2023-05-07T08:19:44Z</time>
      </trkpt>
      <trkpt lat="45.90697" lon="5.70244">
        <ele>418.79</ele>
        <time>2023-05-07T08:20:06Z</time>
      </trkpt>
      <trkpt lat="45.90705" lon="5.70223">
        <ele>418.31</ele>
        <time>2023-05-07T08:20:30Z</time>
      </trkpt>
      <trkpt lat="45.90711" lon="5.70195">
        <ele>425.52</ele>
        <time>2023-05-07T08:20:51Z</time>
      </trkpt>
      <trkpt lat="45.90695" lon="5.70158">
        <ele>431.77</ele>
        <time>2023-05-07T08:21:13Z</time>
      </trkpt>
      <trkpt lat="45.90685" lon="5.70134">
        <ele>433.69</ele>
        <time>2023-05-07T08:21:33Z</time>
      </trkpt>
      <trkpt lat="45.90667" lon="5.70108">
        <ele>438.98</ele>
        <time>2023-05-07T08:21:51Z</time>
      </trkpt>
      <trkpt lat="45.90645" lon="5.70096">
        <ele>448.11</ele>
        <time>2023-05-07T08:22:07Z</time>
      </trkpt>
      <trkpt lat="45.90625" lon="5.7008">
        <ele>457.24</ele>
        <time>2023-05-07T08:22:25Z</time>
      </trkpt>
      <trkpt lat="45.90602" lon="5.70055">
        <ele>464.93</ele>
        <time>2023-05-07T08:22:46Z</time>
      </trkpt>
      <trkpt lat="45.90596" lon="5.70031">
        <ele>463.97</ele>
        <time>2023-05-07T08:22:57Z</time>
      </trkpt>
      <trkpt lat="45.90594" lon="5.69995">
        <ele>467.34</ele>
        <time>2023-05-07T08:23:15Z</time>
      </trkpt>
      <trkpt lat="45.90585" lon="5.6997">
        <ele>470.22</ele>
        <time>2023-05-07T08:23:28Z</time>
      </trkpt>
      <trkpt lat="45.90586" lon="5.6992">
        <ele>472.63</ele>
        <time>2023-05-07T08:23:46Z</time>
      </trkpt>
      <trkpt lat="45.90595" lon="5.69862">
        <ele>473.59</ele>
        <time>2023-05-07T08:24:03Z</time>
      </trkpt>
      <trkpt lat="45.90601" lon="5.69826">
        <ele>476.95</ele>
        <time>2023-05-07T08:24:16Z</time>
      </trkpt>
      <trkpt lat="45.90607" lon="5.6978">
        <ele>478.87</ele>
        <time>2023-05-07T08:24:35Z</time>
      </trkpt>
      <trkpt lat="45.90615" lon="5.69742">
        <ele>479.84</ele>
        <time>2023-05-07T08:24:50Z</time>
      </trkpt>
      <trkpt lat="45.90617" lon="5.69705">
        <ele>479.84</ele>
        <time>2023-05-07T08:25:05Z</time>
      </trkpt>
      <trkpt lat="45.90615" lon="5.69667">
        <ele>478.87</ele>
        <time>2023-05-07T08:25:22Z</time>
      </trkpt>
      <trkpt lat="45.90606" lon="5.69636">
        <ele>477.43</ele>
        <time>2023-05-07T08:25:39Z</time>
      </trkpt>
      <trkpt lat="45.90591" lon="5.69624">
        <ele>477.91</ele>
        <time>2023-05-07T08:25:53Z</time>
      </trkpt>
      <trkpt lat="45.90589" lon="5.69593">
        <ele>475.99</ele>
        <time>2023-05-07T08:26:09Z</time>
      </trkpt>
      <trkpt lat="45.90596" lon="5.6956">
        <ele>477.43</ele>
        <time>2023-05-07T08:26:27Z</time>
      </trkpt>
      <trkpt lat="45.90604" lon="5.69532">
        <ele>477.43</ele>
        <time>2023-05-07T08:26:42Z</time>
      </trkpt>
      <trkpt lat="45.90616" lon="5.69494">
        <ele>476.47</ele>
        <time>2023-05-07T08:27:02Z</time>
      </trkpt>
      <trkpt lat="45.90627" lon="5.69456">
        <ele>475.99</ele>
        <time>2023-05-07T08:27:22Z</time>
      </trkpt>
      <trkpt lat="45.90637" lon="5.69423">
        <ele>476.95</ele>
        <time>2023-05-07T08:27:39Z</time>
      </trkpt>
      <trkpt lat="45.90654" lon="5.69405">
        <ele>477.43</ele>
        <time>2023-05-07T08:27:54Z</time>
      </trkpt>
      <trkpt lat="45.90662" lon="5.69397">
        <ele>476.95</ele>
        <time>2023-05-07T08:28:07Z</time>
      </trkpt>
      <trkpt lat="45.90677" lon="5.69378">
        <ele>476.47</ele>
        <time>2023-05-07T08:28:23Z</time>
      </trkpt>
      <trkpt lat="45.90686" lon="5.69357">
        <ele>474.55</ele>
        <time>2023-05-07T08:28:35Z</time>
      </trkpt>
      <trkpt lat="45.90687" lon="5.69328">
        <ele>471.66</ele>
        <time>2023-05-07T08:28:51Z</time>
      </trkpt>
      <trkpt lat="45.90684" lon="5.69285">
        <ele>475.03</ele>
        <time>2023-05-07T08:29:08Z</time>
      </trkpt>
      <trkpt lat="45.90685" lon="5.69252">
        <ele>473.11</ele>
        <time>2023-05-07T08:29:24Z</time>
      </trkpt>
      <trkpt lat="45.90685" lon="5.69244">
        <ele>473.59</ele>
        <time>2023-05-07T08:29:29Z</time>
      </trkpt>
      <trkpt lat="45.90685" lon="5.69207">
        <ele>475.03</ele>
        <time>2023-05-07T08:29:45Z</time>
      </trkpt>
      <trkpt lat="45.90685" lon="5.69173">
        <ele>475.03</ele>
        <time>2023-05-07T08:29:59Z</time>
      </trkpt>
      <trkpt lat="45.90681" lon="5.69137">
        <ele>476.47</ele>
        <time>2023-05-07T08:30:16Z</time>
      </trkpt>
      <trkpt lat="45.90681" lon="5.69135">
        <ele>476.47</ele>
        <time>2023-05-07T08:30:33Z</time>
      </trkpt>
      <trkpt lat="45.9068" lon="5.69133">
        <ele>480.32</ele>
        <time>2023-05-07T08:30:58Z</time>
      </trkpt>
      <trkpt lat="45.90679" lon="5.69134">
        <ele>478.39</ele>
        <time>2023-05-07T08:31:16Z</time>
      </trkpt>
      <trkpt lat="45.90679" lon="5.69135">
        <ele>475.51</ele>
        <time>2023-05-07T08:31:50Z</time>
      </trkpt>
      <trkpt lat="45.90678" lon="5.69133">
        <ele>474.55</ele>
        <time>2023-05-07T08:32:15Z</time>
      </trkpt>
      <trkpt lat="45.90679" lon="5.69134">
        <ele>476.95</ele>
        <time>2023-05-07T08:32:50Z</time>
      </trkpt>
      <trkpt lat="45.90679" lon="5.69131">
        <ele>478.87</ele>
        <time>2023-05-07T08:33:24Z</time>
      </trkpt>
      <trkpt lat="45.9068" lon="5.69131">
        <ele>477.43</ele>
        <time>2023-05-07T08:33:53Z</time>
      </trkpt>
      <trkpt lat="45.90679" lon="5.69129">
        <ele>478.39</ele>
        <time>2023-05-07T08:34:27Z</time>
      </trkpt>
      <trkpt lat="45.90677" lon="5.69106">
        <ele>478.39</ele>
        <time>2023-05-07T08:34:42Z</time>
      </trkpt>
      <trkpt lat="45.90676" lon="5.69059">
        <ele>480.8</ele>
        <time>2023-05-07T08:35:02Z</time>
      </trkpt>
      <trkpt lat="45.90672" lon="5.69015">
        <ele>481.28</ele>
        <time>2023-05-07T08:35:22Z</time>
      </trkpt>
      <trkpt lat="45.90666" lon="5.68979">
        <ele>479.84</ele>
        <time>2023-05-07T08:35:39Z</time>
      </trkpt>
      <trkpt lat="45.90655" lon="5.68949">
        <ele>481.28</ele>
        <time>2023-05-07T08:35:56Z</time>
      </trkpt>
      <trkpt lat="45.90643" lon="5.68908">
        <ele>483.2</ele>
        <time>2023-05-07T08:36:17Z</time>
      </trkpt>
      <trkpt lat="45.90637" lon="5.68863">
        <ele>483.2</ele>
        <time>2023-05-07T08:36:38Z</time>
      </trkpt>
      <trkpt lat="45.90635" lon="5.68822">
        <ele>485.12</ele>
        <time>2023-05-07T08:36:58Z</time>
      </trkpt>
      <trkpt lat="45.9063" lon="5.68789">
        <ele>487.53</ele>
        <time>2023-05-07T08:37:14Z</time>
      </trkpt>
      <trkpt lat="45.9062" lon="5.68757">
        <ele>489.93</ele>
        <time>2023-05-07T08:37:31Z</time>
      </trkpt>
      <trkpt lat="45.90607" lon="5.68721">
        <ele>495.7</ele>
        <time>2023-05-07T08:37:51Z</time>
      </trkpt>
      <trkpt lat="45.90592" lon="5.68683">
        <ele>498.58</ele>
        <time>2023-05-07T08:38:09Z</time>
      </trkpt>
      <trkpt lat="45.90592" lon="5.68642">
        <ele>501.95</ele>
        <time>2023-05-07T08:38:26Z</time>
      </trkpt>
      <trkpt lat="45.90595" lon="5.68602">
        <ele>506.27</ele>
        <time>2023-05-07T08:38:45Z</time>
      </trkpt>
      <trkpt lat="45.90595" lon="5.68568">
        <ele>508.19</ele>
        <time>2023-05-07T08:39:00Z</time>
      </trkpt>
      <trkpt lat="45.90595" lon="5.68528">
        <ele>509.16</ele>
        <time>2023-05-07T08:39:18Z</time>
      </trkpt>
      <trkpt lat="45.90577" lon="5.68492">
        <ele>509.16</ele>
        <time>2023-05-07T08:39:37Z</time>
      </trkpt>
      <trkpt lat="45.90564" lon="5.68459">
        <ele>510.12</ele>
        <time>2023-05-07T08:39:54Z</time>
      </trkpt>
      <trkpt lat="45.90561" lon="5.68417">
        <ele>512.52</ele>
        <time>2023-05-07T08:40:12Z</time>
      </trkpt>
      <trkpt lat="45.90563" lon="5.68381">
        <ele>514.92</ele>
        <time>2023-05-07T08:40:28Z</time>
      </trkpt>
      <trkpt lat="45.90561" lon="5.68337">
        <ele>520.21</ele>
        <time>2023-05-07T08:40:49Z</time>
      </trkpt>
      <trkpt lat="45.9055" lon="5.68303">
        <ele>521.65</ele>
        <time>2023-05-07T08:41:07Z</time>
      </trkpt>
      <trkpt lat="45.90527" lon="5.68288">
        <ele>520.21</ele>
        <time>2023-05-07T08:41:22Z</time>
      </trkpt>
      <trkpt lat="45.90505" lon="5.68269">
        <ele>520.69</ele>
        <time>2023-05-07T08:41:37Z</time>
      </trkpt>
      <trkpt lat="45.90501" lon="5.68265">
        <ele>520.69</ele>
        <time>2023-05-07T08:41:40Z</time>
      </trkpt>
      <trkpt lat="45.905" lon="5.68265">
        <ele>520.69</ele>
        <time>2023-05-07T08:41:41Z</time>
      </trkpt>
      <trkpt lat="45.90499" lon="5.68264">
        <ele>520.69</ele>
        <time>2023-05-07T08:41:42Z</time>
      </trkpt>
      <trkpt lat="45.90497" lon="5.68263">
        <ele>520.69</ele>
        <time>2023-05-07T08:41:43Z</time>
      </trkpt>
      <trkpt lat="45.90495" lon="5.68262">
        <ele>520.69</ele>
        <time>2023-05-07T08:41:44Z</time>
      </trkpt>
      <trkpt lat="45.90473" lon="5.68242">
        <ele>524.54</ele>
        <time>2023-05-07T08:42:01Z</time>
      </trkpt>
      <trkpt lat="45.90451" lon="5.68237">
        <ele>526.46</ele>
        <time>2023-05-07T08:42:14Z</time>
      </trkpt>
      <trkpt lat="45.90426" lon="5.68248">
        <ele>525.5</ele>
        <time>2023-05-07T08:42:31Z</time>
      </trkpt>
      <trkpt lat="45.90398" lon="5.68257">
        <ele>525.5</ele>
        <time>2023-05-07T08:42:48Z</time>
      </trkpt>
      <trkpt lat="45.90368" lon="5.6826">
        <ele>526.46</ele>
        <time>2023-05-07T08:43:05Z</time>
      </trkpt>
      <trkpt lat="45.90341" lon="5.68259">
        <ele>526.46</ele>
        <time>2023-05-07T08:43:20Z</time>
      </trkpt>
      <trkpt lat="45.90315" lon="5.68253">
        <ele>526.94</ele>
        <time>2023-05-07T08:43:36Z</time>
      </trkpt>
      <trkpt lat="45.9029" lon="5.68248">
        <ele>526.94</ele>
        <time>2023-05-07T08:43:51Z</time>
      </trkpt>
      <trkpt lat="45.90262" lon="5.68243">
        <ele>526.94</ele>
        <time>2023-05-07T08:44:09Z</time>
      </trkpt>
      <trkpt lat="45.90236" lon="5.68236">
        <ele>526.94</ele>
        <time>2023-05-07T08:44:26Z</time>
      </trkpt>
      <trkpt lat="45.90207" lon="5.68231">
        <ele>527.9</ele>
        <time>2023-05-07T08:44:44Z</time>
      </trkpt>
      <trkpt lat="45.90184" lon="5.68232">
        <ele>528.86</ele>
        <time>2023-05-07T08:45:00Z</time>
      </trkpt>
      <trkpt lat="45.90164" lon="5.68229">
        <ele>528.38</ele>
        <time>2023-05-07T08:45:16Z</time>
      </trkpt>
      <trkpt lat="45.90131" lon="5.68234">
        <ele>528.86</ele>
        <time>2023-05-07T08:45:32Z</time>
      </trkpt>
      <trkpt lat="45.90102" lon="5.68233">
        <ele>529.82</ele>
        <time>2023-05-07T08:45:49Z</time>
      </trkpt>
      <trkpt lat="45.90067" lon="5.68231">
        <ele>528.86</ele>
        <time>2023-05-07T08:46:08Z</time>
      </trkpt>
      <trkpt lat="45.90044" lon="5.68226">
        <ele>528.86</ele>
        <time>2023-05-07T08:46:24Z</time>
      </trkpt>
      <trkpt lat="45.90014" lon="5.68222">
        <ele>530.79</ele>
        <time>2023-05-07T08:46:42Z</time>
      </trkpt>
      <trkpt lat="45.89985" lon="5.68226">
        <ele>530.79</ele>
        <time>2023-05-07T08:47:02Z</time>
      </trkpt>
      <trkpt lat="45.89958" lon="5.68232">
        <ele>528.86</ele>
        <time>2023-05-07T08:47:20Z</time>
      </trkpt>
      <trkpt lat="45.89936" lon="5.68232">
        <ele>528.86</ele>
        <time>2023-05-07T08:47:38Z</time>
      </trkpt>
      <trkpt lat="45.8991" lon="5.68229">
        <ele>528.38</ele>
        <time>2023-05-07T08:47:56Z</time>
      </trkpt>
      <trkpt lat="45.89892" lon="5.68225">
        <ele>526.46</ele>
        <time>2023-05-07T08:48:07Z</time>
      </trkpt>
      <trkpt lat="45.89891" lon="5.68224">
        <ele>526.46</ele>
        <time>2023-05-07T08:48:08Z</time>
      </trkpt>
      <trkpt lat="45.8989" lon="5.68224">
        <ele>525.98</ele>
        <time>2023-05-07T08:48:21Z</time>
      </trkpt>
      <trkpt lat="45.89889" lon="5.68228">
        <ele>526.46</ele>
        <time>2023-05-07T08:48:59Z</time>
      </trkpt>
      <trkpt lat="45.89894" lon="5.68225">
        <ele>528.38</ele>
        <time>2023-05-07T08:49:31Z</time>
      </trkpt>
      <trkpt lat="45.89893" lon="5.68224">
        <ele>527.42</ele>
        <time>2023-05-07T08:49:49Z</time>
      </trkpt>
      <trkpt lat="45.89893" lon="5.68225">
        <ele>527.42</ele>
        <time>2023-05-07T08:49:50Z</time>
      </trkpt>
      <trkpt lat="45.89891" lon="5.68226">
        <ele>526.94</ele>
        <time>2023-05-07T08:49:51Z</time>
      </trkpt>
      <trkpt lat="45.8989" lon="5.68226">
        <ele>526.94</ele>
        <time>2023-05-07T08:49:52Z</time>
      </trkpt>
      <trkpt lat="45.89855" lon="5.68231">
        <ele>525.02</ele>
        <time>2023-05-07T08:50:14Z</time>
      </trkpt>
      <trkpt lat="45.8983" lon="5.68228">
        <ele>525.98</ele>
        <time>2023-05-07T08:50:32Z</time>
      </trkpt>
      <trkpt lat="45.89802" lon="5.68231">
        <ele>524.54</ele>
        <time>2023-05-07T08:50:52Z</time>
      </trkpt>
      <trkpt lat="45.89773" lon="5.68241">
        <ele>522.61</ele>
        <time>2023-05-07T08:51:09Z</time>
      </trkpt>
      <trkpt lat="45.89743" lon="5.68249">
        <ele>521.65</ele>
        <time>2023-05-07T08:51:29Z</time>
      </trkpt>
      <trkpt lat="45.89717" lon="5.68249">
        <ele>519.73</ele>
        <time>2023-05-07T08:51:48Z</time>
      </trkpt>
      <trkpt lat="45.89693" lon="5.68248">
        <ele>520.21</ele>
        <time>2023-05-07T08:52:04Z</time>
      </trkpt>
      <trkpt lat="45.89691" lon="5.68246">
        <ele>520.69</ele>
        <time>2023-05-07T08:52:05Z</time>
      </trkpt>
      <trkpt lat="45.8969" lon="5.68243">
        <ele>521.17</ele>
        <time>2023-05-07T08:52:06Z</time>
      </trkpt>
      <trkpt lat="45.8969" lon="5.68241">
        <ele>521.65</ele>
        <time>2023-05-07T08:52:07Z</time>
      </trkpt>
      <trkpt lat="45.89689" lon="5.6824">
        <ele>522.13</ele>
        <time>2023-05-07T08:52:08Z</time>
      </trkpt>
      <trkpt lat="45.89689" lon="5.68238">
        <ele>522.13</ele>
        <time>2023-05-07T08:52:09Z</time>
      </trkpt>
      <trkpt lat="45.89689" lon="5.68235">
        <ele>522.61</ele>
        <time>2023-05-07T08:52:10Z</time>
      </trkpt>
      <trkpt lat="45.89691" lon="5.6821">
        <ele>522.61</ele>
        <time>2023-05-07T08:52:24Z</time>
      </trkpt>
      <trkpt lat="45.89683" lon="5.68169">
        <ele>518.77</ele>
        <time>2023-05-07T08:52:43Z</time>
      </trkpt>
      <trkpt lat="45.89674" lon="5.68127">
        <ele>514.44</ele>
        <time>2023-05-07T08:53:04Z</time>
      </trkpt>
      <trkpt lat="45.89671" lon="5.68084">
        <ele>512.04</ele>
        <time>2023-05-07T08:53:25Z</time>
      </trkpt>
      <trkpt lat="45.89664" lon="5.68045">
        <ele>510.12</ele>
        <time>2023-05-07T08:53:43Z</time>
      </trkpt>
      <trkpt lat="45.8966" lon="5.68035">
        <ele>508.19</ele>
        <time>2023-05-07T08:53:59Z</time>
      </trkpt>
      <trkpt lat="45.8966" lon="5.68033">
        <ele>508.19</ele>
        <time>2023-05-07T08:54:00Z</time>
      </trkpt>
      <trkpt lat="45.89659" lon="5.68031">
        <ele>508.19</ele>
        <time>2023-05-07T08:54:01Z</time>
      </trkpt>
      <trkpt lat="45.89643" lon="5.6802">
        <ele>508.67</ele>
        <time>2023-05-07T08:54:17Z</time>
      </trkpt>
      <trkpt lat="45.89618" lon="5.6803">
        <ele>506.75</ele>
        <time>2023-05-07T08:54:34Z</time>
      </trkpt>
      <trkpt lat="45.89611" lon="5.68033">
        <ele>506.27</ele>
        <time>2023-05-07T08:54:40Z</time>
      </trkpt>
      <trkpt lat="45.89609" lon="5.68031">
        <ele>506.27</ele>
        <time>2023-05-07T08:54:41Z</time>
      </trkpt>
      <trkpt lat="45.89608" lon="5.68029">
        <ele>506.27</ele>
        <time>2023-05-07T08:54:42Z</time>
      </trkpt>
      <trkpt lat="45.89609" lon="5.67986">
        <ele>504.35</ele>
        <time>2023-05-07T08:55:00Z</time>
      </trkpt>
      <trkpt lat="45.8961" lon="5.67928">
        <ele>503.87</ele>
        <time>2023-05-07T08:55:13Z</time>
      </trkpt>
      <trkpt lat="45.89614" lon="5.67847">
        <ele>502.91</ele>
        <time>2023-05-07T08:55:28Z</time>
      </trkpt>
      <trkpt lat="45.89611" lon="5.678">
        <ele>502.43</ele>
        <time>2023-05-07T08:55:41Z</time>
      </trkpt>
      <trkpt lat="45.89616" lon="5.67768">
        <ele>501.95</ele>
        <time>2023-05-07T08:55:54Z</time>
      </trkpt>
      <trkpt lat="45.896" lon="5.67747">
        <ele>498.58</ele>
        <time>2023-05-07T08:56:12Z</time>
      </trkpt>
      <trkpt lat="45.8958" lon="5.67724">
        <ele>492.33</ele>
        <time>2023-05-07T08:56:30Z</time>
      </trkpt>
      <trkpt lat="45.89561" lon="5.67695">
        <ele>483.2</ele>
        <time>2023-05-07T08:56:50Z</time>
      </trkpt>
      <trkpt lat="45.89548" lon="5.67668">
        <ele>479.35</ele>
        <time>2023-05-07T08:57:06Z</time>
      </trkpt>
      <trkpt lat="45.89541" lon="5.67655">
        <ele>477.91</ele>
        <time>2023-05-07T08:57:14Z</time>
      </trkpt>
      <trkpt lat="45.8954" lon="5.67654">
        <ele>477.91</ele>
        <time>2023-05-07T08:57:15Z</time>
      </trkpt>
      <trkpt lat="45.89526" lon="5.67631">
        <ele>470.7</ele>
        <time>2023-05-07T08:57:33Z</time>
      </trkpt>
      <trkpt lat="45.89507" lon="5.67594">
        <ele>460.61</ele>
        <time>2023-05-07T08:57:52Z</time>
      </trkpt>
      <trkpt lat="45.8949" lon="5.67568">
        <ele>457.72</ele>
        <time>2023-05-07T08:58:10Z</time>
      </trkpt>
      <trkpt lat="45.89486" lon="5.67565">
        <ele>458.21</ele>
        <time>2023-05-07T08:58:13Z</time>
      </trkpt>
      <trkpt lat="45.89484" lon="5.67563">
        <ele>458.69</ele>
        <time>2023-05-07T08:58:14Z</time>
      </trkpt>
      <trkpt lat="45.89484" lon="5.6756">
        <ele>458.69</ele>
        <time>2023-05-07T08:58:15Z</time>
      </trkpt>
      <trkpt lat="45.89483" lon="5.67558">
        <ele>458.69</ele>
        <time>2023-05-07T08:58:16Z</time>
      </trkpt>
      <trkpt lat="45.89483" lon="5.67556">
        <ele>458.69</ele>
        <time>2023-05-07T08:58:17Z</time>
      </trkpt>
      <trkpt lat="45.89483" lon="5.67554">
        <ele>458.69</ele>
        <time>2023-05-07T08:58:18Z</time>
      </trkpt>
      <trkpt lat="45.89466" lon="5.67536">
        <ele>458.69</ele>
        <time>2023-05-07T08:58:33Z</time>
      </trkpt>
      <trkpt lat="45.89433" lon="5.67541">
        <ele>459.17</ele>
        <time>2023-05-07T08:58:52Z</time>
      </trkpt>
      <trkpt lat="45.89399" lon="5.67547">
        <ele>460.61</ele>
        <time>2023-05-07T08:59:13Z</time>
      </trkpt>
      <trkpt lat="45.89365" lon="5.67561">
        <ele>456.28</ele>
        <time>2023-05-07T08:59:37Z</time>
      </trkpt>
      <trkpt lat="45.8935" lon="5.67534">
        <ele>453.4</ele>
        <time>2023-05-07T08:59:53Z</time>
      </trkpt>
      <trkpt lat="45.89362" lon="5.67495">
        <ele>457.24</ele>
        <time>2023-05-07T09:00:11Z</time>
      </trkpt>
      <trkpt lat="45.89385" lon="5.67448">
        <ele>459.65</ele>
        <time>2023-05-07T09:00:37Z</time>
      </trkpt>
      <trkpt lat="45.8939" lon="5.67429">
        <ele>462.53</ele>
        <time>2023-05-07T09:00:53Z</time>
      </trkpt>
      <trkpt lat="45.89393" lon="5.67427">
        <ele>462.53</ele>
        <time>2023-05-07T09:00:56Z</time>
      </trkpt>
      <trkpt lat="45.89394" lon="5.67425">
        <ele>462.53</ele>
        <time>2023-05-07T09:00:57Z</time>
      </trkpt>
      <trkpt lat="45.89408" lon="5.67405">
        <ele>458.69</ele>
        <time>2023-05-07T09:01:14Z</time>
      </trkpt>
      <trkpt lat="45.8942" lon="5.67379">
        <ele>455.32</ele>
        <time>2023-05-07T09:01:31Z</time>
      </trkpt>
      <trkpt lat="45.8943" lon="5.67361">
        <ele>451.96</ele>
        <time>2023-05-07T09:01:50Z</time>
      </trkpt>
      <trkpt lat="45.8945" lon="5.67334">
        <ele>446.67</ele>
        <time>2023-05-07T09:02:12Z</time>
      </trkpt>
      <trkpt lat="45.89468" lon="5.6731">
        <ele>440.42</ele>
        <time>2023-05-07T09:02:30Z</time>
      </trkpt>
      <trkpt lat="45.89473" lon="5.67293">
        <ele>436.58</ele>
        <time>2023-05-07T09:02:40Z</time>
      </trkpt>
      <trkpt lat="45.89475" lon="5.67291">
        <ele>436.1</ele>
        <time>2023-05-07T09:02:41Z</time>
      </trkpt>
      <trkpt lat="45.895" lon="5.67275">
        <ele>430.33</ele>
        <time>2023-05-07T09:02:58Z</time>
      </trkpt>
      <trkpt lat="45.89518" lon="5.67258">
        <ele>427.44</ele>
        <time>2023-05-07T09:03:13Z</time>
      </trkpt>
      <trkpt lat="45.89521" lon="5.67255">
        <ele>427.44</ele>
        <time>2023-05-07T09:03:15Z</time>
      </trkpt>
      <trkpt lat="45.89544" lon="5.67235">
        <ele>422.64</ele>
        <time>2023-05-07T09:03:31Z</time>
      </trkpt>
      <trkpt lat="45.89566" lon="5.67219">
        <ele>416.87</ele>
        <time>2023-05-07T09:03:45Z</time>
      </trkpt>
      <trkpt lat="45.89592" lon="5.6722">
        <ele>416.87</ele>
        <time>2023-05-07T09:04:00Z</time>
      </trkpt>
      <trkpt lat="45.89605" lon="5.67219">
        <ele>419.27</ele>
        <time>2023-05-07T09:04:19Z</time>
      </trkpt>
      <trkpt lat="45.89616" lon="5.67221">
        <ele>418.31</ele>
        <time>2023-05-07T09:04:36Z</time>
      </trkpt>
      <trkpt lat="45.89616" lon="5.67208">
        <ele>417.35</ele>
        <time>2023-05-07T09:04:52Z</time>
      </trkpt>
      <trkpt lat="45.89624" lon="5.67187">
        <ele>418.31</ele>
        <time>2023-05-07T09:05:08Z</time>
      </trkpt>
      <trkpt lat="45.89631" lon="5.67179">
        <ele>422.16</ele>
        <time>2023-05-07T09:05:22Z</time>
      </trkpt>
      <trkpt lat="45.89643" lon="5.67148">
        <ele>425.52</ele>
        <time>2023-05-07T09:05:40Z</time>
      </trkpt>
      <trkpt lat="45.89649" lon="5.67109">
        <ele>429.85</ele>
        <time>2023-05-07T09:05:56Z</time>
      </trkpt>
      <trkpt lat="45.89655" lon="5.67068">
        <ele>434.17</ele>
        <time>2023-05-07T09:06:14Z</time>
      </trkpt>
      <trkpt lat="45.89661" lon="5.6703">
        <ele>438.5</ele>
        <time>2023-05-07T09:06:30Z</time>
      </trkpt>
      <trkpt lat="45.8967" lon="5.66986">
        <ele>441.38</ele>
        <time>2023-05-07T09:06:48Z</time>
      </trkpt>
      <trkpt lat="45.8969" lon="5.66948">
        <ele>446.19</ele>
        <time>2023-05-07T09:07:08Z</time>
      </trkpt>
      <trkpt lat="45.89714" lon="5.66924">
        <ele>448.11</ele>
        <time>2023-05-07T09:07:25Z</time>
      </trkpt>
      <trkpt lat="45.89736" lon="5.66883">
        <ele>454.84</ele>
        <time>2023-05-07T09:07:45Z</time>
      </trkpt>
      <trkpt lat="45.89758" lon="5.6684">
        <ele>462.53</ele>
        <time>2023-05-07T09:08:06Z</time>
      </trkpt>
      <trkpt lat="45.89775" lon="5.66804">
        <ele>464.93</ele>
        <time>2023-05-07T09:08:25Z</time>
      </trkpt>
      <trkpt lat="45.89776" lon="5.66801">
        <ele>468.3</ele>
        <time>2023-05-07T09:08:47Z</time>
      </trkpt>
      <trkpt lat="45.89772" lon="5.66808">
        <ele>473.59</ele>
        <time>2023-05-07T09:09:16Z</time>
      </trkpt>
      <trkpt lat="45.89771" lon="5.66795">
        <ele>475.51</ele>
        <time>2023-05-07T09:09:51Z</time>
      </trkpt>
      <trkpt lat="45.89772" lon="5.66801">
        <ele>475.99</ele>
        <time>2023-05-07T09:10:21Z</time>
      </trkpt>
      <trkpt lat="45.89771" lon="5.66797">
        <ele>473.59</ele>
        <time>2023-05-07T09:10:51Z</time>
      </trkpt>
      <trkpt lat="45.89777" lon="5.66791">
        <ele>477.43</ele>
        <time>2023-05-07T09:11:20Z</time>
      </trkpt>
      <trkpt lat="45.8981" lon="5.66779">
        <ele>479.84</ele>
        <time>2023-05-07T09:11:37Z</time>
      </trkpt>
      <trkpt lat="45.89834" lon="5.66774">
        <ele>480.32</ele>
        <time>2023-05-07T09:11:54Z</time>
      </trkpt>
      <trkpt lat="45.89881" lon="5.66761">
        <ele>479.35</ele>
        <time>2023-05-07T09:12:15Z</time>
      </trkpt>
      <trkpt lat="45.89916" lon="5.66735">
        <ele>480.8</ele>
        <time>2023-05-07T09:12:37Z</time>
      </trkpt>
      <trkpt lat="45.89938" lon="5.66704">
        <ele>484.16</ele>
        <time>2023-05-07T09:12:58Z</time>
      </trkpt>
      <trkpt lat="45.89948" lon="5.66662">
        <ele>489.93</ele>
        <time>2023-05-07T09:13:19Z</time>
      </trkpt>
      <trkpt lat="45.89966" lon="5.66621">
        <ele>493.29</ele>
        <time>2023-05-07T09:13:38Z</time>
      </trkpt>
      <trkpt lat="45.89983" lon="5.66589">
        <ele>494.74</ele>
        <time>2023-05-07T09:13:56Z</time>
      </trkpt>
      <trkpt lat="45.90002" lon="5.66561">
        <ele>496.66</ele>
        <time>2023-05-07T09:14:14Z</time>
      </trkpt>
      <trkpt lat="45.90025" lon="5.6651">
        <ele>495.7</ele>
        <time>2023-05-07T09:14:34Z</time>
      </trkpt>
      <trkpt lat="45.9004" lon="5.66472">
        <ele>496.66</ele>
        <time>2023-05-07T09:14:52Z</time>
      </trkpt>
      <trkpt lat="45.90045" lon="5.66448">
        <ele>499.06</ele>
        <time>2023-05-07T09:15:04Z</time>
      </trkpt>
      <trkpt lat="45.90043" lon="5.66448">
        <ele>499.54</ele>
        <time>2023-05-07T09:15:05Z</time>
      </trkpt>
      <trkpt lat="45.90041" lon="5.66448">
        <ele>499.54</ele>
        <time>2023-05-07T09:15:06Z</time>
      </trkpt>
      <trkpt lat="45.9004" lon="5.66448">
        <ele>500.02</ele>
        <time>2023-05-07T09:15:07Z</time>
      </trkpt>
      <trkpt lat="45.90038" lon="5.66449">
        <ele>500.02</ele>
        <time>2023-05-07T09:15:08Z</time>
      </trkpt>
      <trkpt lat="45.90036" lon="5.6645">
        <ele>500.02</ele>
        <time>2023-05-07T09:15:09Z</time>
      </trkpt>
      <trkpt lat="45.90034" lon="5.66451">
        <ele>500.02</ele>
        <time>2023-05-07T09:15:10Z</time>
      </trkpt>
      <trkpt lat="45.9" lon="5.66471">
        <ele>497.14</ele>
        <time>2023-05-07T09:15:29Z</time>
      </trkpt>
      <trkpt lat="45.89971" lon="5.66488">
        <ele>494.74</ele>
        <time>2023-05-07T09:15:46Z</time>
      </trkpt>
      <trkpt lat="45.89939" lon="5.665">
        <ele>493.29</ele>
        <time>2023-05-07T09:16:04Z</time>
      </trkpt>
      <trkpt lat="45.89903" lon="5.66524">
        <ele>499.54</ele>
        <time>2023-05-07T09:16:23Z</time>
      </trkpt>
      <trkpt lat="45.89869" lon="5.66544">
        <ele>502.91</ele>
        <time>2023-05-07T09:16:40Z</time>
      </trkpt>
      <trkpt lat="45.89841" lon="5.66554">
        <ele>505.31</ele>
        <time>2023-05-07T09:16:54Z</time>
      </trkpt>
      <trkpt lat="45.89819" lon="5.66561">
        <ele>505.79</ele>
        <time>2023-05-07T09:17:07Z</time>
      </trkpt>
      <trkpt lat="45.89783" lon="5.66572">
        <ele>507.23</ele>
        <time>2023-05-07T09:17:26Z</time>
      </trkpt>
      <trkpt lat="45.89752" lon="5.66584">
        <ele>509.64</ele>
        <time>2023-05-07T09:17:44Z</time>
      </trkpt>
      <trkpt lat="45.89726" lon="5.66607">
        <ele>510.12</ele>
        <time>2023-05-07T09:18:01Z</time>
      </trkpt>
      <trkpt lat="45.89709" lon="5.66637">
        <ele>508.67</ele>
        <time>2023-05-07T09:18:17Z</time>
      </trkpt>
      <trkpt lat="45.89691" lon="5.66667">
        <ele>505.79</ele>
        <time>2023-05-07T09:18:33Z</time>
      </trkpt>
      <trkpt lat="45.89668" lon="5.66685">
        <ele>500.98</ele>
        <time>2023-05-07T09:18:50Z</time>
      </trkpt>
      <trkpt lat="45.89645" lon="5.66701">
        <ele>497.62</ele>
        <time>2023-05-07T09:19:07Z</time>
      </trkpt>
      <trkpt lat="45.89618" lon="5.66719">
        <ele>495.22</ele>
        <time>2023-05-07T09:19:26Z</time>
      </trkpt>
      <trkpt lat="45.89588" lon="5.66725">
        <ele>490.41</ele>
        <time>2023-05-07T09:19:46Z</time>
      </trkpt>
      <trkpt lat="45.8956" lon="5.66734">
        <ele>486.56</ele>
        <time>2023-05-07T09:20:06Z</time>
      </trkpt>
      <trkpt lat="45.89533" lon="5.66747">
        <ele>481.28</ele>
        <time>2023-05-07T09:20:26Z</time>
      </trkpt>
      <trkpt lat="45.89508" lon="5.66768">
        <ele>475.51</ele>
        <time>2023-05-07T09:20:47Z</time>
      </trkpt>
      <trkpt lat="45.89488" lon="5.66785">
        <ele>474.07</ele>
        <time>2023-05-07T09:21:06Z</time>
      </trkpt>
      <trkpt lat="45.89463" lon="5.66807">
        <ele>470.7</ele>
        <time>2023-05-07T09:21:25Z</time>
      </trkpt>
      <trkpt lat="45.89443" lon="5.66827">
        <ele>466.86</ele>
        <time>2023-05-07T09:21:41Z</time>
      </trkpt>
      <trkpt lat="45.89439" lon="5.66828">
        <ele>465.42</ele>
        <time>2023-05-07T09:21:45Z</time>
      </trkpt>
      <trkpt lat="45.89437" lon="5.66827">
        <ele>465.42</ele>
        <time>2023-05-07T09:21:46Z</time>
      </trkpt>
      <trkpt lat="45.89408" lon="5.66833">
        <ele>461.09</ele>
        <time>2023-05-07T09:22:04Z</time>
      </trkpt>
      <trkpt lat="45.89386" lon="5.66854">
        <ele>459.17</ele>
        <time>2023-05-07T09:22:19Z</time>
      </trkpt>
      <trkpt lat="45.89364" lon="5.66884">
        <ele>455.32</ele>
        <time>2023-05-07T09:22:38Z</time>
      </trkpt>
      <trkpt lat="45.89346" lon="5.66909">
        <ele>453.4</ele>
        <time>2023-05-07T09:22:56Z</time>
      </trkpt>
      <trkpt lat="45.89321" lon="5.66923">
        <ele>446.67</ele>
        <time>2023-05-07T09:23:17Z</time>
      </trkpt>
      <trkpt lat="45.89319" lon="5.66922">
        <ele>446.19</ele>
        <time>2023-05-07T09:23:18Z</time>
      </trkpt>
      <trkpt lat="45.89303" lon="5.66921">
        <ele>440.9</ele>
        <time>2023-05-07T09:23:29Z</time>
      </trkpt>
      <trkpt lat="45.89276" lon="5.66921">
        <ele>434.65</ele>
        <time>2023-05-07T09:23:46Z</time>
      </trkpt>
      <trkpt lat="45.89256" lon="5.66934">
        <ele>428.4</ele>
        <time>2023-05-07T09:24:01Z</time>
      </trkpt>
      <trkpt lat="45.89235" lon="5.66954">
        <ele>425.04</ele>
        <time>2023-05-07T09:24:17Z</time>
      </trkpt>
      <trkpt lat="45.89209" lon="5.66962">
        <ele>421.19</ele>
        <time>2023-05-07T09:24:33Z</time>
      </trkpt>
      <trkpt lat="45.8918" lon="5.66964">
        <ele>417.35</ele>
        <time>2023-05-07T09:24:51Z</time>
      </trkpt>
      <trkpt lat="45.89163" lon="5.66996">
        <ele>418.31</ele>
        <time>2023-05-07T09:25:08Z</time>
      </trkpt>
      <trkpt lat="45.89157" lon="5.66999">
        <ele>419.75</ele>
        <time>2023-05-07T09:25:23Z</time>
      </trkpt>
      <trkpt lat="45.89157" lon="5.67006">
        <ele>421.19</ele>
        <time>2023-05-07T09:25:48Z</time>
      </trkpt>
      <trkpt lat="45.89157" lon="5.67012">
        <ele>418.79</ele>
        <time>2023-05-07T09:26:06Z</time>
      </trkpt>
      <trkpt lat="45.89146" lon="5.67027">
        <ele>418.31</ele>
        <time>2023-05-07T09:26:23Z</time>
      </trkpt>
      <trkpt lat="45.89142" lon="5.67031">
        <ele>416.87</ele>
        <time>2023-05-07T09:26:39Z</time>
      </trkpt>
      <trkpt lat="45.89145" lon="5.67037">
        <ele>414.95</ele>
        <time>2023-05-07T09:26:58Z</time>
      </trkpt>
      <trkpt lat="45.89145" lon="5.67039">
        <ele>415.43</ele>
        <time>2023-05-07T09:27:15Z</time>
      </trkpt>
      <trkpt lat="45.89142" lon="5.67042">
        <ele>417.83</ele>
        <time>2023-05-07T09:27:38Z</time>
      </trkpt>
      <trkpt lat="45.89137" lon="5.67041">
        <ele>416.39</ele>
        <time>2023-05-07T09:27:59Z</time>
      </trkpt>
      <trkpt lat="45.8914" lon="5.67037">
        <ele>413.98</ele>
        <time>2023-05-07T09:28:22Z</time>
      </trkpt>
      <trkpt lat="45.89141" lon="5.67032">
        <ele>417.35</ele>
        <time>2023-05-07T09:28:43Z</time>
      </trkpt>
      <trkpt lat="45.89142" lon="5.67037">
        <ele>421.19</ele>
        <time>2023-05-07T09:29:11Z</time>
      </trkpt>
      <trkpt lat="45.89143" lon="5.67032">
        <ele>421.19</ele>
        <time>2023-05-07T09:29:26Z</time>
      </trkpt>
      <trkpt lat="45.89142" lon="5.67023">
        <ele>422.64</ele>
        <time>2023-05-07T09:29:49Z</time>
      </trkpt>
      <trkpt lat="45.89145" lon="5.67027">
        <ele>423.12</ele>
        <time>2023-05-07T09:30:11Z</time>
      </trkpt>
      <trkpt lat="45.89144" lon="5.67032">
        <ele>424.56</ele>
        <time>2023-05-07T09:30:37Z</time>
      </trkpt>
      <trkpt lat="45.89146" lon="5.67029">
        <ele>419.27</ele>
        <time>2023-05-07T09:31:02Z</time>
      </trkpt>
      <trkpt lat="45.89144" lon="5.67032">
        <ele>418.79</ele>
        <time>2023-05-07T09:31:27Z</time>
      </trkpt>
      <trkpt lat="45.89141" lon="5.67042">
        <ele>418.31</ele>
        <time>2023-05-07T09:31:47Z</time>
      </trkpt>
      <trkpt lat="45.89144" lon="5.67036">
        <ele>415.91</ele>
        <time>2023-05-07T09:32:06Z</time>
      </trkpt>
      <trkpt lat="45.89149" lon="5.67041">
        <ele>415.91</ele>
        <time>2023-05-07T09:32:24Z</time>
      </trkpt>
      <trkpt lat="45.8916" lon="5.67054">
        <ele>416.87</ele>
        <time>2023-05-07T09:32:40Z</time>
      </trkpt>
      <trkpt lat="45.89164" lon="5.67059">
        <ele>415.91</ele>
        <time>2023-05-07T09:33:01Z</time>
      </trkpt>
      <trkpt lat="45.89167" lon="5.67061">
        <ele>414.95</ele>
        <time>2023-05-07T09:33:22Z</time>
      </trkpt>
      <trkpt lat="45.89166" lon="5.67063">
        <ele>414.95</ele>
        <time>2023-05-07T09:33:51Z</time>
      </trkpt>
      <trkpt lat="45.89165" lon="5.6706">
        <ele>413.5</ele>
        <time>2023-05-07T09:34:10Z</time>
      </trkpt>
      <trkpt lat="45.89168" lon="5.67058">
        <ele>411.58</ele>
        <time>2023-05-07T09:34:26Z</time>
      </trkpt>
      <trkpt lat="45.89169" lon="5.67055">
        <ele>411.58</ele>
        <time>2023-05-07T09:34:48Z</time>
      </trkpt>
      <trkpt lat="45.89168" lon="5.67052">
        <ele>412.06</ele>
        <time>2023-05-07T09:35:03Z</time>
      </trkpt>
      <trkpt lat="45.8917" lon="5.67053">
        <ele>411.1</ele>
        <time>2023-05-07T09:35:28Z</time>
      </trkpt>
      <trkpt lat="45.89177" lon="5.67044">
        <ele>407.26</ele>
        <time>2023-05-07T09:35:41Z</time>
      </trkpt>
      <trkpt lat="45.89177" lon="5.67035">
        <ele>409.18</ele>
        <time>2023-05-07T09:36:00Z</time>
      </trkpt>
      <trkpt lat="45.89179" lon="5.67054">
        <ele>402.93</ele>
        <time>2023-05-07T09:36:22Z</time>
      </trkpt>
      <trkpt lat="45.89181" lon="5.67056">
        <ele>401.49</ele>
        <time>2023-05-07T09:36:38Z</time>
      </trkpt>
      <trkpt lat="45.89177" lon="5.67062">
        <ele>398.12</ele>
        <time>2023-05-07T09:36:53Z</time>
      </trkpt>
      <trkpt lat="45.89172" lon="5.67062">
        <ele>392.36</ele>
        <time>2023-05-07T09:37:15Z</time>
      </trkpt>
      <trkpt lat="45.89168" lon="5.67068">
        <ele>389.47</ele>
        <time>2023-05-07T09:37:34Z</time>
      </trkpt>
      <trkpt lat="45.89164" lon="5.67069">
        <ele>393.8</ele>
        <time>2023-05-07T09:37:45Z</time>
      </trkpt>
      <trkpt lat="45.89161" lon="5.67068">
        <ele>397.64</ele>
        <time>2023-05-07T09:38:14Z</time>
      </trkpt>
      <trkpt lat="45.89148" lon="5.6705">
        <ele>403.89</ele>
        <time>2023-05-07T09:38:32Z</time>
      </trkpt>
      <trkpt lat="45.89152" lon="5.67041">
        <ele>406.77</ele>
        <time>2023-05-07T09:38:50Z</time>
      </trkpt>
      <trkpt lat="45.89148" lon="5.67036">
        <ele>409.66</ele>
        <time>2023-05-07T09:39:09Z</time>
      </trkpt>
      <trkpt lat="45.89147" lon="5.67034">
        <ele>410.14</ele>
        <time>2023-05-07T09:39:30Z</time>
      </trkpt>
      <trkpt lat="45.89142" lon="5.67044">
        <ele>409.66</ele>
        <time>2023-05-07T09:39:51Z</time>
      </trkpt>
      <trkpt lat="45.8914" lon="5.67036">
        <ele>410.14</ele>
        <time>2023-05-07T09:40:10Z</time>
      </trkpt>
      <trkpt lat="45.89135" lon="5.67031">
        <ele>412.06</ele>
        <time>2023-05-07T09:40:39Z</time>
      </trkpt>
      <trkpt lat="45.8914" lon="5.67044">
        <ele>410.14</ele>
        <time>2023-05-07T09:40:59Z</time>
      </trkpt>
      <trkpt lat="45.8914" lon="5.67038">
        <ele>410.14</ele>
        <time>2023-05-07T09:41:16Z</time>
      </trkpt>
      <trkpt lat="45.89142" lon="5.67031">
        <ele>410.14</ele>
        <time>2023-05-07T09:41:31Z</time>
      </trkpt>
      <trkpt lat="45.89139" lon="5.67028">
        <ele>409.66</ele>
        <time>2023-05-07T09:41:48Z</time>
      </trkpt>
      <trkpt lat="45.89135" lon="5.67027">
        <ele>409.66</ele>
        <time>2023-05-07T09:42:07Z</time>
      </trkpt>
      <trkpt lat="45.89138" lon="5.67023">
        <ele>410.14</ele>
        <time>2023-05-07T09:42:28Z</time>
      </trkpt>
      <trkpt lat="45.89142" lon="5.67023">
        <ele>409.66</ele>
        <time>2023-05-07T09:42:54Z</time>
      </trkpt>
      <trkpt lat="45.89141" lon="5.67025">
        <ele>407.74</ele>
        <time>2023-05-07T09:43:20Z</time>
      </trkpt>
      <trkpt lat="45.89142" lon="5.67027">
        <ele>407.74</ele>
        <time>2023-05-07T09:43:41Z</time>
      </trkpt>
      <trkpt lat="45.89139" lon="5.67027">
        <ele>407.74</ele>
        <time>2023-05-07T09:43:57Z</time>
      </trkpt>
      <trkpt lat="45.89139" lon="5.67028">
        <ele>406.29</ele>
        <time>2023-05-07T09:44:12Z</time>
      </trkpt>
      <trkpt lat="45.89138" lon="5.67029">
        <ele>406.29</ele>
        <time>2023-05-07T09:44:28Z</time>
      </trkpt>
      <trkpt lat="45.89138" lon="5.67025">
        <ele>406.77</ele>
        <time>2023-05-07T09:44:46Z</time>
      </trkpt>
      <trkpt lat="45.89143" lon="5.67015">
        <ele>406.29</ele>
        <time>2023-05-07T09:45:04Z</time>
      </trkpt>
      <trkpt lat="45.89148" lon="5.67008">
        <ele>406.77</ele>
        <time>2023-05-07T09:45:20Z</time>
      </trkpt>
      <trkpt lat="45.89151" lon="5.67006">
        <ele>408.22</ele>
        <time>2023-05-07T09:45:38Z</time>
      </trkpt>
      <trkpt lat="45.89151" lon="5.67017">
        <ele>407.74</ele>
        <time>2023-05-07T09:45:53Z</time>
      </trkpt>
      <trkpt lat="45.8915" lon="5.6701">
        <ele>409.18</ele>
        <time>2023-05-07T09:46:19Z</time>
      </trkpt>
      <trkpt lat="45.89152" lon="5.67015">
        <ele>411.1</ele>
        <time>2023-05-07T09:46:41Z</time>
      </trkpt>
      <trkpt lat="45.89136" lon="5.67037">
        <ele>410.14</ele>
        <time>2023-05-07T09:46:59Z</time>
      </trkpt>
      <trkpt lat="45.89111" lon="5.67068">
        <ele>410.14</ele>
        <time>2023-05-07T09:47:20Z</time>
      </trkpt>
      <trkpt lat="45.89079" lon="5.67077">
        <ele>412.54</ele>
        <time>2023-05-07T09:47:39Z</time>
      </trkpt>
      <trkpt lat="45.89046" lon="5.6707">
        <ele>414.47</ele>
        <time>2023-05-07T09:47:57Z</time>
      </trkpt>
      <trkpt lat="45.89018" lon="5.67062">
        <ele>416.87</ele>
        <time>2023-05-07T09:48:16Z</time>
      </trkpt>
      <trkpt lat="45.89011" lon="5.67056">
        <ele>417.83</ele>
        <time>2023-05-07T09:48:22Z</time>
      </trkpt>
      <trkpt lat="45.8901" lon="5.67054">
        <ele>417.83</ele>
        <time>2023-05-07T09:48:23Z</time>
      </trkpt>
      <trkpt lat="45.89009" lon="5.67052">
        <ele>417.35</ele>
        <time>2023-05-07T09:48:24Z</time>
      </trkpt>
      <trkpt lat="45.89009" lon="5.6705">
        <ele>417.35</ele>
        <time>2023-05-07T09:48:25Z</time>
      </trkpt>
      <trkpt lat="45.89009" lon="5.67048">
        <ele>417.35</ele>
        <time>2023-05-07T09:48:26Z</time>
      </trkpt>
      <trkpt lat="45.89001" lon="5.67018">
        <ele>420.23</ele>
        <time>2023-05-07T09:48:41Z</time>
      </trkpt>
      <trkpt lat="45.89003" lon="5.66982">
        <ele>422.64</ele>
        <time>2023-05-07T09:48:57Z</time>
      </trkpt>
      <trkpt lat="45.89004" lon="5.66946">
        <ele>422.64</ele>
        <time>2023-05-07T09:49:13Z</time>
      </trkpt>
      <trkpt lat="45.88991" lon="5.66929">
        <ele>423.12</ele>
        <time>2023-05-07T09:49:27Z</time>
      </trkpt>
      <trkpt lat="45.88989" lon="5.6693">
        <ele>423.6</ele>
        <time>2023-05-07T09:49:29Z</time>
      </trkpt>
      <trkpt lat="45.88956" lon="5.66928">
        <ele>431.77</ele>
        <time>2023-05-07T09:49:54Z</time>
      </trkpt>
      <trkpt lat="45.88932" lon="5.66922">
        <ele>433.21</ele>
        <time>2023-05-07T09:50:15Z</time>
      </trkpt>
      <trkpt lat="45.88938" lon="5.66913">
        <ele>433.21</ele>
        <time>2023-05-07T09:50:21Z</time>
      </trkpt>
      <trkpt lat="45.88952" lon="5.66882">
        <ele>434.17</ele>
        <time>2023-05-07T09:50:39Z</time>
      </trkpt>
      <trkpt lat="45.88961" lon="5.66851">
        <ele>436.1</ele>
        <time>2023-05-07T09:50:56Z</time>
      </trkpt>
      <trkpt lat="45.88971" lon="5.66821">
        <ele>438.5</ele>
        <time>2023-05-07T09:51:15Z</time>
      </trkpt>
      <trkpt lat="45.88985" lon="5.66795">
        <ele>442.82</ele>
        <time>2023-05-07T09:51:38Z</time>
      </trkpt>
      <trkpt lat="45.89008" lon="5.66771">
        <ele>447.63</ele>
        <time>2023-05-07T09:52:01Z</time>
      </trkpt>
      <trkpt lat="45.89025" lon="5.66738">
        <ele>450.03</ele>
        <time>2023-05-07T09:52:19Z</time>
      </trkpt>
      <trkpt lat="45.8905" lon="5.66701">
        <ele>453.88</ele>
        <time>2023-05-07T09:52:39Z</time>
      </trkpt>
      <trkpt lat="45.89074" lon="5.66648">
        <ele>463.97</ele>
        <time>2023-05-07T09:53:04Z</time>
      </trkpt>
      <trkpt lat="45.89085" lon="5.66606">
        <ele>472.14</ele>
        <time>2023-05-07T09:53:23Z</time>
      </trkpt>
      <trkpt lat="45.89093" lon="5.66576">
        <ele>474.07</ele>
        <time>2023-05-07T09:53:38Z</time>
      </trkpt>
      <trkpt lat="45.89093" lon="5.66573">
        <ele>474.07</ele>
        <time>2023-05-07T09:53:39Z</time>
      </trkpt>
      <trkpt lat="45.89094" lon="5.66571">
        <ele>474.07</ele>
        <time>2023-05-07T09:53:40Z</time>
      </trkpt>
      <trkpt lat="45.89094" lon="5.66569">
        <ele>474.07</ele>
        <time>2023-05-07T09:53:41Z</time>
      </trkpt>
      <trkpt lat="45.89094" lon="5.66566">
        <ele>474.55</ele>
        <time>2023-05-07T09:53:42Z</time>
      </trkpt>
      <trkpt lat="45.89094" lon="5.66564">
        <ele>474.55</ele>
        <time>2023-05-07T09:53:43Z</time>
      </trkpt>
      <trkpt lat="45.89093" lon="5.66507">
        <ele>482.72</ele>
        <time>2023-05-07T09:54:05Z</time>
      </trkpt>
      <trkpt lat="45.89091" lon="5.66463">
        <ele>489.45</ele>
        <time>2023-05-07T09:54:29Z</time>
      </trkpt>
      <trkpt lat="45.89091" lon="5.66452">
        <ele>493.29</ele>
        <time>2023-05-07T09:54:49Z</time>
      </trkpt>
      <trkpt lat="45.89092" lon="5.6645">
        <ele>494.74</ele>
        <time>2023-05-07T09:55:17Z</time>
      </trkpt>
      <trkpt lat="45.89091" lon="5.66449">
        <ele>495.22</ele>
        <time>2023-05-07T09:55:51Z</time>
      </trkpt>
      <trkpt lat="45.89093" lon="5.66452">
        <ele>496.66</ele>
        <time>2023-05-07T09:56:19Z</time>
      </trkpt>
      <trkpt lat="45.89089" lon="5.66449">
        <ele>494.26</ele>
        <time>2023-05-07T09:56:49Z</time>
      </trkpt>
      <trkpt lat="45.89088" lon="5.66447">
        <ele>494.26</ele>
        <time>2023-05-07T09:57:15Z</time>
      </trkpt>
      <trkpt lat="45.89089" lon="5.66434">
        <ele>495.22</ele>
        <time>2023-05-07T09:57:31Z</time>
      </trkpt>
      <trkpt lat="45.89086" lon="5.66434">
        <ele>491.85</ele>
        <time>2023-05-07T09:58:01Z</time>
      </trkpt>
      <trkpt lat="45.89086" lon="5.66438">
        <ele>490.41</ele>
        <time>2023-05-07T09:58:34Z</time>
      </trkpt>
      <trkpt lat="45.89086" lon="5.66438">
        <ele>490.41</ele>
        <time>2023-05-07T09:59:07Z</time>
      </trkpt>
      <trkpt lat="45.89087" lon="5.66437">
        <ele>491.85</ele>
        <time>2023-05-07T09:59:41Z</time>
      </trkpt>
      <trkpt lat="45.89087" lon="5.66438">
        <ele>490.41</ele>
        <time>2023-05-07T10:00:18Z</time>
      </trkpt>
      <trkpt lat="45.89087" lon="5.66438">
        <ele>491.37</ele>
        <time>2023-05-07T10:00:41Z</time>
      </trkpt>
      <trkpt lat="45.89084" lon="5.66424">
        <ele>491.85</ele>
        <time>2023-05-07T10:00:48Z</time>
      </trkpt>
      <trkpt lat="45.89083" lon="5.66422">
        <ele>491.85</ele>
        <time>2023-05-07T10:00:49Z</time>
      </trkpt>
      <trkpt lat="45.89083" lon="5.66421">
        <ele>491.85</ele>
        <time>2023-05-07T10:00:50Z</time>
      </trkpt>
      <trkpt lat="45.89078" lon="5.66393">
        <ele>492.81</ele>
        <time>2023-05-07T10:01:06Z</time>
      </trkpt>
      <trkpt lat="45.89061" lon="5.66366">
        <ele>491.37</ele>
        <time>2023-05-07T10:01:25Z</time>
      </trkpt>
      <trkpt lat="45.89037" lon="5.66338">
        <ele>489.45</ele>
        <time>2023-05-07T10:01:44Z</time>
      </trkpt>
      <trkpt lat="45.89017" lon="5.66309">
        <ele>488.01</ele>
        <time>2023-05-07T10:02:02Z</time>
      </trkpt>
      <trkpt lat="45.88987" lon="5.66271">
        <ele>485.12</ele>
        <time>2023-05-07T10:02:26Z</time>
      </trkpt>
      <trkpt lat="45.88963" lon="5.66235">
        <ele>479.35</ele>
        <time>2023-05-07T10:02:50Z</time>
      </trkpt>
      <trkpt lat="45.8896" lon="5.66204">
        <ele>480.32</ele>
        <time>2023-05-07T10:03:06Z</time>
      </trkpt>
      <trkpt lat="45.8896" lon="5.66195">
        <ele>479.35</ele>
        <time>2023-05-07T10:03:22Z</time>
      </trkpt>
      <trkpt lat="45.88962" lon="5.66176">
        <ele>478.39</ele>
        <time>2023-05-07T10:03:35Z</time>
      </trkpt>
      <trkpt lat="45.88964" lon="5.66134">
        <ele>477.43</ele>
        <time>2023-05-07T10:03:54Z</time>
      </trkpt>
      <trkpt lat="45.88964" lon="5.66129">
        <ele>478.87</ele>
        <time>2023-05-07T10:04:08Z</time>
      </trkpt>
      <trkpt lat="45.88964" lon="5.66116">
        <ele>481.28</ele>
        <time>2023-05-07T10:04:29Z</time>
      </trkpt>
      <trkpt lat="45.88964" lon="5.66115">
        <ele>481.28</ele>
        <time>2023-05-07T10:04:30Z</time>
      </trkpt>
      <trkpt lat="45.88963" lon="5.66113">
        <ele>481.76</ele>
        <time>2023-05-07T10:04:31Z</time>
      </trkpt>
      <trkpt lat="45.88963" lon="5.66111">
        <ele>481.76</ele>
        <time>2023-05-07T10:04:32Z</time>
      </trkpt>
      <trkpt lat="45.88948" lon="5.66078">
        <ele>484.64</ele>
        <time>2023-05-07T10:04:50Z</time>
      </trkpt>
      <trkpt lat="45.88945" lon="5.66055">
        <ele>486.56</ele>
        <time>2023-05-07T10:05:01Z</time>
      </trkpt>
      <trkpt lat="45.88946" lon="5.66053">
        <ele>486.56</ele>
        <time>2023-05-07T10:05:02Z</time>
      </trkpt>
      <trkpt lat="45.88948" lon="5.66052">
        <ele>486.56</ele>
        <time>2023-05-07T10:05:03Z</time>
      </trkpt>
      <trkpt lat="45.88974" lon="5.66046">
        <ele>489.45</ele>
        <time>2023-05-07T10:05:23Z</time>
      </trkpt>
      <trkpt lat="45.89005" lon="5.66051">
        <ele>493.77</ele>
        <time>2023-05-07T10:05:46Z</time>
      </trkpt>
      <trkpt lat="45.89032" lon="5.6604">
        <ele>500.5</ele>
        <time>2023-05-07T10:06:04Z</time>
      </trkpt>
      <trkpt lat="45.89057" lon="5.66017">
        <ele>503.39</ele>
        <time>2023-05-07T10:06:21Z</time>
      </trkpt>
      <trkpt lat="45.89081" lon="5.65988">
        <ele>504.35</ele>
        <time>2023-05-07T10:06:39Z</time>
      </trkpt>
      <trkpt lat="45.89097" lon="5.65952">
        <ele>509.64</ele>
        <time>2023-05-07T10:06:56Z</time>
      </trkpt>
      <trkpt lat="45.89117" lon="5.65882">
        <ele>516.37</ele>
        <time>2023-05-07T10:07:09Z</time>
      </trkpt>
      <trkpt lat="45.89159" lon="5.65803">
        <ele>520.69</ele>
        <time>2023-05-07T10:07:23Z</time>
      </trkpt>
      <trkpt lat="45.89162" lon="5.65797">
        <ele>520.69</ele>
        <time>2023-05-07T10:07:24Z</time>
      </trkpt>
      <trkpt lat="45.89181" lon="5.65757">
        <ele>525.02</ele>
        <time>2023-05-07T10:07:33Z</time>
      </trkpt>
      <trkpt lat="45.89181" lon="5.65755">
        <ele>525.02</ele>
        <time>2023-05-07T10:07:34Z</time>
      </trkpt>
      <trkpt lat="45.8918" lon="5.65754">
        <ele>525.5</ele>
        <time>2023-05-07T10:07:35Z</time>
      </trkpt>
      <trkpt lat="45.89172" lon="5.65747">
        <ele>526.94</ele>
        <time>2023-05-07T10:07:42Z</time>
      </trkpt>
      <trkpt lat="45.8917" lon="5.65747">
        <ele>527.42</ele>
        <time>2023-05-07T10:07:43Z</time>
      </trkpt>
      <trkpt lat="45.89139" lon="5.65754">
        <ele>529.34</ele>
        <time>2023-05-07T10:08:01Z</time>
      </trkpt>
      <trkpt lat="45.89109" lon="5.65756">
        <ele>531.75</ele>
        <time>2023-05-07T10:08:19Z</time>
      </trkpt>
      <trkpt lat="45.89079" lon="5.65756">
        <ele>535.11</ele>
        <time>2023-05-07T10:08:37Z</time>
      </trkpt>
      <trkpt lat="45.89044" lon="5.65749">
        <ele>536.07</ele>
        <time>2023-05-07T10:08:58Z</time>
      </trkpt>
      <trkpt lat="45.89017" lon="5.65729">
        <ele>534.15</ele>
        <time>2023-05-07T10:09:18Z</time>
      </trkpt>
      <trkpt lat="45.89014" lon="5.65717">
        <ele>534.15</ele>
        <time>2023-05-07T10:09:24Z</time>
      </trkpt>
      <trkpt lat="45.89013" lon="5.65715">
        <ele>534.15</ele>
        <time>2023-05-07T10:09:25Z</time>
      </trkpt>
      <trkpt lat="45.88997" lon="5.65678">
        <ele>532.71</ele>
        <time>2023-05-07T10:09:43Z</time>
      </trkpt>
      <trkpt lat="45.88982" lon="5.65636">
        <ele>531.75</ele>
        <time>2023-05-07T10:10:02Z</time>
      </trkpt>
      <trkpt lat="45.88969" lon="5.65621">
        <ele>533.19</ele>
        <time>2023-05-07T10:10:14Z</time>
      </trkpt>
      <trkpt lat="45.88966" lon="5.65622">
        <ele>533.67</ele>
        <time>2023-05-07T10:10:16Z</time>
      </trkpt>
      <trkpt lat="45.88929" lon="5.6563">
        <ele>532.23</ele>
        <time>2023-05-07T10:10:37Z</time>
      </trkpt>
      <trkpt lat="45.88897" lon="5.6564">
        <ele>532.23</ele>
        <time>2023-05-07T10:10:57Z</time>
      </trkpt>
      <trkpt lat="45.88878" lon="5.65633">
        <ele>530.79</ele>
        <time>2023-05-07T10:11:11Z</time>
      </trkpt>
      <trkpt lat="45.88877" lon="5.65632">
        <ele>530.79</ele>
        <time>2023-05-07T10:11:12Z</time>
      </trkpt>
      <trkpt lat="45.88876" lon="5.6563">
        <ele>530.3</ele>
        <time>2023-05-07T10:11:13Z</time>
      </trkpt>
      <trkpt lat="45.88849" lon="5.65617">
        <ele>529.82</ele>
        <time>2023-05-07T10:11:30Z</time>
      </trkpt>
      <trkpt lat="45.88816" lon="5.65597">
        <ele>531.75</ele>
        <time>2023-05-07T10:11:51Z</time>
      </trkpt>
      <trkpt lat="45.88781" lon="5.65578">
        <ele>531.27</ele>
        <time>2023-05-07T10:12:14Z</time>
      </trkpt>
      <trkpt lat="45.88744" lon="5.65557">
        <ele>532.23</ele>
        <time>2023-05-07T10:12:38Z</time>
      </trkpt>
      <trkpt lat="45.88713" lon="5.65556">
        <ele>532.23</ele>
        <time>2023-05-07T10:12:59Z</time>
      </trkpt>
      <trkpt lat="45.88687" lon="5.65559">
        <ele>531.75</ele>
        <time>2023-05-07T10:13:17Z</time>
      </trkpt>
      <trkpt lat="45.88652" lon="5.65549">
        <ele>534.15</ele>
        <time>2023-05-07T10:13:36Z</time>
      </trkpt>
      <trkpt lat="45.88631" lon="5.65538">
        <ele>536.55</ele>
        <time>2023-05-07T10:13:54Z</time>
      </trkpt>
      <trkpt lat="45.88592" lon="5.65531">
        <ele>540.88</ele>
        <time>2023-05-07T10:14:14Z</time>
      </trkpt>
      <trkpt lat="45.8856" lon="5.65538">
        <ele>546.17</ele>
        <time>2023-05-07T10:14:32Z</time>
      </trkpt>
      <trkpt lat="45.88527" lon="5.65534">
        <ele>548.57</ele>
        <time>2023-05-07T10:14:50Z</time>
      </trkpt>
      <trkpt lat="45.88484" lon="5.65533">
        <ele>550.97</ele>
        <time>2023-05-07T10:15:13Z</time>
      </trkpt>
      <trkpt lat="45.88449" lon="5.65517">
        <ele>546.65</ele>
        <time>2023-05-07T10:15:35Z</time>
      </trkpt>
      <trkpt lat="45.88446" lon="5.65515">
        <ele>546.17</ele>
        <time>2023-05-07T10:15:36Z</time>
      </trkpt>
      <trkpt lat="45.88411" lon="5.65504">
        <ele>548.09</ele>
        <time>2023-05-07T10:15:57Z</time>
      </trkpt>
      <trkpt lat="45.88396" lon="5.655">
        <ele>548.57</ele>
        <time>2023-05-07T10:16:03Z</time>
      </trkpt>
      <trkpt lat="45.88394" lon="5.655">
        <ele>548.57</ele>
        <time>2023-05-07T10:16:04Z</time>
      </trkpt>
      <trkpt lat="45.88372" lon="5.65502">
        <ele>545.69</ele>
        <time>2023-05-07T10:16:21Z</time>
      </trkpt>
      <trkpt lat="45.88351" lon="5.65502">
        <ele>542.32</ele>
        <time>2023-05-07T10:16:39Z</time>
      </trkpt>
      <trkpt lat="45.88316" lon="5.65512">
        <ele>544.24</ele>
        <time>2023-05-07T10:16:57Z</time>
      </trkpt>
      <trkpt lat="45.8829" lon="5.65515">
        <ele>544.24</ele>
        <time>2023-05-07T10:17:14Z</time>
      </trkpt>
      <trkpt lat="45.88265" lon="5.65506">
        <ele>540.88</ele>
        <time>2023-05-07T10:17:33Z</time>
      </trkpt>
      <trkpt lat="45.88248" lon="5.65491">
        <ele>536.07</ele>
        <time>2023-05-07T10:17:43Z</time>
      </trkpt>
      <trkpt lat="45.88224" lon="5.65448">
        <ele>533.19</ele>
        <time>2023-05-07T10:18:01Z</time>
      </trkpt>
      <trkpt lat="45.88197" lon="5.65414">
        <ele>538.48</ele>
        <time>2023-05-07T10:18:21Z</time>
      </trkpt>
      <trkpt lat="45.88168" lon="5.65413">
        <ele>541.84</ele>
        <time>2023-05-07T10:18:40Z</time>
      </trkpt>
      <trkpt lat="45.88145" lon="5.65394">
        <ele>542.32</ele>
        <time>2023-05-07T10:18:59Z</time>
      </trkpt>
      <trkpt lat="45.88136" lon="5.65366">
        <ele>538.96</ele>
        <time>2023-05-07T10:19:15Z</time>
      </trkpt>
      <trkpt lat="45.88137" lon="5.65363">
        <ele>538.96</ele>
        <time>2023-05-07T10:19:16Z</time>
      </trkpt>
      <trkpt lat="45.88138" lon="5.6536">
        <ele>538.96</ele>
        <time>2023-05-07T10:19:17Z</time>
      </trkpt>
      <trkpt lat="45.88139" lon="5.65356">
        <ele>538.96</ele>
        <time>2023-05-07T10:19:18Z</time>
      </trkpt>
      <trkpt lat="45.88141" lon="5.65353">
        <ele>538.96</ele>
        <time>2023-05-07T10:19:19Z</time>
      </trkpt>
      <trkpt lat="45.88142" lon="5.65351">
        <ele>538.48</ele>
        <time>2023-05-07T10:19:20Z</time>
      </trkpt>
      <trkpt lat="45.88144" lon="5.65349">
        <ele>538.48</ele>
        <time>2023-05-07T10:19:21Z</time>
      </trkpt>
      <trkpt lat="45.88157" lon="5.65305">
        <ele>537.03</ele>
        <time>2023-05-07T10:19:39Z</time>
      </trkpt>
      <trkpt lat="45.88158" lon="5.65302">
        <ele>536.55</ele>
        <time>2023-05-07T10:19:40Z</time>
      </trkpt>
      <trkpt lat="45.88159" lon="5.653">
        <ele>536.55</ele>
        <time>2023-05-07T10:19:41Z</time>
      </trkpt>
      <trkpt lat="45.88159" lon="5.65297">
        <ele>536.07</ele>
        <time>2023-05-07T10:19:42Z</time>
      </trkpt>
      <trkpt lat="45.8816" lon="5.65294">
        <ele>535.59</ele>
        <time>2023-05-07T10:19:43Z</time>
      </trkpt>
      <trkpt lat="45.8816" lon="5.65291">
        <ele>535.11</ele>
        <time>2023-05-07T10:19:44Z</time>
      </trkpt>
      <trkpt lat="45.8816" lon="5.65288">
        <ele>534.63</ele>
        <time>2023-05-07T10:19:45Z</time>
      </trkpt>
      <trkpt lat="45.88159" lon="5.65244">
        <ele>537.51</ele>
        <time>2023-05-07T10:19:59Z</time>
      </trkpt>
      <trkpt lat="45.8813" lon="5.65234">
        <ele>543.76</ele>
        <time>2023-05-07T10:20:21Z</time>
      </trkpt>
      <trkpt lat="45.88102" lon="5.65254">
        <ele>544.72</ele>
        <time>2023-05-07T10:20:41Z</time>
      </trkpt>
      <trkpt lat="45.881" lon="5.65254">
        <ele>544.72</ele>
        <time>2023-05-07T10:20:42Z</time>
      </trkpt>
      <trkpt lat="45.88064" lon="5.65263">
        <ele>548.57</ele>
        <time>2023-05-07T10:21:01Z</time>
      </trkpt>
      <trkpt lat="45.88024" lon="5.65253">
        <ele>554.34</ele>
        <time>2023-05-07T10:21:22Z</time>
      </trkpt>
      <trkpt lat="45.87986" lon="5.65226">
        <ele>553.86</ele>
        <time>2023-05-07T10:21:46Z</time>
      </trkpt>
      <trkpt lat="45.87963" lon="5.65242">
        <ele>554.34</ele>
        <time>2023-05-07T10:21:59Z</time>
      </trkpt>
      <trkpt lat="45.87949" lon="5.65279">
        <ele>556.26</ele>
        <time>2023-05-07T10:22:19Z</time>
      </trkpt>
      <trkpt lat="45.87938" lon="5.65309">
        <ele>554.34</ele>
        <time>2023-05-07T10:22:39Z</time>
      </trkpt>
      <trkpt lat="45.8793" lon="5.65326">
        <ele>555.3</ele>
        <time>2023-05-07T10:23:03Z</time>
      </trkpt>
      <trkpt lat="45.87939" lon="5.65315">
        <ele>557.7</ele>
        <time>2023-05-07T10:23:34Z</time>
      </trkpt>
      <trkpt lat="45.87916" lon="5.65336">
        <ele>558.66</ele>
        <time>2023-05-07T10:23:54Z</time>
      </trkpt>
      <trkpt lat="45.87921" lon="5.6534">
        <ele>557.22</ele>
        <time>2023-05-07T10:24:16Z</time>
      </trkpt>
      <trkpt lat="45.87919" lon="5.65364">
        <ele>554.34</ele>
        <time>2023-05-07T10:24:37Z</time>
      </trkpt>
      <trkpt lat="45.87909" lon="5.65404">
        <ele>550.01</ele>
        <time>2023-05-07T10:24:59Z</time>
      </trkpt>
      <trkpt lat="45.87889" lon="5.65454">
        <ele>543.28</ele>
        <time>2023-05-07T10:25:20Z</time>
      </trkpt>
      <trkpt lat="45.87879" lon="5.65484">
        <ele>536.55</ele>
        <time>2023-05-07T10:25:42Z</time>
      </trkpt>
      <trkpt lat="45.87871" lon="5.65518">
        <ele>527.42</ele>
        <time>2023-05-07T10:26:05Z</time>
      </trkpt>
      <trkpt lat="45.8787" lon="5.65554">
        <ele>521.17</ele>
        <time>2023-05-07T10:26:29Z</time>
      </trkpt>
      <trkpt lat="45.87866" lon="5.65601">
        <ele>515.4</ele>
        <time>2023-05-07T10:26:51Z</time>
      </trkpt>
      <trkpt lat="45.87865" lon="5.65668">
        <ele>511.56</ele>
        <time>2023-05-07T10:27:15Z</time>
      </trkpt>
      <trkpt lat="45.87864" lon="5.65702">
        <ele>507.71</ele>
        <time>2023-05-07T10:27:37Z</time>
      </trkpt>
      <trkpt lat="45.8787" lon="5.65755">
        <ele>501.46</ele>
        <time>2023-05-07T10:28:01Z</time>
      </trkpt>
      <trkpt lat="45.87877" lon="5.65798">
        <ele>493.77</ele>
        <time>2023-05-07T10:28:25Z</time>
      </trkpt>
      <trkpt lat="45.87884" lon="5.65843">
        <ele>487.05</ele>
        <time>2023-05-07T10:28:46Z</time>
      </trkpt>
      <trkpt lat="45.87884" lon="5.65872">
        <ele>482.72</ele>
        <time>2023-05-07T10:29:04Z</time>
      </trkpt>
      <trkpt lat="45.8789" lon="5.65901">
        <ele>475.51</ele>
        <time>2023-05-07T10:29:23Z</time>
      </trkpt>
      <trkpt lat="45.87909" lon="5.65937">
        <ele>465.9</ele>
        <time>2023-05-07T10:29:48Z</time>
      </trkpt>
      <trkpt lat="45.87931" lon="5.65989">
        <ele>459.17</ele>
        <time>2023-05-07T10:30:09Z</time>
      </trkpt>
      <trkpt lat="45.87931" lon="5.65993">
        <ele>459.17</ele>
        <time>2023-05-07T10:30:10Z</time>
      </trkpt>
      <trkpt lat="45.87932" lon="5.66039">
        <ele>455.8</ele>
        <time>2023-05-07T10:30:30Z</time>
      </trkpt>
      <trkpt lat="45.87932" lon="5.66081">
        <ele>454.36</ele>
        <time>2023-05-07T10:30:50Z</time>
      </trkpt>
      <trkpt lat="45.87936" lon="5.66093">
        <ele>452.92</ele>
        <time>2023-05-07T10:30:58Z</time>
      </trkpt>
      <trkpt lat="45.87937" lon="5.66094">
        <ele>452.92</ele>
        <time>2023-05-07T10:30:59Z</time>
      </trkpt>
      <trkpt lat="45.87962" lon="5.66111">
        <ele>450.03</ele>
        <time>2023-05-07T10:31:17Z</time>
      </trkpt>
      <trkpt lat="45.87979" lon="5.66127">
        <ele>446.19</ele>
        <time>2023-05-07T10:31:36Z</time>
      </trkpt>
      <trkpt lat="45.87981" lon="5.66129">
        <ele>442.34</ele>
        <time>2023-05-07T10:32:06Z</time>
      </trkpt>
      <trkpt lat="45.87983" lon="5.66136">
        <ele>441.38</ele>
        <time>2023-05-07T10:32:32Z</time>
      </trkpt>
      <trkpt lat="45.87984" lon="5.6614">
        <ele>441.38</ele>
        <time>2023-05-07T10:32:34Z</time>
      </trkpt>
      <trkpt lat="45.87983" lon="5.66142">
        <ele>441.38</ele>
        <time>2023-05-07T10:32:35Z</time>
      </trkpt>
      <trkpt lat="45.87983" lon="5.66143">
        <ele>441.38</ele>
        <time>2023-05-07T10:32:36Z</time>
      </trkpt>
      <trkpt lat="45.8798" lon="5.66149">
        <ele>441.86</ele>
        <time>2023-05-07T10:32:39Z</time>
      </trkpt>
      <trkpt lat="45.87978" lon="5.66151">
        <ele>441.86</ele>
        <time>2023-05-07T10:32:40Z</time>
      </trkpt>
      <trkpt lat="45.87964" lon="5.66164">
        <ele>441.86</ele>
        <time>2023-05-07T10:32:59Z</time>
      </trkpt>
      <trkpt lat="45.87963" lon="5.66162">
        <ele>441.86</ele>
        <time>2023-05-07T10:33:26Z</time>
      </trkpt>
      <trkpt lat="45.87962" lon="5.66165">
        <ele>443.79</ele>
        <time>2023-05-07T10:34:08Z</time>
      </trkpt>
      <trkpt lat="45.87964" lon="5.66161">
        <ele>442.82</ele>
        <time>2023-05-07T10:34:37Z</time>
      </trkpt>
      <trkpt lat="45.87962" lon="5.66168">
        <ele>444.75</ele>
        <time>2023-05-07T10:35:08Z</time>
      </trkpt>
      <trkpt lat="45.87965" lon="5.66163">
        <ele>447.15</ele>
        <time>2023-05-07T10:35:45Z</time>
      </trkpt>
      <trkpt lat="45.87965" lon="5.66167">
        <ele>446.67</ele>
        <time>2023-05-07T10:36:09Z</time>
      </trkpt>
      <trkpt lat="45.87949" lon="5.66173">
        <ele>447.63</ele>
        <time>2023-05-07T10:36:28Z</time>
      </trkpt>
      <trkpt lat="45.87928" lon="5.66186">
        <ele>447.15</ele>
        <time>2023-05-07T10:36:46Z</time>
      </trkpt>
      <trkpt lat="45.87903" lon="5.66206">
        <ele>444.27</ele>
        <time>2023-05-07T10:37:06Z</time>
      </trkpt>
      <trkpt lat="45.8789" lon="5.66202">
        <ele>441.38</ele>
        <time>2023-05-07T10:37:16Z</time>
      </trkpt>
      <trkpt lat="45.87868" lon="5.66182">
        <ele>434.65</ele>
        <time>2023-05-07T10:37:36Z</time>
      </trkpt>
      <trkpt lat="45.8784" lon="5.66165">
        <ele>426.96</ele>
        <time>2023-05-07T10:37:58Z</time>
      </trkpt>
      <trkpt lat="45.87819" lon="5.66172">
        <ele>421.19</ele>
        <time>2023-05-07T10:38:16Z</time>
      </trkpt>
      <trkpt lat="45.87807" lon="5.66185">
        <ele>419.75</ele>
        <time>2023-05-07T10:38:24Z</time>
      </trkpt>
      <trkpt lat="45.87805" lon="5.66187">
        <ele>419.27</ele>
        <time>2023-05-07T10:38:25Z</time>
      </trkpt>
      <trkpt lat="45.87804" lon="5.66189">
        <ele>419.27</ele>
        <time>2023-05-07T10:38:26Z</time>
      </trkpt>
      <trkpt lat="45.87784" lon="5.66198">
        <ele>415.43</ele>
        <time>2023-05-07T10:38:40Z</time>
      </trkpt>
      <trkpt lat="45.87758" lon="5.66211">
        <ele>411.58</ele>
        <time>2023-05-07T10:38:59Z</time>
      </trkpt>
      <trkpt lat="45.8773" lon="5.66217">
        <ele>413.02</ele>
        <time>2023-05-07T10:39:15Z</time>
      </trkpt>
      <trkpt lat="45.87697" lon="5.66225">
        <ele>413.02</ele>
        <time>2023-05-07T10:39:35Z</time>
      </trkpt>
      <trkpt lat="45.87672" lon="5.66223">
        <ele>413.02</ele>
        <time>2023-05-07T10:39:54Z</time>
      </trkpt>
      <trkpt lat="45.87634" lon="5.66213">
        <ele>413.98</ele>
        <time>2023-05-07T10:40:14Z</time>
      </trkpt>
      <trkpt lat="45.87604" lon="5.66207">
        <ele>415.91</ele>
        <time>2023-05-07T10:40:33Z</time>
      </trkpt>
      <trkpt lat="45.87573" lon="5.66189">
        <ele>415.43</ele>
        <time>2023-05-07T10:40:53Z</time>
      </trkpt>
      <trkpt lat="45.87549" lon="5.66173">
        <ele>417.83</ele>
        <time>2023-05-07T10:41:12Z</time>
      </trkpt>
      <trkpt lat="45.87539" lon="5.66168">
        <ele>418.79</ele>
        <time>2023-05-07T10:41:25Z</time>
      </trkpt>
      <trkpt lat="45.87509" lon="5.6614">
        <ele>419.75</ele>
        <time>2023-05-07T10:41:47Z</time>
      </trkpt>
      <trkpt lat="45.87487" lon="5.66119">
        <ele>419.27</ele>
        <time>2023-05-07T10:42:06Z</time>
      </trkpt>
      <trkpt lat="45.87457" lon="5.66098">
        <ele>417.35</ele>
        <time>2023-05-07T10:42:27Z</time>
      </trkpt>
      <trkpt lat="45.87431" lon="5.66076">
        <ele>419.27</ele>
        <time>2023-05-07T10:42:47Z</time>
      </trkpt>
      <trkpt lat="45.87403" lon="5.66049">
        <ele>419.75</ele>
        <time>2023-05-07T10:43:09Z</time>
      </trkpt>
      <trkpt lat="45.87376" lon="5.66025">
        <ele>421.68</ele>
        <time>2023-05-07T10:43:30Z</time>
      </trkpt>
      <trkpt lat="45.87361" lon="5.66004">
        <ele>421.68</ele>
        <time>2023-05-07T10:43:46Z</time>
      </trkpt>
      <trkpt lat="45.8736" lon="5.66004">
        <ele>422.16</ele>
        <time>2023-05-07T10:43:49Z</time>
      </trkpt>
      <trkpt lat="45.87358" lon="5.66004">
        <ele>422.16</ele>
        <time>2023-05-07T10:43:50Z</time>
      </trkpt>
      <trkpt lat="45.87357" lon="5.66003">
        <ele>422.16</ele>
        <time>2023-05-07T10:43:51Z</time>
      </trkpt>
      <trkpt lat="45.87356" lon="5.66002">
        <ele>422.16</ele>
        <time>2023-05-07T10:43:52Z</time>
      </trkpt>
      <trkpt lat="45.87355" lon="5.66001">
        <ele>422.16</ele>
        <time>2023-05-07T10:43:53Z</time>
      </trkpt>
      <trkpt lat="45.87354" lon="5.65999">
        <ele>422.16</ele>
        <time>2023-05-07T10:43:54Z</time>
      </trkpt>
      <trkpt lat="45.8735" lon="5.65992">
        <ele>422.64</ele>
        <time>2023-05-07T10:44:09Z</time>
      </trkpt>
      <trkpt lat="45.87348" lon="5.65994">
        <ele>422.64</ele>
        <time>2023-05-07T10:44:44Z</time>
      </trkpt>
      <trkpt lat="45.87348" lon="5.65993">
        <ele>422.16</ele>
        <time>2023-05-07T10:45:09Z</time>
      </trkpt>
      <trkpt lat="45.87346" lon="5.65992">
        <ele>420.71</ele>
        <time>2023-05-07T10:45:29Z</time>
      </trkpt>
      <trkpt lat="45.87345" lon="5.65989">
        <ele>420.23</ele>
        <time>2023-05-07T10:45:45Z</time>
      </trkpt>
      <trkpt lat="45.87342" lon="5.65982">
        <ele>419.75</ele>
        <time>2023-05-07T10:45:58Z</time>
      </trkpt>
      <trkpt lat="45.87343" lon="5.65979">
        <ele>421.19</ele>
        <time>2023-05-07T10:46:11Z</time>
      </trkpt>
      <trkpt lat="45.87342" lon="5.65979">
        <ele>421.19</ele>
        <time>2023-05-07T10:46:31Z</time>
      </trkpt>
      <trkpt lat="45.87343" lon="5.65977">
        <ele>420.71</ele>
        <time>2023-05-07T10:46:52Z</time>
      </trkpt>
      <trkpt lat="45.87342" lon="5.6598">
        <ele>419.75</ele>
        <time>2023-05-07T10:47:10Z</time>
      </trkpt>
      <trkpt lat="45.87343" lon="5.65982">
        <ele>419.27</ele>
        <time>2023-05-07T10:47:37Z</time>
      </trkpt>
      <trkpt lat="45.87343" lon="5.65982">
        <ele>418.31</ele>
        <time>2023-05-07T10:47:59Z</time>
      </trkpt>
      <trkpt lat="45.87341" lon="5.6598">
        <ele>417.83</ele>
        <time>2023-05-07T10:48:15Z</time>
      </trkpt>
      <trkpt lat="45.87345" lon="5.65982">
        <ele>419.75</ele>
        <time>2023-05-07T10:48:35Z</time>
      </trkpt>
      <trkpt lat="45.87344" lon="5.65985">
        <ele>416.87</ele>
        <time>2023-05-07T10:48:50Z</time>
      </trkpt>
      <trkpt lat="45.87344" lon="5.65982">
        <ele>418.31</ele>
        <time>2023-05-07T10:49:09Z</time>
      </trkpt>
      <trkpt lat="45.87346" lon="5.65982">
        <ele>418.79</ele>
        <time>2023-05-07T10:49:25Z</time>
      </trkpt>
      <trkpt lat="45.87348" lon="5.65983">
        <ele>417.83</ele>
        <time>2023-05-07T10:49:43Z</time>
      </trkpt>
      <trkpt lat="45.8735" lon="5.65989">
        <ele>415.91</ele>
        <time>2023-05-07T10:50:09Z</time>
      </trkpt>
      <trkpt lat="45.87354" lon="5.65995">
        <ele>416.87</ele>
        <time>2023-05-07T10:50:25Z</time>
      </trkpt>
      <trkpt lat="45.87356" lon="5.65996">
        <ele>418.79</ele>
        <time>2023-05-07T10:50:50Z</time>
      </trkpt>
      <trkpt lat="45.87356" lon="5.65996">
        <ele>418.31</ele>
        <time>2023-05-07T10:51:14Z</time>
      </trkpt>
      <trkpt lat="45.87357" lon="5.65997">
        <ele>421.19</ele>
        <time>2023-05-07T10:51:37Z</time>
      </trkpt>
      <trkpt lat="45.87356" lon="5.65999">
        <ele>423.6</ele>
        <time>2023-05-07T10:52:07Z</time>
      </trkpt>
      <trkpt lat="45.87356" lon="5.66">
        <ele>421.68</ele>
        <time>2023-05-07T10:52:44Z</time>
      </trkpt>
      <trkpt lat="45.87357" lon="5.65997">
        <ele>422.16</ele>
        <time>2023-05-07T10:53:20Z</time>
      </trkpt>
      <trkpt lat="45.87356" lon="5.65999">
        <ele>420.71</ele>
        <time>2023-05-07T10:53:56Z</time>
      </trkpt>
      <trkpt lat="45.87356" lon="5.65999">
        <ele>424.08</ele>
        <time>2023-05-07T10:54:25Z</time>
      </trkpt>
      <trkpt lat="45.87357" lon="5.65997">
        <ele>423.12</ele>
        <time>2023-05-07T10:54:50Z</time>
      </trkpt>
      <trkpt lat="45.87357" lon="5.65999">
        <ele>424.56</ele>
        <time>2023-05-07T10:55:22Z</time>
      </trkpt>
      <trkpt lat="45.87358" lon="5.66001">
        <ele>423.6</ele>
        <time>2023-05-07T10:55:50Z</time>
      </trkpt>
      <trkpt lat="45.87358" lon="5.66">
        <ele>425.04</ele>
        <time>2023-05-07T10:56:20Z</time>
      </trkpt>
      <trkpt lat="45.87357" lon="5.65998">
        <ele>421.68</ele>
        <time>2023-05-07T10:56:58Z</time>
      </trkpt>
      <trkpt lat="45.87356" lon="5.65999">
        <ele>422.16</ele>
        <time>2023-05-07T10:57:26Z</time>
      </trkpt>
      <trkpt lat="45.8736" lon="5.65991">
        <ele>423.12</ele>
        <time>2023-05-07T10:58:02Z</time>
      </trkpt>
      <trkpt lat="45.87357" lon="5.65997">
        <ele>421.19</ele>
        <time>2023-05-07T10:58:44Z</time>
      </trkpt>
      <trkpt lat="45.87357" lon="5.65998">
        <ele>422.64</ele>
        <time>2023-05-07T10:59:22Z</time>
      </trkpt>
      <trkpt lat="45.87357" lon="5.65997">
        <ele>423.12</ele>
        <time>2023-05-07T10:59:55Z</time>
      </trkpt>
      <trkpt lat="45.87357" lon="5.65997">
        <ele>421.68</ele>
        <time>2023-05-07T11:00:31Z</time>
      </trkpt>
      <trkpt lat="45.87359" lon="5.65997">
        <ele>422.16</ele>
        <time>2023-05-07T11:01:15Z</time>
      </trkpt>
      <trkpt lat="45.87355" lon="5.65999">
        <ele>424.56</ele>
        <time>2023-05-07T11:02:02Z</time>
      </trkpt>
      <trkpt lat="45.87357" lon="5.65998">
        <ele>424.56</ele>
        <time>2023-05-07T11:02:49Z</time>
      </trkpt>
      <trkpt lat="45.87357" lon="5.65998">
        <ele>423.6</ele>
        <time>2023-05-07T11:03:19Z</time>
      </trkpt>
      <trkpt lat="45.87357" lon="5.65998">
        <ele>422.64</ele>
        <time>2023-05-07T11:03:53Z</time>
      </trkpt>
      <trkpt lat="45.87356" lon="5.65998">
        <ele>422.16</ele>
        <time>2023-05-07T11:04:24Z</time>
      </trkpt>
      <trkpt lat="45.87356" lon="5.65997">
        <ele>423.12</ele>
        <time>2023-05-07T11:04:54Z</time>
      </trkpt>
      <trkpt lat="45.87356" lon="5.66001">
        <ele>423.12</ele>
        <time>2023-05-07T11:05:24Z</time>
      </trkpt>
      <trkpt lat="45.87356" lon="5.66004">
        <ele>423.12</ele>
        <time>2023-05-07T11:06:03Z</time>
      </trkpt>
      <trkpt lat="45.87357" lon="5.66003">
        <ele>423.6</ele>
        <time>2023-05-07T11:06:43Z</time>
      </trkpt>
      <trkpt lat="45.87357" lon="5.66004">
        <ele>425.52</ele>
        <time>2023-05-07T11:07:18Z</time>
      </trkpt>
      <trkpt lat="45.87355" lon="5.66002">
        <ele>422.64</ele>
        <time>2023-05-07T11:07:50Z</time>
      </trkpt>
      <trkpt lat="45.87356" lon="5.66">
        <ele>420.23</ele>
        <time>2023-05-07T11:08:18Z</time>
      </trkpt>
      <trkpt lat="45.87357" lon="5.65998">
        <ele>420.23</ele>
        <time>2023-05-07T11:08:55Z</time>
      </trkpt>
      <trkpt lat="45.87357" lon="5.65998">
        <ele>422.16</ele>
        <time>2023-05-07T11:09:36Z</time>
      </trkpt>
      <trkpt lat="45.87358" lon="5.65999">
        <ele>424.56</ele>
        <time>2023-05-07T11:10:14Z</time>
      </trkpt>
      <trkpt lat="45.87357" lon="5.66002">
        <ele>423.6</ele>
        <time>2023-05-07T11:10:55Z</time>
      </trkpt>
      <trkpt lat="45.87356" lon="5.66005">
        <ele>424.56</ele>
        <time>2023-05-07T11:11:31Z</time>
      </trkpt>
      <trkpt lat="45.87357" lon="5.66001">
        <ele>424.08</ele>
        <time>2023-05-07T11:12:02Z</time>
      </trkpt>
      <trkpt lat="45.87359" lon="5.65999">
        <ele>426.48</ele>
        <time>2023-05-07T11:12:28Z</time>
      </trkpt>
      <trkpt lat="45.8736" lon="5.66001">
        <ele>425.52</ele>
        <time>2023-05-07T11:13:05Z</time>
      </trkpt>
      <trkpt lat="45.87358" lon="5.66">
        <ele>426</ele>
        <time>2023-05-07T11:13:38Z</time>
      </trkpt>
      <trkpt lat="45.87358" lon="5.66">
        <ele>425.52</ele>
        <time>2023-05-07T11:14:08Z</time>
      </trkpt>
      <trkpt lat="45.87357" lon="5.66003">
        <ele>426.96</ele>
        <time>2023-05-07T11:14:40Z</time>
      </trkpt>
      <trkpt lat="45.87357" lon="5.66001">
        <ele>427.92</ele>
        <time>2023-05-07T11:15:21Z</time>
      </trkpt>
      <trkpt lat="45.87357" lon="5.66005">
        <ele>425.52</ele>
        <time>2023-05-07T11:16:01Z</time>
      </trkpt>
      <trkpt lat="45.87357" lon="5.66002">
        <ele>425.04</ele>
        <time>2023-05-07T11:16:33Z</time>
      </trkpt>
      <trkpt lat="45.87355" lon="5.66002">
        <ele>422.64</ele>
        <time>2023-05-07T11:17:14Z</time>
      </trkpt>
      <trkpt lat="45.87356" lon="5.66002">
        <ele>421.19</ele>
        <time>2023-05-07T11:17:48Z</time>
      </trkpt>
      <trkpt lat="45.87356" lon="5.66001">
        <ele>422.16</ele>
        <time>2023-05-07T11:18:27Z</time>
      </trkpt>
      <trkpt lat="45.87358" lon="5.65999">
        <ele>421.68</ele>
        <time>2023-05-07T11:19:04Z</time>
      </trkpt>
      <trkpt lat="45.87357" lon="5.65997">
        <ele>422.16</ele>
        <time>2023-05-07T11:19:36Z</time>
      </trkpt>
      <trkpt lat="45.87356" lon="5.65998">
        <ele>422.16</ele>
        <time>2023-05-07T11:20:13Z</time>
      </trkpt>
      <trkpt lat="45.87357" lon="5.66004">
        <ele>422.64</ele>
        <time>2023-05-07T11:20:35Z</time>
      </trkpt>
      <trkpt lat="45.87359" lon="5.66004">
        <ele>420.71</ele>
        <time>2023-05-07T11:20:50Z</time>
      </trkpt>
      <trkpt lat="45.8736" lon="5.66003">
        <ele>420.23</ele>
        <time>2023-05-07T11:21:08Z</time>
      </trkpt>
      <trkpt lat="45.87359" lon="5.66002">
        <ele>420.71</ele>
        <time>2023-05-07T11:21:37Z</time>
      </trkpt>
      <trkpt lat="45.87359" lon="5.66003">
        <ele>421.68</ele>
        <time>2023-05-07T11:22:15Z</time>
      </trkpt>
      <trkpt lat="45.8736" lon="5.66006">
        <ele>420.23</ele>
        <time>2023-05-07T11:22:43Z</time>
      </trkpt>
      <trkpt lat="45.8736" lon="5.66003">
        <ele>420.23</ele>
        <time>2023-05-07T11:23:22Z</time>
      </trkpt>
      <trkpt lat="45.8736" lon="5.66003">
        <ele>420.71</ele>
        <time>2023-05-07T11:23:54Z</time>
      </trkpt>
      <trkpt lat="45.87358" lon="5.66003">
        <ele>420.71</ele>
        <time>2023-05-07T11:24:23Z</time>
      </trkpt>
      <trkpt lat="45.8736" lon="5.66004">
        <ele>420.23</ele>
        <time>2023-05-07T11:25:00Z</time>
      </trkpt>
      <trkpt lat="45.8736" lon="5.66004">
        <ele>421.19</ele>
        <time>2023-05-07T11:25:28Z</time>
      </trkpt>
      <trkpt lat="45.87361" lon="5.66004">
        <ele>419.75</ele>
        <time>2023-05-07T11:25:57Z</time>
      </trkpt>
      <trkpt lat="45.87361" lon="5.66001">
        <ele>419.75</ele>
        <time>2023-05-07T11:26:26Z</time>
      </trkpt>
      <trkpt lat="45.87361" lon="5.66002">
        <ele>418.79</ele>
        <time>2023-05-07T11:26:52Z</time>
      </trkpt>
      <trkpt lat="45.87361" lon="5.66004">
        <ele>417.83</ele>
        <time>2023-05-07T11:27:19Z</time>
      </trkpt>
      <trkpt lat="45.87359" lon="5.66003">
        <ele>420.71</ele>
        <time>2023-05-07T11:27:49Z</time>
      </trkpt>
      <trkpt lat="45.8736" lon="5.66005">
        <ele>419.27</ele>
        <time>2023-05-07T11:28:19Z</time>
      </trkpt>
      <trkpt lat="45.8736" lon="5.66001">
        <ele>421.68</ele>
        <time>2023-05-07T11:28:50Z</time>
      </trkpt>
      <trkpt lat="45.87359" lon="5.66003">
        <ele>420.71</ele>
        <time>2023-05-07T11:29:19Z</time>
      </trkpt>
      <trkpt lat="45.87368" lon="5.66015">
        <ele>418.79</ele>
        <time>2023-05-07T11:29:34Z</time>
      </trkpt>
      <trkpt lat="45.87379" lon="5.66027">
        <ele>417.35</ele>
        <time>2023-05-07T11:29:50Z</time>
      </trkpt>
      <trkpt lat="45.87385" lon="5.66031">
        <ele>415.91</ele>
        <time>2023-05-07T11:30:08Z</time>
      </trkpt>
      <trkpt lat="45.87387" lon="5.66034">
        <ele>418.31</ele>
        <time>2023-05-07T11:30:34Z</time>
      </trkpt>
      <trkpt lat="45.87387" lon="5.66037">
        <ele>418.79</ele>
        <time>2023-05-07T11:31:01Z</time>
      </trkpt>
      <trkpt lat="45.87386" lon="5.66036">
        <ele>421.68</ele>
        <time>2023-05-07T11:31:23Z</time>
      </trkpt>
      <trkpt lat="45.87382" lon="5.66033">
        <ele>421.68</ele>
        <time>2023-05-07T11:31:42Z</time>
      </trkpt>
      <trkpt lat="45.87366" lon="5.66014">
        <ele>419.75</ele>
        <time>2023-05-07T11:32:03Z</time>
      </trkpt>
      <trkpt lat="45.87357" lon="5.65998">
        <ele>418.79</ele>
        <time>2023-05-07T11:32:18Z</time>
      </trkpt>
      <trkpt lat="45.87354" lon="5.65998">
        <ele>418.79</ele>
        <time>2023-05-07T11:32:22Z</time>
      </trkpt>
      <trkpt lat="45.87353" lon="5.65998">
        <ele>418.31</ele>
        <time>2023-05-07T11:32:23Z</time>
      </trkpt>
      <trkpt lat="45.87352" lon="5.65997">
        <ele>418.31</ele>
        <time>2023-05-07T11:32:24Z</time>
      </trkpt>
      <trkpt lat="45.87351" lon="5.65996">
        <ele>418.31</ele>
        <time>2023-05-07T11:32:25Z</time>
      </trkpt>
      <trkpt lat="45.87345" lon="5.65984">
        <ele>418.31</ele>
        <time>2023-05-07T11:32:39Z</time>
      </trkpt>
      <trkpt lat="45.87344" lon="5.65982">
        <ele>419.27</ele>
        <time>2023-05-07T11:32:51Z</time>
      </trkpt>
      <trkpt lat="45.87342" lon="5.6598">
        <ele>419.75</ele>
        <time>2023-05-07T11:33:04Z</time>
      </trkpt>
      <trkpt lat="45.87345" lon="5.65984">
        <ele>420.23</ele>
        <time>2023-05-07T11:33:14Z</time>
      </trkpt>
      <trkpt lat="45.87341" lon="5.65981">
        <ele>420.71</ele>
        <time>2023-05-07T11:33:32Z</time>
      </trkpt>
      <trkpt lat="45.87341" lon="5.65977">
        <ele>421.68</ele>
        <time>2023-05-07T11:33:47Z</time>
      </trkpt>
      <trkpt lat="45.87344" lon="5.65979">
        <ele>422.64</ele>
        <time>2023-05-07T11:34:02Z</time>
      </trkpt>
      <trkpt lat="45.87342" lon="5.6598">
        <ele>421.68</ele>
        <time>2023-05-07T11:34:21Z</time>
      </trkpt>
      <trkpt lat="45.8734" lon="5.65982">
        <ele>421.68</ele>
        <time>2023-05-07T11:34:45Z</time>
      </trkpt>
      <trkpt lat="45.87344" lon="5.65982">
        <ele>420.71</ele>
        <time>2023-05-07T11:35:07Z</time>
      </trkpt>
      <trkpt lat="45.87345" lon="5.65984">
        <ele>421.68</ele>
        <time>2023-05-07T11:35:33Z</time>
      </trkpt>
      <trkpt lat="45.87345" lon="5.65985">
        <ele>421.68</ele>
        <time>2023-05-07T11:35:59Z</time>
      </trkpt>
      <trkpt lat="45.87342" lon="5.65985">
        <ele>420.23</ele>
        <time>2023-05-07T11:36:04Z</time>
      </trkpt>
      <trkpt lat="45.87341" lon="5.65982">
        <ele>420.23</ele>
        <time>2023-05-07T11:36:17Z</time>
      </trkpt>
      <trkpt lat="45.87341" lon="5.6598">
        <ele>421.19</ele>
        <time>2023-05-07T11:36:33Z</time>
      </trkpt>
      <trkpt lat="45.87341" lon="5.65983">
        <ele>421.68</ele>
        <time>2023-05-07T11:36:48Z</time>
      </trkpt>
      <trkpt lat="45.87346" lon="5.65988">
        <ele>420.71</ele>
        <time>2023-05-07T11:37:06Z</time>
      </trkpt>
      <trkpt lat="45.87354" lon="5.65995">
        <ele>419.27</ele>
        <time>2023-05-07T11:37:19Z</time>
      </trkpt>
      <trkpt lat="45.87358" lon="5.65995">
        <ele>416.87</ele>
        <time>2023-05-07T11:37:33Z</time>
      </trkpt>
      <trkpt lat="45.87358" lon="5.65996">
        <ele>417.35</ele>
        <time>2023-05-07T11:37:47Z</time>
      </trkpt>
      <trkpt lat="45.87357" lon="5.65997">
        <ele>418.31</ele>
        <time>2023-05-07T11:38:09Z</time>
      </trkpt>
      <trkpt lat="45.87357" lon="5.65999">
        <ele>418.79</ele>
        <time>2023-05-07T11:38:31Z</time>
      </trkpt>
      <trkpt lat="45.87355" lon="5.66001">
        <ele>419.75</ele>
        <time>2023-05-07T11:38:54Z</time>
      </trkpt>
      <trkpt lat="45.87355" lon="5.66003">
        <ele>417.83</ele>
        <time>2023-05-07T11:39:19Z</time>
      </trkpt>
      <trkpt lat="45.87356" lon="5.66003">
        <ele>419.75</ele>
        <time>2023-05-07T11:39:50Z</time>
      </trkpt>
      <trkpt lat="45.87358" lon="5.65997">
        <ele>418.79</ele>
        <time>2023-05-07T11:40:26Z</time>
      </trkpt>
      <trkpt lat="45.87345" lon="5.65989">
        <ele>419.27</ele>
        <time>2023-05-07T11:40:41Z</time>
      </trkpt>
      <trkpt lat="45.87323" lon="5.65966">
        <ele>418.79</ele>
        <time>2023-05-07T11:40:59Z</time>
      </trkpt>
      <trkpt lat="45.87307" lon="5.65942">
        <ele>417.83</ele>
        <time>2023-05-07T11:41:14Z</time>
      </trkpt>
      <trkpt lat="45.87288" lon="5.65915">
        <ele>417.83</ele>
        <time>2023-05-07T11:41:32Z</time>
      </trkpt>
      <trkpt lat="45.87281" lon="5.65905">
        <ele>418.79</ele>
        <time>2023-05-07T11:41:45Z</time>
      </trkpt>
      <trkpt lat="45.87267" lon="5.65882">
        <ele>419.75</ele>
        <time>2023-05-07T11:42:01Z</time>
      </trkpt>
      <trkpt lat="45.87253" lon="5.65851">
        <ele>420.71</ele>
        <time>2023-05-07T11:42:17Z</time>
      </trkpt>
      <trkpt lat="45.87222" lon="5.65822">
        <ele>421.68</ele>
        <time>2023-05-07T11:42:39Z</time>
      </trkpt>
      <trkpt lat="45.87201" lon="5.65807">
        <ele>422.16</ele>
        <time>2023-05-07T11:42:55Z</time>
      </trkpt>
      <trkpt lat="45.87179" lon="5.65784">
        <ele>424.08</ele>
        <time>2023-05-07T11:43:12Z</time>
      </trkpt>
      <trkpt lat="45.87161" lon="5.65755">
        <ele>425.52</ele>
        <time>2023-05-07T11:43:31Z</time>
      </trkpt>
      <trkpt lat="45.87143" lon="5.6573">
        <ele>426.96</ele>
        <time>2023-05-07T11:43:49Z</time>
      </trkpt>
      <trkpt lat="45.87123" lon="5.6571">
        <ele>428.4</ele>
        <time>2023-05-07T11:44:06Z</time>
      </trkpt>
      <trkpt lat="45.87099" lon="5.65685">
        <ele>429.85</ele>
        <time>2023-05-07T11:44:28Z</time>
      </trkpt>
      <trkpt lat="45.87067" lon="5.65662">
        <ele>431.29</ele>
        <time>2023-05-07T11:44:50Z</time>
      </trkpt>
      <trkpt lat="45.87041" lon="5.6563">
        <ele>434.17</ele>
        <time>2023-05-07T11:45:11Z</time>
      </trkpt>
      <trkpt lat="45.87019" lon="5.65603">
        <ele>434.17</ele>
        <time>2023-05-07T11:45:31Z</time>
      </trkpt>
      <trkpt lat="45.87002" lon="5.65596">
        <ele>433.21</ele>
        <time>2023-05-07T11:45:46Z</time>
      </trkpt>
      <trkpt lat="45.86998" lon="5.65599">
        <ele>432.73</ele>
        <time>2023-05-07T11:45:50Z</time>
      </trkpt>
      <trkpt lat="45.86997" lon="5.656">
        <ele>432.73</ele>
        <time>2023-05-07T11:45:51Z</time>
      </trkpt>
      <trkpt lat="45.86996" lon="5.65601">
        <ele>432.25</ele>
        <time>2023-05-07T11:45:52Z</time>
      </trkpt>
      <trkpt lat="45.86994" lon="5.65601">
        <ele>432.25</ele>
        <time>2023-05-07T11:45:53Z</time>
      </trkpt>
      <trkpt lat="45.86993" lon="5.65602">
        <ele>432.25</ele>
        <time>2023-05-07T11:45:54Z</time>
      </trkpt>
      <trkpt lat="45.86977" lon="5.65603">
        <ele>429.85</ele>
        <time>2023-05-07T11:46:12Z</time>
      </trkpt>
      <trkpt lat="45.86963" lon="5.65599">
        <ele>426.96</ele>
        <time>2023-05-07T11:46:30Z</time>
      </trkpt>
      <trkpt lat="45.86951" lon="5.6558">
        <ele>422.16</ele>
        <time>2023-05-07T11:46:47Z</time>
      </trkpt>
      <trkpt lat="45.86934" lon="5.65575">
        <ele>418.79</ele>
        <time>2023-05-07T11:47:03Z</time>
      </trkpt>
      <trkpt lat="45.86916" lon="5.65576">
        <ele>413.98</ele>
        <time>2023-05-07T11:47:19Z</time>
      </trkpt>
      <trkpt lat="45.86918" lon="5.6559">
        <ele>405.33</ele>
        <time>2023-05-07T11:47:37Z</time>
      </trkpt>
      <trkpt lat="45.86914" lon="5.65591">
        <ele>403.89</ele>
        <time>2023-05-07T11:47:41Z</time>
      </trkpt>
      <trkpt lat="45.86913" lon="5.65589">
        <ele>403.41</ele>
        <time>2023-05-07T11:47:42Z</time>
      </trkpt>
      <trkpt lat="45.86912" lon="5.65588">
        <ele>403.41</ele>
        <time>2023-05-07T11:47:43Z</time>
      </trkpt>
      <trkpt lat="45.86912" lon="5.65586">
        <ele>403.41</ele>
        <time>2023-05-07T11:47:44Z</time>
      </trkpt>
      <trkpt lat="45.86912" lon="5.65584">
        <ele>403.41</ele>
        <time>2023-05-07T11:47:45Z</time>
      </trkpt>
      <trkpt lat="45.86914" lon="5.65547">
        <ele>406.29</ele>
        <time>2023-05-07T11:48:03Z</time>
      </trkpt>
      <trkpt lat="45.86917" lon="5.655">
        <ele>413.02</ele>
        <time>2023-05-07T11:48:24Z</time>
      </trkpt>
      <trkpt lat="45.86919" lon="5.65479">
        <ele>415.43</ele>
        <time>2023-05-07T11:48:34Z</time>
      </trkpt>
      <trkpt lat="45.86911" lon="5.65439">
        <ele>422.16</ele>
        <time>2023-05-07T11:48:51Z</time>
      </trkpt>
      <trkpt lat="45.86907" lon="5.65398">
        <ele>427.92</ele>
        <time>2023-05-07T11:49:07Z</time>
      </trkpt>
      <trkpt lat="45.86898" lon="5.65358">
        <ele>432.25</ele>
        <time>2023-05-07T11:49:25Z</time>
      </trkpt>
      <trkpt lat="45.86886" lon="5.65311">
        <ele>434.17</ele>
        <time>2023-05-07T11:49:46Z</time>
      </trkpt>
      <trkpt lat="45.86871" lon="5.6527">
        <ele>434.17</ele>
        <time>2023-05-07T11:50:06Z</time>
      </trkpt>
      <trkpt lat="45.86856" lon="5.65225">
        <ele>432.25</ele>
        <time>2023-05-07T11:50:23Z</time>
      </trkpt>
      <trkpt lat="45.86847" lon="5.65191">
        <ele>431.29</ele>
        <time>2023-05-07T11:50:36Z</time>
      </trkpt>
      <trkpt lat="45.86844" lon="5.65154">
        <ele>433.69</ele>
        <time>2023-05-07T11:50:51Z</time>
      </trkpt>
      <trkpt lat="45.86838" lon="5.65111">
        <ele>437.54</ele>
        <time>2023-05-07T11:51:06Z</time>
      </trkpt>
      <trkpt lat="45.86832" lon="5.6509">
        <ele>441.86</ele>
        <time>2023-05-07T11:51:20Z</time>
      </trkpt>
      <trkpt lat="45.86831" lon="5.65088">
        <ele>441.86</ele>
        <time>2023-05-07T11:51:21Z</time>
      </trkpt>
      <trkpt lat="45.86822" lon="5.65054">
        <ele>441.38</ele>
        <time>2023-05-07T11:51:38Z</time>
      </trkpt>
      <trkpt lat="45.86813" lon="5.65024">
        <ele>442.82</ele>
        <time>2023-05-07T11:51:53Z</time>
      </trkpt>
      <trkpt lat="45.86805" lon="5.64988">
        <ele>443.79</ele>
        <time>2023-05-07T11:52:09Z</time>
      </trkpt>
      <trkpt lat="45.86787" lon="5.64964">
        <ele>443.79</ele>
        <time>2023-05-07T11:52:24Z</time>
      </trkpt>
      <trkpt lat="45.86758" lon="5.64955">
        <ele>440.9</ele>
        <time>2023-05-07T11:52:42Z</time>
      </trkpt>
      <trkpt lat="45.86756" lon="5.64952">
        <ele>440.9</ele>
        <time>2023-05-07T11:52:44Z</time>
      </trkpt>
      <trkpt lat="45.8674" lon="5.64934">
        <ele>439.46</ele>
        <time>2023-05-07T11:52:56Z</time>
      </trkpt>
      <trkpt lat="45.86719" lon="5.64922">
        <ele>438.98</ele>
        <time>2023-05-07T11:53:09Z</time>
      </trkpt>
      <trkpt lat="45.86694" lon="5.64923">
        <ele>435.13</ele>
        <time>2023-05-07T11:53:26Z</time>
      </trkpt>
      <trkpt lat="45.86665" lon="5.64935">
        <ele>429.85</ele>
        <time>2023-05-07T11:53:44Z</time>
      </trkpt>
      <trkpt lat="45.86641" lon="5.64949">
        <ele>426.48</ele>
        <time>2023-05-07T11:53:59Z</time>
      </trkpt>
      <trkpt lat="45.86615" lon="5.64965">
        <ele>425.04</ele>
        <time>2023-05-07T11:54:16Z</time>
      </trkpt>
      <trkpt lat="45.86597" lon="5.64965">
        <ele>423.6</ele>
        <time>2023-05-07T11:54:28Z</time>
      </trkpt>
      <trkpt lat="45.86595" lon="5.64965">
        <ele>423.12</ele>
        <time>2023-05-07T11:54:29Z</time>
      </trkpt>
      <trkpt lat="45.86593" lon="5.64965">
        <ele>422.64</ele>
        <time>2023-05-07T11:54:30Z</time>
      </trkpt>
      <trkpt lat="45.86591" lon="5.64965">
        <ele>422.64</ele>
        <time>2023-05-07T11:54:31Z</time>
      </trkpt>
      <trkpt lat="45.8659" lon="5.64966">
        <ele>422.64</ele>
        <time>2023-05-07T11:54:32Z</time>
      </trkpt>
      <trkpt lat="45.86585" lon="5.6497">
        <ele>422.16</ele>
        <time>2023-05-07T11:54:36Z</time>
      </trkpt>
      <trkpt lat="45.8656" lon="5.64978">
        <ele>419.27</ele>
        <time>2023-05-07T11:54:53Z</time>
      </trkpt>
      <trkpt lat="45.86549" lon="5.64984">
        <ele>417.83</ele>
        <time>2023-05-07T11:55:00Z</time>
      </trkpt>
      <trkpt lat="45.8653" lon="5.65">
        <ele>415.43</ele>
        <time>2023-05-07T11:55:14Z</time>
      </trkpt>
      <trkpt lat="45.86507" lon="5.65008">
        <ele>412.54</ele>
        <time>2023-05-07T11:55:30Z</time>
      </trkpt>
      <trkpt lat="45.86482" lon="5.65022">
        <ele>408.22</ele>
        <time>2023-05-07T11:55:46Z</time>
      </trkpt>
      <trkpt lat="45.86448" lon="5.65037">
        <ele>410.14</ele>
        <time>2023-05-07T11:56:04Z</time>
      </trkpt>
      <trkpt lat="45.86438" lon="5.65047">
        <ele>408.7</ele>
        <time>2023-05-07T11:56:12Z</time>
      </trkpt>
      <trkpt lat="45.86436" lon="5.65048">
        <ele>408.7</ele>
        <time>2023-05-07T11:56:13Z</time>
      </trkpt>
      <trkpt lat="45.86435" lon="5.65062">
        <ele>404.37</ele>
        <time>2023-05-07T11:56:29Z</time>
      </trkpt>
      <trkpt lat="45.86463" lon="5.65066">
        <ele>400.05</ele>
        <time>2023-05-07T11:56:51Z</time>
      </trkpt>
      <trkpt lat="45.8648" lon="5.65081">
        <ele>397.64</ele>
        <time>2023-05-07T11:57:09Z</time>
      </trkpt>
      <trkpt lat="45.86505" lon="5.6508">
        <ele>396.2</ele>
        <time>2023-05-07T11:57:28Z</time>
      </trkpt>
      <trkpt lat="45.86506" lon="5.65081">
        <ele>395.72</ele>
        <time>2023-05-07T11:57:29Z</time>
      </trkpt>
      <trkpt lat="45.86531" lon="5.65078">
        <ele>388.51</ele>
        <time>2023-05-07T11:57:48Z</time>
      </trkpt>
      <trkpt lat="45.86554" lon="5.65087">
        <ele>382.74</ele>
        <time>2023-05-07T11:58:07Z</time>
      </trkpt>
      <trkpt lat="45.86578" lon="5.65093">
        <ele>378.9</ele>
        <time>2023-05-07T11:58:25Z</time>
      </trkpt>
      <trkpt lat="45.86599" lon="5.65094">
        <ele>377.94</ele>
        <time>2023-05-07T11:58:42Z</time>
      </trkpt>
      <trkpt lat="45.86623" lon="5.65092">
        <ele>376.97</ele>
        <time>2023-05-07T11:58:58Z</time>
      </trkpt>
      <trkpt lat="45.86653" lon="5.65102">
        <ele>375.53</ele>
        <time>2023-05-07T11:59:17Z</time>
      </trkpt>
      <trkpt lat="45.86655" lon="5.65147">
        <ele>372.17</ele>
        <time>2023-05-07T11:59:38Z</time>
      </trkpt>
      <trkpt lat="45.86662" lon="5.65184">
        <ele>368.32</ele>
        <time>2023-05-07T11:59:57Z</time>
      </trkpt>
      <trkpt lat="45.86671" lon="5.65206">
        <ele>364.96</ele>
        <time>2023-05-07T12:00:11Z</time>
      </trkpt>
      <trkpt lat="45.86672" lon="5.65208">
        <ele>364.96</ele>
        <time>2023-05-07T12:00:12Z</time>
      </trkpt>
      <trkpt lat="45.86673" lon="5.6521">
        <ele>364.48</ele>
        <time>2023-05-07T12:00:13Z</time>
      </trkpt>
      <trkpt lat="45.86688" lon="5.65229">
        <ele>361.59</ele>
        <time>2023-05-07T12:00:31Z</time>
      </trkpt>
      <trkpt lat="45.86709" lon="5.65246">
        <ele>359.19</ele>
        <time>2023-05-07T12:00:51Z</time>
      </trkpt>
      <trkpt lat="45.86724" lon="5.65276">
        <ele>359.67</ele>
        <time>2023-05-07T12:01:08Z</time>
      </trkpt>
      <trkpt lat="45.86734" lon="5.65318">
        <ele>358.71</ele>
        <time>2023-05-07T12:01:26Z</time>
      </trkpt>
      <trkpt lat="45.86739" lon="5.65354">
        <ele>361.59</ele>
        <time>2023-05-07T12:01:45Z</time>
      </trkpt>
      <trkpt lat="45.8675" lon="5.65394">
        <ele>363.52</ele>
        <time>2023-05-07T12:02:04Z</time>
      </trkpt>
      <trkpt lat="45.86757" lon="5.65425">
        <ele>364.48</ele>
        <time>2023-05-07T12:02:20Z</time>
      </trkpt>
      <trkpt lat="45.86779" lon="5.65448">
        <ele>361.11</ele>
        <time>2023-05-07T12:02:39Z</time>
      </trkpt>
      <trkpt lat="45.86795" lon="5.65499">
        <ele>357.27</ele>
        <time>2023-05-07T12:02:59Z</time>
      </trkpt>
      <trkpt lat="45.86794" lon="5.65543">
        <ele>354.38</ele>
        <time>2023-05-07T12:03:18Z</time>
      </trkpt>
      <trkpt lat="45.86797" lon="5.65571">
        <ele>352.94</ele>
        <time>2023-05-07T12:03:31Z</time>
      </trkpt>
      <trkpt lat="45.86798" lon="5.65603">
        <ele>350.54</ele>
        <time>2023-05-07T12:03:47Z</time>
      </trkpt>
      <trkpt lat="45.86799" lon="5.6563">
        <ele>346.69</ele>
        <time>2023-05-07T12:03:56Z</time>
      </trkpt>
      <trkpt lat="45.86799" lon="5.65669">
        <ele>337.56</ele>
        <time>2023-05-07T12:04:14Z</time>
      </trkpt>
      <trkpt lat="45.86805" lon="5.65691">
        <ele>333.71</ele>
        <time>2023-05-07T12:04:32Z</time>
      </trkpt>
      <trkpt lat="45.86813" lon="5.65705">
        <ele>334.68</ele>
        <time>2023-05-07T12:04:39Z</time>
      </trkpt>
      <trkpt lat="45.86813" lon="5.65736">
        <ele>333.23</ele>
        <time>2023-05-07T12:04:53Z</time>
      </trkpt>
      <trkpt lat="45.86803" lon="5.65778">
        <ele>333.23</ele>
        <time>2023-05-07T12:05:12Z</time>
      </trkpt>
      <trkpt lat="45.86806" lon="5.65797">
        <ele>334.2</ele>
        <time>2023-05-07T12:05:22Z</time>
      </trkpt>
      <trkpt lat="45.86817" lon="5.6583">
        <ele>335.16</ele>
        <time>2023-05-07T12:05:40Z</time>
      </trkpt>
      <trkpt lat="45.86826" lon="5.65851">
        <ele>333.23</ele>
        <time>2023-05-07T12:05:52Z</time>
      </trkpt>
      <trkpt lat="45.86827" lon="5.65888">
        <ele>334.2</ele>
        <time>2023-05-07T12:06:11Z</time>
      </trkpt>
      <trkpt lat="45.8683" lon="5.65916">
        <ele>332.75</ele>
        <time>2023-05-07T12:06:26Z</time>
      </trkpt>
      <trkpt lat="45.86835" lon="5.65945">
        <ele>330.83</ele>
        <time>2023-05-07T12:06:41Z</time>
      </trkpt>
      <trkpt lat="45.86843" lon="5.6597">
        <ele>329.87</ele>
        <time>2023-05-07T12:06:57Z</time>
      </trkpt>
      <trkpt lat="45.8685" lon="5.65997">
        <ele>329.87</ele>
        <time>2023-05-07T12:07:11Z</time>
      </trkpt>
      <trkpt lat="45.86856" lon="5.66027">
        <ele>329.39</ele>
        <time>2023-05-07T12:07:26Z</time>
      </trkpt>
      <trkpt lat="45.86864" lon="5.66048">
        <ele>326.5</ele>
        <time>2023-05-07T12:07:40Z</time>
      </trkpt>
      <trkpt lat="45.86877" lon="5.66079">
        <ele>329.39</ele>
        <time>2023-05-07T12:07:53Z</time>
      </trkpt>
      <trkpt lat="45.86882" lon="5.66087">
        <ele>331.31</ele>
        <time>2023-05-07T12:07:59Z</time>
      </trkpt>
      <trkpt lat="45.86886" lon="5.66089">
        <ele>330.83</ele>
        <time>2023-05-07T12:08:02Z</time>
      </trkpt>
      <trkpt lat="45.86893" lon="5.6609">
        <ele>331.31</ele>
        <time>2023-05-07T12:08:21Z</time>
      </trkpt>
      <trkpt lat="45.86892" lon="5.66087">
        <ele>332.75</ele>
        <time>2023-05-07T12:08:37Z</time>
      </trkpt>
      <trkpt lat="45.86898" lon="5.66092">
        <ele>332.75</ele>
        <time>2023-05-07T12:08:41Z</time>
      </trkpt>
      <trkpt lat="45.86917" lon="5.66109">
        <ele>332.27</ele>
        <time>2023-05-07T12:08:56Z</time>
      </trkpt>
      <trkpt lat="45.86932" lon="5.66142">
        <ele>334.2</ele>
        <time>2023-05-07T12:09:14Z</time>
      </trkpt>
      <trkpt lat="45.86933" lon="5.66144">
        <ele>334.68</ele>
        <time>2023-05-07T12:09:15Z</time>
      </trkpt>
      <trkpt lat="45.86945" lon="5.66169">
        <ele>338.04</ele>
        <time>2023-05-07T12:09:31Z</time>
      </trkpt>
      <trkpt lat="45.86963" lon="5.66196">
        <ele>337.56</ele>
        <time>2023-05-07T12:09:48Z</time>
      </trkpt>
      <trkpt lat="45.86984" lon="5.66216">
        <ele>335.16</ele>
        <time>2023-05-07T12:10:06Z</time>
      </trkpt>
      <trkpt lat="45.87003" lon="5.66238">
        <ele>331.31</ele>
        <time>2023-05-07T12:10:24Z</time>
      </trkpt>
      <trkpt lat="45.87025" lon="5.6626">
        <ele>332.27</ele>
        <time>2023-05-07T12:10:39Z</time>
      </trkpt>
      <trkpt lat="45.87037" lon="5.66271">
        <ele>331.79</ele>
        <time>2023-05-07T12:10:49Z</time>
      </trkpt>
      <trkpt lat="45.87047" lon="5.66287">
        <ele>328.43</ele>
        <time>2023-05-07T12:11:01Z</time>
      </trkpt>
      <trkpt lat="45.87052" lon="5.66308">
        <ele>328.43</ele>
        <time>2023-05-07T12:11:13Z</time>
      </trkpt>
      <trkpt lat="45.87066" lon="5.66349">
        <ele>327.47</ele>
        <time>2023-05-07T12:11:34Z</time>
      </trkpt>
      <trkpt lat="45.87069" lon="5.6636">
        <ele>326.99</ele>
        <time>2023-05-07T12:11:41Z</time>
      </trkpt>
      <trkpt lat="45.87067" lon="5.66364">
        <ele>326.5</ele>
        <time>2023-05-07T12:11:44Z</time>
      </trkpt>
      <trkpt lat="45.87048" lon="5.66367">
        <ele>322.66</ele>
        <time>2023-05-07T12:11:55Z</time>
      </trkpt>
      <trkpt lat="45.87046" lon="5.66383">
        <ele>318.81</ele>
        <time>2023-05-07T12:12:03Z</time>
      </trkpt>
      <trkpt lat="45.87058" lon="5.66421">
        <ele>317.85</ele>
        <time>2023-05-07T12:12:19Z</time>
      </trkpt>
      <trkpt lat="45.87075" lon="5.66462">
        <ele>322.66</ele>
        <time>2023-05-07T12:12:40Z</time>
      </trkpt>
      <trkpt lat="45.87092" lon="5.66497">
        <ele>324.58</ele>
        <time>2023-05-07T12:13:01Z</time>
      </trkpt>
      <trkpt lat="45.87109" lon="5.66531">
        <ele>324.1</ele>
        <time>2023-05-07T12:13:20Z</time>
      </trkpt>
      <trkpt lat="45.87136" lon="5.66555">
        <ele>323.14</ele>
        <time>2023-05-07T12:13:41Z</time>
      </trkpt>
      <trkpt lat="45.87168" lon="5.66581">
        <ele>320.74</ele>
        <time>2023-05-07T12:14:06Z</time>
      </trkpt>
      <trkpt lat="45.87194" lon="5.66597">
        <ele>319.78</ele>
        <time>2023-05-07T12:14:26Z</time>
      </trkpt>
      <trkpt lat="45.87221" lon="5.66611">
        <ele>317.85</ele>
        <time>2023-05-07T12:14:44Z</time>
      </trkpt>
      <trkpt lat="45.87254" lon="5.66628">
        <ele>315.93</ele>
        <time>2023-05-07T12:15:07Z</time>
      </trkpt>
      <trkpt lat="45.87284" lon="5.66648">
        <ele>314.97</ele>
        <time>2023-05-07T12:15:28Z</time>
      </trkpt>
      <trkpt lat="45.87307" lon="5.66675">
        <ele>314.01</ele>
        <time>2023-05-07T12:15:46Z</time>
      </trkpt>
      <trkpt lat="45.87313" lon="5.66711">
        <ele>313.53</ele>
        <time>2023-05-07T12:16:03Z</time>
      </trkpt>
      <trkpt lat="45.87292" lon="5.66739">
        <ele>311.12</ele>
        <time>2023-05-07T12:16:19Z</time>
      </trkpt>
      <trkpt lat="45.87273" lon="5.66757">
        <ele>308.72</ele>
        <time>2023-05-07T12:16:34Z</time>
      </trkpt>
      <trkpt lat="45.87266" lon="5.66782">
        <ele>307.76</ele>
        <time>2023-05-07T12:16:46Z</time>
      </trkpt>
      <trkpt lat="45.87267" lon="5.66792">
        <ele>307.28</ele>
        <time>2023-05-07T12:16:50Z</time>
      </trkpt>
      <trkpt lat="45.87283" lon="5.66814">
        <ele>304.39</ele>
        <time>2023-05-07T12:17:03Z</time>
      </trkpt>
      <trkpt lat="45.873" lon="5.66826">
        <ele>302.47</ele>
        <time>2023-05-07T12:17:18Z</time>
      </trkpt>
      <trkpt lat="45.87308" lon="5.66842">
        <ele>301.99</ele>
        <time>2023-05-07T12:17:28Z</time>
      </trkpt>
      <trkpt lat="45.87323" lon="5.66866">
        <ele>300.55</ele>
        <time>2023-05-07T12:17:43Z</time>
      </trkpt>
      <trkpt lat="45.87343" lon="5.66886">
        <ele>299.59</ele>
        <time>2023-05-07T12:17:58Z</time>
      </trkpt>
      <trkpt lat="45.87365" lon="5.66878">
        <ele>298.63</ele>
        <time>2023-05-07T12:18:12Z</time>
      </trkpt>
      <trkpt lat="45.87386" lon="5.66872">
        <ele>296.7</ele>
        <time>2023-05-07T12:18:26Z</time>
      </trkpt>
      <trkpt lat="45.87407" lon="5.66877">
        <ele>296.22</ele>
        <time>2023-05-07T12:18:41Z</time>
      </trkpt>
      <trkpt lat="45.87429" lon="5.66897">
        <ele>296.7</ele>
        <time>2023-05-07T12:18:57Z</time>
      </trkpt>
      <trkpt lat="45.87457" lon="5.66909">
        <ele>298.63</ele>
        <time>2023-05-07T12:19:15Z</time>
      </trkpt>
      <trkpt lat="45.8748" lon="5.66925">
        <ele>300.07</ele>
        <time>2023-05-07T12:19:29Z</time>
      </trkpt>
      <trkpt lat="45.87505" lon="5.66936">
        <ele>305.84</ele>
        <time>2023-05-07T12:19:47Z</time>
      </trkpt>
      <trkpt lat="45.87527" lon="5.66948">
        <ele>309.2</ele>
        <time>2023-05-07T12:20:03Z</time>
      </trkpt>
      <trkpt lat="45.87554" lon="5.66959">
        <ele>309.2</ele>
        <time>2023-05-07T12:20:21Z</time>
      </trkpt>
      <trkpt lat="45.8758" lon="5.66967">
        <ele>309.2</ele>
        <time>2023-05-07T12:20:37Z</time>
      </trkpt>
      <trkpt lat="45.87595" lon="5.66969">
        <ele>309.2</ele>
        <time>2023-05-07T12:20:48Z</time>
      </trkpt>
      <trkpt lat="45.87597" lon="5.66969">
        <ele>309.2</ele>
        <time>2023-05-07T12:20:49Z</time>
      </trkpt>
      <trkpt lat="45.87598" lon="5.6697">
        <ele>309.2</ele>
        <time>2023-05-07T12:20:50Z</time>
      </trkpt>
      <trkpt lat="45.87609" lon="5.66975">
        <ele>309.68</ele>
        <time>2023-05-07T12:21:04Z</time>
      </trkpt>
      <trkpt lat="45.87613" lon="5.66973">
        <ele>312.09</ele>
        <time>2023-05-07T12:21:23Z</time>
      </trkpt>
      <trkpt lat="45.87613" lon="5.66974">
        <ele>311.12</ele>
        <time>2023-05-07T12:21:36Z</time>
      </trkpt>
      <trkpt lat="45.87611" lon="5.6698">
        <ele>310.64</ele>
        <time>2023-05-07T12:21:49Z</time>
      </trkpt>
      <trkpt lat="45.87611" lon="5.66979">
        <ele>310.64</ele>
        <time>2023-05-07T12:21:50Z</time>
      </trkpt>
      <trkpt lat="45.87613" lon="5.66978">
        <ele>310.64</ele>
        <time>2023-05-07T12:21:51Z</time>
      </trkpt>
      <trkpt lat="45.87615" lon="5.66977">
        <ele>310.64</ele>
        <time>2023-05-07T12:21:52Z</time>
      </trkpt>
      <trkpt lat="45.87615" lon="5.66977">
        <ele>310.64</ele>
        <time>2023-05-07T12:21:53Z</time>
      </trkpt>
      <trkpt lat="45.87617" lon="5.66977">
        <ele>310.64</ele>
        <time>2023-05-07T12:21:54Z</time>
      </trkpt>
      <trkpt lat="45.8764" lon="5.66985">
        <ele>310.16</ele>
        <time>2023-05-07T12:22:08Z</time>
      </trkpt>
      <trkpt lat="45.87664" lon="5.66996">
        <ele>310.64</ele>
        <time>2023-05-07T12:22:25Z</time>
      </trkpt>
      <trkpt lat="45.87692" lon="5.67013">
        <ele>312.09</ele>
        <time>2023-05-07T12:22:46Z</time>
      </trkpt>
      <trkpt lat="45.87716" lon="5.67026">
        <ele>313.05</ele>
        <time>2023-05-07T12:23:05Z</time>
      </trkpt>
      <trkpt lat="45.87733" lon="5.67011">
        <ele>312.09</ele>
        <time>2023-05-07T12:23:21Z</time>
      </trkpt>
      <trkpt lat="45.87744" lon="5.66983">
        <ele>311.12</ele>
        <time>2023-05-07T12:23:37Z</time>
      </trkpt>
      <trkpt lat="45.87753" lon="5.66964">
        <ele>312.57</ele>
        <time>2023-05-07T12:23:52Z</time>
      </trkpt>
      <trkpt lat="45.87765" lon="5.66937">
        <ele>310.64</ele>
        <time>2023-05-07T12:24:09Z</time>
      </trkpt>
      <trkpt lat="45.87766" lon="5.66934">
        <ele>310.16</ele>
        <time>2023-05-07T12:24:11Z</time>
      </trkpt>
      <trkpt lat="45.87767" lon="5.66932">
        <ele>310.16</ele>
        <time>2023-05-07T12:24:12Z</time>
      </trkpt>
      <trkpt lat="45.87767" lon="5.6693">
        <ele>309.68</ele>
        <time>2023-05-07T12:24:13Z</time>
      </trkpt>
      <trkpt lat="45.87767" lon="5.66928">
        <ele>309.2</ele>
        <time>2023-05-07T12:24:14Z</time>
      </trkpt>
      <trkpt lat="45.87767" lon="5.66926">
        <ele>309.2</ele>
        <time>2023-05-07T12:24:15Z</time>
      </trkpt>
      <trkpt lat="45.87767" lon="5.66925">
        <ele>308.72</ele>
        <time>2023-05-07T12:24:16Z</time>
      </trkpt>
      <trkpt lat="45.87767" lon="5.66923">
        <ele>308.72</ele>
        <time>2023-05-07T12:24:17Z</time>
      </trkpt>
      <trkpt lat="45.87771" lon="5.66904">
        <ele>305.36</ele>
        <time>2023-05-07T12:24:31Z</time>
      </trkpt>
      <trkpt lat="45.87771" lon="5.66893">
        <ele>304.39</ele>
        <time>2023-05-07T12:24:35Z</time>
      </trkpt>
      <trkpt lat="45.87772" lon="5.66891">
        <ele>304.39</ele>
        <time>2023-05-07T12:24:36Z</time>
      </trkpt>
      <trkpt lat="45.87772" lon="5.66889">
        <ele>303.91</ele>
        <time>2023-05-07T12:24:37Z</time>
      </trkpt>
      <trkpt lat="45.87773" lon="5.66887">
        <ele>303.91</ele>
        <time>2023-05-07T12:24:38Z</time>
      </trkpt>
      <trkpt lat="45.87774" lon="5.66885">
        <ele>303.91</ele>
        <time>2023-05-07T12:24:39Z</time>
      </trkpt>
      <trkpt lat="45.87774" lon="5.66883">
        <ele>303.91</ele>
        <time>2023-05-07T12:24:40Z</time>
      </trkpt>
      <trkpt lat="45.87775" lon="5.66881">
        <ele>303.91</ele>
        <time>2023-05-07T12:24:41Z</time>
      </trkpt>
      <trkpt lat="45.87776" lon="5.66879">
        <ele>303.91</ele>
        <time>2023-05-07T12:24:42Z</time>
      </trkpt>
      <trkpt lat="45.87779" lon="5.66875">
        <ele>303.91</ele>
        <time>2023-05-07T12:24:45Z</time>
      </trkpt>
      <trkpt lat="45.87781" lon="5.66874">
        <ele>303.43</ele>
        <time>2023-05-07T12:24:46Z</time>
      </trkpt>
      <trkpt lat="45.87782" lon="5.66874">
        <ele>303.43</ele>
        <time>2023-05-07T12:24:47Z</time>
      </trkpt>
      <trkpt lat="45.87784" lon="5.66874">
        <ele>302.95</ele>
        <time>2023-05-07T12:24:48Z</time>
      </trkpt>
      <trkpt lat="45.87787" lon="5.66874">
        <ele>302.47</ele>
        <time>2023-05-07T12:24:51Z</time>
      </trkpt>
      <trkpt lat="45.87803" lon="5.66891">
        <ele>301.99</ele>
        <time>2023-05-07T12:25:05Z</time>
      </trkpt>
      <trkpt lat="45.87815" lon="5.66913">
        <ele>303.43</ele>
        <time>2023-05-07T12:25:19Z</time>
      </trkpt>
      <trkpt lat="45.87824" lon="5.66929">
        <ele>305.36</ele>
        <time>2023-05-07T12:25:32Z</time>
      </trkpt>
      <trkpt lat="45.87837" lon="5.66943">
        <ele>305.36</ele>
        <time>2023-05-07T12:25:45Z</time>
      </trkpt>
      <trkpt lat="45.87853" lon="5.6696">
        <ele>307.76</ele>
        <time>2023-05-07T12:25:58Z</time>
      </trkpt>
      <trkpt lat="45.87859" lon="5.66969">
        <ele>308.72</ele>
        <time>2023-05-07T12:26:04Z</time>
      </trkpt>
      <trkpt lat="45.8786" lon="5.6697">
        <ele>308.72</ele>
        <time>2023-05-07T12:26:05Z</time>
      </trkpt>
      <trkpt lat="45.87861" lon="5.66972">
        <ele>309.2</ele>
        <time>2023-05-07T12:26:06Z</time>
      </trkpt>
      <trkpt lat="45.87874" lon="5.66986">
        <ele>310.64</ele>
        <time>2023-05-07T12:26:16Z</time>
      </trkpt>
      <trkpt lat="45.87875" lon="5.66988">
        <ele>310.64</ele>
        <time>2023-05-07T12:26:17Z</time>
      </trkpt>
      <trkpt lat="45.87875" lon="5.66989">
        <ele>310.64</ele>
        <time>2023-05-07T12:26:18Z</time>
      </trkpt>
      <trkpt lat="45.87885" lon="5.67002">
        <ele>312.57</ele>
        <time>2023-05-07T12:26:28Z</time>
      </trkpt>
      <trkpt lat="45.87886" lon="5.67004">
        <ele>312.57</ele>
        <time>2023-05-07T12:26:29Z</time>
      </trkpt>
      <trkpt lat="45.87908" lon="5.67028">
        <ele>314.01</ele>
        <time>2023-05-07T12:26:43Z</time>
      </trkpt>
      <trkpt lat="45.8792" lon="5.67065">
        <ele>317.85</ele>
        <time>2023-05-07T12:26:57Z</time>
      </trkpt>
      <trkpt lat="45.87929" lon="5.67095">
        <ele>324.58</ele>
        <time>2023-05-07T12:27:12Z</time>
      </trkpt>
      <trkpt lat="45.87939" lon="5.67129">
        <ele>325.06</ele>
        <time>2023-05-07T12:27:30Z</time>
      </trkpt>
      <trkpt lat="45.87944" lon="5.67142">
        <ele>326.5</ele>
        <time>2023-05-07T12:27:37Z</time>
      </trkpt>
      <trkpt lat="45.87953" lon="5.67161">
        <ele>328.91</ele>
        <time>2023-05-07T12:27:49Z</time>
      </trkpt>
      <trkpt lat="45.87959" lon="5.67161">
        <ele>329.87</ele>
        <time>2023-05-07T12:27:54Z</time>
      </trkpt>
      <trkpt lat="45.8797" lon="5.67154">
        <ele>329.87</ele>
        <time>2023-05-07T12:28:06Z</time>
      </trkpt>
      <trkpt lat="45.87985" lon="5.67146">
        <ele>326.02</ele>
        <time>2023-05-07T12:28:19Z</time>
      </trkpt>
      <trkpt lat="45.88007" lon="5.67148">
        <ele>322.66</ele>
        <time>2023-05-07T12:28:35Z</time>
      </trkpt>
      <trkpt lat="45.88027" lon="5.67151">
        <ele>327.47</ele>
        <time>2023-05-07T12:28:50Z</time>
      </trkpt>
      <trkpt lat="45.88042" lon="5.67162">
        <ele>329.39</ele>
        <time>2023-05-07T12:29:03Z</time>
      </trkpt>
      <trkpt lat="45.88058" lon="5.67176">
        <ele>333.71</ele>
        <time>2023-05-07T12:29:18Z</time>
      </trkpt>
      <trkpt lat="45.88083" lon="5.67195">
        <ele>351.98</ele>
        <time>2023-05-07T12:29:33Z</time>
      </trkpt>
      <trkpt lat="45.88099" lon="5.67209">
        <ele>362.07</ele>
        <time>2023-05-07T12:29:42Z</time>
      </trkpt>
      <trkpt lat="45.88101" lon="5.6721">
        <ele>363.04</ele>
        <time>2023-05-07T12:29:43Z</time>
      </trkpt>
      <trkpt lat="45.88103" lon="5.67211">
        <ele>363.52</ele>
        <time>2023-05-07T12:29:44Z</time>
      </trkpt>
      <trkpt lat="45.88105" lon="5.67212">
        <ele>364</ele>
        <time>2023-05-07T12:29:45Z</time>
      </trkpt>
      <trkpt lat="45.88107" lon="5.67213">
        <ele>364.96</ele>
        <time>2023-05-07T12:29:46Z</time>
      </trkpt>
      <trkpt lat="45.8812" lon="5.67221">
        <ele>366.4</ele>
        <time>2023-05-07T12:29:59Z</time>
      </trkpt>
      <trkpt lat="45.88132" lon="5.67232">
        <ele>368.8</ele>
        <time>2023-05-07T12:30:07Z</time>
      </trkpt>
      <trkpt lat="45.88133" lon="5.67234">
        <ele>368.8</ele>
        <time>2023-05-07T12:30:08Z</time>
      </trkpt>
      <trkpt lat="45.88134" lon="5.67237">
        <ele>368.32</ele>
        <time>2023-05-07T12:30:09Z</time>
      </trkpt>
      <trkpt lat="45.88134" lon="5.6724">
        <ele>368.32</ele>
        <time>2023-05-07T12:30:11Z</time>
      </trkpt>
      <trkpt lat="45.88135" lon="5.67242">
        <ele>368.32</ele>
        <time>2023-05-07T12:30:12Z</time>
      </trkpt>
      <trkpt lat="45.88131" lon="5.67265">
        <ele>369.76</ele>
        <time>2023-05-07T12:30:26Z</time>
      </trkpt>
      <trkpt lat="45.88134" lon="5.67267">
        <ele>370.73</ele>
        <time>2023-05-07T12:30:46Z</time>
      </trkpt>
      <trkpt lat="45.88126" lon="5.67281">
        <ele>371.69</ele>
        <time>2023-05-07T12:31:02Z</time>
      </trkpt>
      <trkpt lat="45.88124" lon="5.67284">
        <ele>371.21</ele>
        <time>2023-05-07T12:31:05Z</time>
      </trkpt>
      <trkpt lat="45.88124" lon="5.67287">
        <ele>371.21</ele>
        <time>2023-05-07T12:31:06Z</time>
      </trkpt>
      <trkpt lat="45.88123" lon="5.67288">
        <ele>371.21</ele>
        <time>2023-05-07T12:31:07Z</time>
      </trkpt>
      <trkpt lat="45.88117" lon="5.67309">
        <ele>370.73</ele>
        <time>2023-05-07T12:31:21Z</time>
      </trkpt>
      <trkpt lat="45.88117" lon="5.67332">
        <ele>371.21</ele>
        <time>2023-05-07T12:31:32Z</time>
      </trkpt>
      <trkpt lat="45.88115" lon="5.67342">
        <ele>370.73</ele>
        <time>2023-05-07T12:31:37Z</time>
      </trkpt>
      <trkpt lat="45.88119" lon="5.67364">
        <ele>369.76</ele>
        <time>2023-05-07T12:31:48Z</time>
      </trkpt>
      <trkpt lat="45.88121" lon="5.67369">
        <ele>369.28</ele>
        <time>2023-05-07T12:31:52Z</time>
      </trkpt>
      <trkpt lat="45.88128" lon="5.67389">
        <ele>372.17</ele>
        <time>2023-05-07T12:32:10Z</time>
      </trkpt>
      <trkpt lat="45.88135" lon="5.67394">
        <ele>376.01</ele>
        <time>2023-05-07T12:32:35Z</time>
      </trkpt>
      <trkpt lat="45.88145" lon="5.67398">
        <ele>380.82</ele>
        <time>2023-05-07T12:32:51Z</time>
      </trkpt>
      <trkpt lat="45.88149" lon="5.67404">
        <ele>380.34</ele>
        <time>2023-05-07T12:32:56Z</time>
      </trkpt>
      <trkpt lat="45.88159" lon="5.67414">
        <ele>379.86</ele>
        <time>2023-05-07T12:33:02Z</time>
      </trkpt>
      <trkpt lat="45.88171" lon="5.67421">
        <ele>378.9</ele>
        <time>2023-05-07T12:33:16Z</time>
      </trkpt>
      <trkpt lat="45.88183" lon="5.67431">
        <ele>378.9</ele>
        <time>2023-05-07T12:33:29Z</time>
      </trkpt>
      <trkpt lat="45.88202" lon="5.67451">
        <ele>380.34</ele>
        <time>2023-05-07T12:33:42Z</time>
      </trkpt>
      <trkpt lat="45.8821" lon="5.67462">
        <ele>380.34</ele>
        <time>2023-05-07T12:33:49Z</time>
      </trkpt>
      <trkpt lat="45.88214" lon="5.67469">
        <ele>380.34</ele>
        <time>2023-05-07T12:33:53Z</time>
      </trkpt>
      <trkpt lat="45.88232" lon="5.67493">
        <ele>379.86</ele>
        <time>2023-05-07T12:34:10Z</time>
      </trkpt>
      <trkpt lat="45.88238" lon="5.67503">
        <ele>378.9</ele>
        <time>2023-05-07T12:34:16Z</time>
      </trkpt>
      <trkpt lat="45.88246" lon="5.67511">
        <ele>377.94</ele>
        <time>2023-05-07T12:34:22Z</time>
      </trkpt>
      <trkpt lat="45.88249" lon="5.67515">
        <ele>377.94</ele>
        <time>2023-05-07T12:34:25Z</time>
      </trkpt>
      <trkpt lat="45.88253" lon="5.67539">
        <ele>376.97</ele>
        <time>2023-05-07T12:34:39Z</time>
      </trkpt>
      <trkpt lat="45.88254" lon="5.67546">
        <ele>376.01</ele>
        <time>2023-05-07T12:34:42Z</time>
      </trkpt>
      <trkpt lat="45.88261" lon="5.67568">
        <ele>375.53</ele>
        <time>2023-05-07T12:34:55Z</time>
      </trkpt>
      <trkpt lat="45.88254" lon="5.67581">
        <ele>375.05</ele>
        <time>2023-05-07T12:35:01Z</time>
      </trkpt>
      <trkpt lat="45.88244" lon="5.67595">
        <ele>374.57</ele>
        <time>2023-05-07T12:35:09Z</time>
      </trkpt>
      <trkpt lat="45.88233" lon="5.67606">
        <ele>374.57</ele>
        <time>2023-05-07T12:35:19Z</time>
      </trkpt>
      <trkpt lat="45.88216" lon="5.67625">
        <ele>373.13</ele>
        <time>2023-05-07T12:35:31Z</time>
      </trkpt>
      <trkpt lat="45.88203" lon="5.67637">
        <ele>372.65</ele>
        <time>2023-05-07T12:35:41Z</time>
      </trkpt>
      <trkpt lat="45.88187" lon="5.67656">
        <ele>372.65</ele>
        <time>2023-05-07T12:35:55Z</time>
      </trkpt>
      <trkpt lat="45.88175" lon="5.67669">
        <ele>373.13</ele>
        <time>2023-05-07T12:36:05Z</time>
      </trkpt>
      <trkpt lat="45.88153" lon="5.67687">
        <ele>372.17</ele>
        <time>2023-05-07T12:36:20Z</time>
      </trkpt>
      <trkpt lat="45.88143" lon="5.67694">
        <ele>371.69</ele>
        <time>2023-05-07T12:36:28Z</time>
      </trkpt>
      <trkpt lat="45.8813" lon="5.6771">
        <ele>370.73</ele>
        <time>2023-05-07T12:36:39Z</time>
      </trkpt>
      <trkpt lat="45.88122" lon="5.6772">
        <ele>371.21</ele>
        <time>2023-05-07T12:36:47Z</time>
      </trkpt>
      <trkpt lat="45.88108" lon="5.67748">
        <ele>378.42</ele>
        <time>2023-05-07T12:37:00Z</time>
      </trkpt>
      <trkpt lat="45.88107" lon="5.67759">
        <ele>380.34</ele>
        <time>2023-05-07T12:37:10Z</time>
      </trkpt>
      <trkpt lat="45.88105" lon="5.67783">
        <ele>376.01</ele>
        <time>2023-05-07T12:37:24Z</time>
      </trkpt>
      <trkpt lat="45.88101" lon="5.6779">
        <ele>376.01</ele>
        <time>2023-05-07T12:37:30Z</time>
      </trkpt>
      <trkpt lat="45.88091" lon="5.67796">
        <ele>374.09</ele>
        <time>2023-05-07T12:37:34Z</time>
      </trkpt>
      <trkpt lat="45.88065" lon="5.67807">
        <ele>371.69</ele>
        <time>2023-05-07T12:37:49Z</time>
      </trkpt>
      <trkpt lat="45.88058" lon="5.67809">
        <ele>370.73</ele>
        <time>2023-05-07T12:37:54Z</time>
      </trkpt>
      <trkpt lat="45.88054" lon="5.67811">
        <ele>371.21</ele>
        <time>2023-05-07T12:37:57Z</time>
      </trkpt>
      <trkpt lat="45.88046" lon="5.67816">
        <ele>370.73</ele>
        <time>2023-05-07T12:38:12Z</time>
      </trkpt>
      <trkpt lat="45.88044" lon="5.67817">
        <ele>370.73</ele>
        <time>2023-05-07T12:38:36Z</time>
      </trkpt>
      <trkpt lat="45.88044" lon="5.67821">
        <ele>370.73</ele>
        <time>2023-05-07T12:39:04Z</time>
      </trkpt>
      <trkpt lat="45.88047" lon="5.67818">
        <ele>369.28</ele>
        <time>2023-05-07T12:39:24Z</time>
      </trkpt>
      <trkpt lat="45.88048" lon="5.67822">
        <ele>369.76</ele>
        <time>2023-05-07T12:39:46Z</time>
      </trkpt>
      <trkpt lat="45.88042" lon="5.67825">
        <ele>369.76</ele>
        <time>2023-05-07T12:40:04Z</time>
      </trkpt>
      <trkpt lat="45.88042" lon="5.67821">
        <ele>371.21</ele>
        <time>2023-05-07T12:40:27Z</time>
      </trkpt>
      <trkpt lat="45.88033" lon="5.67835">
        <ele>370.24</ele>
        <time>2023-05-07T12:40:48Z</time>
      </trkpt>
      <trkpt lat="45.8801" lon="5.6785">
        <ele>368.8</ele>
        <time>2023-05-07T12:41:06Z</time>
      </trkpt>
      <trkpt lat="45.87996" lon="5.67859">
        <ele>368.32</ele>
        <time>2023-05-07T12:41:20Z</time>
      </trkpt>
      <trkpt lat="45.8799" lon="5.67857">
        <ele>369.28</ele>
        <time>2023-05-07T12:41:33Z</time>
      </trkpt>
      <trkpt lat="45.87987" lon="5.67858">
        <ele>370.73</ele>
        <time>2023-05-07T12:41:56Z</time>
      </trkpt>
      <trkpt lat="45.87983" lon="5.67861">
        <ele>371.21</ele>
        <time>2023-05-07T12:42:16Z</time>
      </trkpt>
      <trkpt lat="45.87968" lon="5.67867">
        <ele>370.73</ele>
        <time>2023-05-07T12:42:35Z</time>
      </trkpt>
      <trkpt lat="45.87967" lon="5.67868">
        <ele>371.69</ele>
        <time>2023-05-07T12:42:58Z</time>
      </trkpt>
      <trkpt lat="45.87965" lon="5.67864">
        <ele>369.76</ele>
        <time>2023-05-07T12:43:23Z</time>
      </trkpt>
      <trkpt lat="45.87959" lon="5.67866">
        <ele>367.36</ele>
        <time>2023-05-07T12:43:37Z</time>
      </trkpt>
      <trkpt lat="45.87958" lon="5.67867">
        <ele>364.96</ele>
        <time>2023-05-07T12:43:54Z</time>
      </trkpt>
      <trkpt lat="45.87958" lon="5.67866">
        <ele>361.59</ele>
        <time>2023-05-07T12:44:17Z</time>
      </trkpt>
      <trkpt lat="45.87961" lon="5.67864">
        <ele>360.15</ele>
        <time>2023-05-07T12:44:35Z</time>
      </trkpt>
      <trkpt lat="45.87961" lon="5.67863">
        <ele>360.63</ele>
        <time>2023-05-07T12:44:37Z</time>
      </trkpt>
      <trkpt lat="45.87974" lon="5.67853">
        <ele>364.48</ele>
        <time>2023-05-07T12:44:53Z</time>
      </trkpt>
      <trkpt lat="45.87983" lon="5.6785">
        <ele>365.92</ele>
        <time>2023-05-07T12:45:09Z</time>
      </trkpt>
      <trkpt lat="45.87984" lon="5.67846">
        <ele>365.92</ele>
        <time>2023-05-07T12:45:24Z</time>
      </trkpt>
      <trkpt lat="45.87989" lon="5.67845">
        <ele>366.88</ele>
        <time>2023-05-07T12:45:42Z</time>
      </trkpt>
      <trkpt lat="45.87992" lon="5.6784">
        <ele>359.67</ele>
        <time>2023-05-07T12:46:17Z</time>
      </trkpt>
      <trkpt lat="45.87993" lon="5.67847">
        <ele>359.67</ele>
        <time>2023-05-07T12:46:39Z</time>
      </trkpt>
      <trkpt lat="45.87992" lon="5.67846">
        <ele>363.52</ele>
        <time>2023-05-07T12:47:02Z</time>
      </trkpt>
      <trkpt lat="45.87993" lon="5.67852">
        <ele>364</ele>
        <time>2023-05-07T12:47:08Z</time>
      </trkpt>
      <trkpt lat="45.87975" lon="5.67856">
        <ele>362.55</ele>
        <time>2023-05-07T12:47:23Z</time>
      </trkpt>
      <trkpt lat="45.87972" lon="5.67858">
        <ele>362.07</ele>
        <time>2023-05-07T12:47:26Z</time>
      </trkpt>
      <trkpt lat="45.87966" lon="5.67865">
        <ele>361.59</ele>
        <time>2023-05-07T12:47:31Z</time>
      </trkpt>
      <trkpt lat="45.87948" lon="5.67869">
        <ele>360.63</ele>
        <time>2023-05-07T12:47:47Z</time>
      </trkpt>
      <trkpt lat="45.87947" lon="5.6787">
        <ele>360.15</ele>
        <time>2023-05-07T12:47:48Z</time>
      </trkpt>
      <trkpt lat="45.87939" lon="5.67871">
        <ele>359.67</ele>
        <time>2023-05-07T12:48:01Z</time>
      </trkpt>
      <trkpt lat="45.87934" lon="5.67864">
        <ele>358.23</ele>
        <time>2023-05-07T12:48:16Z</time>
      </trkpt>
      <trkpt lat="45.87934" lon="5.6786">
        <ele>354.86</ele>
        <time>2023-05-07T12:48:39Z</time>
      </trkpt>
      <trkpt lat="45.87932" lon="5.67858">
        <ele>355.83</ele>
        <time>2023-05-07T12:48:56Z</time>
      </trkpt>
      <trkpt lat="45.87931" lon="5.67859">
        <ele>356.31</ele>
        <time>2023-05-07T12:49:16Z</time>
      </trkpt>
      <trkpt lat="45.87932" lon="5.6786">
        <ele>359.19</ele>
        <time>2023-05-07T12:49:42Z</time>
      </trkpt>
      <trkpt lat="45.87933" lon="5.67859">
        <ele>361.11</ele>
        <time>2023-05-07T12:49:55Z</time>
      </trkpt>
      <trkpt lat="45.87933" lon="5.67859">
        <ele>360.63</ele>
        <time>2023-05-07T12:50:02Z</time>
      </trkpt>
      <trkpt lat="45.87944" lon="5.67866">
        <ele>360.63</ele>
        <time>2023-05-07T12:50:17Z</time>
      </trkpt>
      <trkpt lat="45.8795" lon="5.67862">
        <ele>362.07</ele>
        <time>2023-05-07T12:50:29Z</time>
      </trkpt>
      <trkpt lat="45.87951" lon="5.67863">
        <ele>362.07</ele>
        <time>2023-05-07T12:50:41Z</time>
      </trkpt>
      <trkpt lat="45.87962" lon="5.67864">
        <ele>363.04</ele>
        <time>2023-05-07T12:50:56Z</time>
      </trkpt>
      <trkpt lat="45.87966" lon="5.67869">
        <ele>364</ele>
        <time>2023-05-07T12:51:16Z</time>
      </trkpt>
      <trkpt lat="45.87964" lon="5.6787">
        <ele>364.48</ele>
        <time>2023-05-07T12:51:36Z</time>
      </trkpt>
      <trkpt lat="45.87964" lon="5.67869">
        <ele>364.48</ele>
        <time>2023-05-07T12:51:54Z</time>
      </trkpt>
      <trkpt lat="45.87965" lon="5.6787">
        <ele>366.88</ele>
        <time>2023-05-07T12:52:22Z</time>
      </trkpt>
      <trkpt lat="45.87957" lon="5.67868">
        <ele>367.84</ele>
        <time>2023-05-07T12:52:45Z</time>
      </trkpt>
      <trkpt lat="45.87957" lon="5.67866">
        <ele>366.4</ele>
        <time>2023-05-07T12:52:56Z</time>
      </trkpt>
      <trkpt lat="45.87958" lon="5.67867">
        <ele>365.92</ele>
        <time>2023-05-07T12:53:16Z</time>
      </trkpt>
      <trkpt lat="45.87967" lon="5.67857">
        <ele>364.96</ele>
        <time>2023-05-07T12:53:30Z</time>
      </trkpt>
      <trkpt lat="45.8797" lon="5.67857">
        <ele>365.44</ele>
        <time>2023-05-07T12:53:44Z</time>
      </trkpt>
      <trkpt lat="45.87978" lon="5.67855">
        <ele>366.88</ele>
        <time>2023-05-07T12:53:56Z</time>
      </trkpt>
      <trkpt lat="45.87989" lon="5.67853">
        <ele>368.32</ele>
        <time>2023-05-07T12:54:07Z</time>
      </trkpt>
      <trkpt lat="45.87992" lon="5.67849">
        <ele>369.28</ele>
        <time>2023-05-07T12:54:12Z</time>
      </trkpt>
      <trkpt lat="45.88004" lon="5.6784">
        <ele>371.69</ele>
        <time>2023-05-07T12:54:26Z</time>
      </trkpt>
      <trkpt lat="45.88007" lon="5.6784">
        <ele>375.53</ele>
        <time>2023-05-07T12:54:41Z</time>
      </trkpt>
      <trkpt lat="45.8801" lon="5.6784">
        <ele>380.34</ele>
        <time>2023-05-07T12:55:03Z</time>
      </trkpt>
      <trkpt lat="45.88008" lon="5.67844">
        <ele>376.49</ele>
        <time>2023-05-07T12:55:25Z</time>
      </trkpt>
      <trkpt lat="45.88006" lon="5.6784">
        <ele>374.57</ele>
        <time>2023-05-07T12:55:42Z</time>
      </trkpt>
      <trkpt lat="45.88008" lon="5.67842">
        <ele>376.97</ele>
        <time>2023-05-07T12:55:59Z</time>
      </trkpt>
      <trkpt lat="45.88009" lon="5.67843">
        <ele>377.45</ele>
        <time>2023-05-07T12:56:24Z</time>
      </trkpt>
      <trkpt lat="45.88007" lon="5.67847">
        <ele>378.42</ele>
        <time>2023-05-07T12:56:46Z</time>
      </trkpt>
      <trkpt lat="45.88008" lon="5.6785">
        <ele>376.97</ele>
        <time>2023-05-07T12:57:08Z</time>
      </trkpt>
      <trkpt lat="45.88011" lon="5.67847">
        <ele>375.53</ele>
        <time>2023-05-07T12:57:13Z</time>
      </trkpt>
      <trkpt lat="45.88015" lon="5.67881">
        <ele>372.65</ele>
        <time>2023-05-07T12:57:30Z</time>
      </trkpt>
      <trkpt lat="45.87996" lon="5.67911">
        <ele>371.21</ele>
        <time>2023-05-07T12:57:46Z</time>
      </trkpt>
      <trkpt lat="45.87975" lon="5.67937">
        <ele>370.73</ele>
        <time>2023-05-07T12:58:04Z</time>
      </trkpt>
      <trkpt lat="45.87944" lon="5.67959">
        <ele>370.24</ele>
        <time>2023-05-07T12:58:27Z</time>
      </trkpt>
      <trkpt lat="45.87928" lon="5.67994">
        <ele>371.21</ele>
        <time>2023-05-07T12:58:49Z</time>
      </trkpt>
      <trkpt lat="45.87924" lon="5.68033">
        <ele>373.61</ele>
        <time>2023-05-07T12:59:09Z</time>
      </trkpt>
      <trkpt lat="45.87925" lon="5.68044">
        <ele>376.01</ele>
        <time>2023-05-07T12:59:21Z</time>
      </trkpt>
      <trkpt lat="45.87927" lon="5.68051">
        <ele>377.94</ele>
        <time>2023-05-07T12:59:37Z</time>
      </trkpt>
      <trkpt lat="45.87929" lon="5.68056">
        <ele>378.42</ele>
        <time>2023-05-07T12:59:57Z</time>
      </trkpt>
      <trkpt lat="45.87926" lon="5.68076">
        <ele>378.42</ele>
        <time>2023-05-07T13:00:17Z</time>
      </trkpt>
      <trkpt lat="45.87923" lon="5.6811">
        <ele>375.53</ele>
        <time>2023-05-07T13:00:33Z</time>
      </trkpt>
      <trkpt lat="45.87915" lon="5.68156">
        <ele>372.17</ele>
        <time>2023-05-07T13:00:55Z</time>
      </trkpt>
      <trkpt lat="45.87917" lon="5.68199">
        <ele>370.73</ele>
        <time>2023-05-07T13:01:16Z</time>
      </trkpt>
      <trkpt lat="45.87926" lon="5.68238">
        <ele>369.76</ele>
        <time>2023-05-07T13:01:34Z</time>
      </trkpt>
      <trkpt lat="45.87938" lon="5.68274">
        <ele>369.76</ele>
        <time>2023-05-07T13:01:52Z</time>
      </trkpt>
      <trkpt lat="45.8794" lon="5.68313">
        <ele>368.8</ele>
        <time>2023-05-07T13:02:08Z</time>
      </trkpt>
      <trkpt lat="45.8793" lon="5.68356">
        <ele>367.84</ele>
        <time>2023-05-07T13:02:27Z</time>
      </trkpt>
      <trkpt lat="45.87922" lon="5.68395">
        <ele>366.4</ele>
        <time>2023-05-07T13:02:44Z</time>
      </trkpt>
      <trkpt lat="45.87922" lon="5.68436">
        <ele>364.48</ele>
        <time>2023-05-07T13:03:01Z</time>
      </trkpt>
      <trkpt lat="45.87935" lon="5.68475">
        <ele>364</ele>
        <time>2023-05-07T13:03:19Z</time>
      </trkpt>
      <trkpt lat="45.87955" lon="5.68516">
        <ele>361.59</ele>
        <time>2023-05-07T13:03:41Z</time>
      </trkpt>
      <trkpt lat="45.87974" lon="5.68552">
        <ele>361.59</ele>
        <time>2023-05-07T13:04:00Z</time>
      </trkpt>
      <trkpt lat="45.87997" lon="5.68578">
        <ele>361.11</ele>
        <time>2023-05-07T13:04:19Z</time>
      </trkpt>
      <trkpt lat="45.88019" lon="5.68602">
        <ele>362.07</ele>
        <time>2023-05-07T13:04:37Z</time>
      </trkpt>
      <trkpt lat="45.88045" lon="5.68635">
        <ele>361.11</ele>
        <time>2023-05-07T13:04:57Z</time>
      </trkpt>
      <trkpt lat="45.88065" lon="5.68674">
        <ele>362.07</ele>
        <time>2023-05-07T13:05:18Z</time>
      </trkpt>
      <trkpt lat="45.88081" lon="5.68705">
        <ele>362.07</ele>
        <time>2023-05-07T13:05:33Z</time>
      </trkpt>
      <trkpt lat="45.88104" lon="5.68741">
        <ele>360.15</ele>
        <time>2023-05-07T13:05:52Z</time>
      </trkpt>
      <trkpt lat="45.88126" lon="5.68766">
        <ele>360.15</ele>
        <time>2023-05-07T13:06:09Z</time>
      </trkpt>
      <trkpt lat="45.88153" lon="5.68792">
        <ele>359.67</ele>
        <time>2023-05-07T13:06:27Z</time>
      </trkpt>
      <trkpt lat="45.88179" lon="5.68816">
        <ele>359.19</ele>
        <time>2023-05-07T13:06:44Z</time>
      </trkpt>
      <trkpt lat="45.88202" lon="5.68839">
        <ele>356.79</ele>
        <time>2023-05-07T13:07:00Z</time>
      </trkpt>
      <trkpt lat="45.88217" lon="5.6887">
        <ele>355.83</ele>
        <time>2023-05-07T13:07:14Z</time>
      </trkpt>
      <trkpt lat="45.88222" lon="5.68908">
        <ele>355.83</ele>
        <time>2023-05-07T13:07:30Z</time>
      </trkpt>
      <trkpt lat="45.8822" lon="5.68943">
        <ele>356.31</ele>
        <time>2023-05-07T13:07:45Z</time>
      </trkpt>
      <trkpt lat="45.88218" lon="5.68971">
        <ele>357.75</ele>
        <time>2023-05-07T13:08:00Z</time>
      </trkpt>
      <trkpt lat="45.8822" lon="5.68971">
        <ele>357.75</ele>
        <time>2023-05-07T13:08:01Z</time>
      </trkpt>
      <trkpt lat="45.88224" lon="5.68973">
        <ele>357.75</ele>
        <time>2023-05-07T13:08:11Z</time>
      </trkpt>
      <trkpt lat="45.88225" lon="5.68972">
        <ele>357.75</ele>
        <time>2023-05-07T13:08:12Z</time>
      </trkpt>
      <trkpt lat="45.88252" lon="5.68966">
        <ele>363.04</ele>
        <time>2023-05-07T13:08:32Z</time>
      </trkpt>
      <trkpt lat="45.88275" lon="5.68958">
        <ele>365.92</ele>
        <time>2023-05-07T13:08:50Z</time>
      </trkpt>
      <trkpt lat="45.88303" lon="5.68945">
        <ele>367.84</ele>
        <time>2023-05-07T13:09:09Z</time>
      </trkpt>
      <trkpt lat="45.88327" lon="5.68932">
        <ele>370.73</ele>
        <time>2023-05-07T13:09:25Z</time>
      </trkpt>
      <trkpt lat="45.88347" lon="5.68979">
        <ele>368.8</ele>
        <time>2023-05-07T13:09:40Z</time>
      </trkpt>
      <trkpt lat="45.88356" lon="5.69016">
        <ele>373.61</ele>
        <time>2023-05-07T13:09:56Z</time>
      </trkpt>
      <trkpt lat="45.8838" lon="5.69054">
        <ele>377.45</ele>
        <time>2023-05-07T13:10:17Z</time>
      </trkpt>
      <trkpt lat="45.88401" lon="5.69077">
        <ele>382.74</ele>
        <time>2023-05-07T13:10:34Z</time>
      </trkpt>
      <trkpt lat="45.88425" lon="5.69077">
        <ele>388.99</ele>
        <time>2023-05-07T13:10:51Z</time>
      </trkpt>
      <trkpt lat="45.88445" lon="5.6905">
        <ele>395.72</ele>
        <time>2023-05-07T13:11:08Z</time>
      </trkpt>
      <trkpt lat="45.88468" lon="5.69039">
        <ele>398.12</ele>
        <time>2023-05-07T13:11:23Z</time>
      </trkpt>
      <trkpt lat="45.88473" lon="5.69036">
        <ele>395.72</ele>
        <time>2023-05-07T13:11:42Z</time>
      </trkpt>
      <trkpt lat="45.88477" lon="5.69035">
        <ele>394.28</ele>
        <time>2023-05-07T13:12:07Z</time>
      </trkpt>
      <trkpt lat="45.88478" lon="5.69034">
        <ele>394.28</ele>
        <time>2023-05-07T13:12:08Z</time>
      </trkpt>
      <trkpt lat="45.88479" lon="5.69034">
        <ele>394.76</ele>
        <time>2023-05-07T13:12:09Z</time>
      </trkpt>
      <trkpt lat="45.88481" lon="5.69034">
        <ele>394.76</ele>
        <time>2023-05-07T13:12:10Z</time>
      </trkpt>
      <trkpt lat="45.88482" lon="5.69034">
        <ele>394.76</ele>
        <time>2023-05-07T13:12:11Z</time>
      </trkpt>
      <trkpt lat="45.88485" lon="5.69038">
        <ele>395.24</ele>
        <time>2023-05-07T13:12:15Z</time>
      </trkpt>
      <trkpt lat="45.88487" lon="5.69037">
        <ele>395.24</ele>
        <time>2023-05-07T13:12:16Z</time>
      </trkpt>
      <trkpt lat="45.88514" lon="5.69047">
        <ele>395.24</ele>
        <time>2023-05-07T13:12:37Z</time>
      </trkpt>
      <trkpt lat="45.88546" lon="5.69058">
        <ele>391.87</ele>
        <time>2023-05-07T13:12:57Z</time>
      </trkpt>
      <trkpt lat="45.88587" lon="5.69058">
        <ele>389.95</ele>
        <time>2023-05-07T13:13:24Z</time>
      </trkpt>
      <trkpt lat="45.88595" lon="5.69059">
        <ele>390.43</ele>
        <time>2023-05-07T13:13:28Z</time>
      </trkpt>
      <trkpt lat="45.88643" lon="5.69043">
        <ele>394.28</ele>
        <time>2023-05-07T13:13:57Z</time>
      </trkpt>
      <trkpt lat="45.88655" lon="5.69038">
        <ele>395.72</ele>
        <time>2023-05-07T13:14:05Z</time>
      </trkpt>
      <trkpt lat="45.88664" lon="5.69035">
        <ele>396.2</ele>
        <time>2023-05-07T13:14:10Z</time>
      </trkpt>
      <trkpt lat="45.88753" lon="5.68974">
        <ele>373.61</ele>
        <time>2023-05-07T13:15:18Z</time>
      </trkpt>
      <trkpt lat="45.88781" lon="5.68992">
        <ele>368.8</ele>
        <time>2023-05-07T13:15:36Z</time>
      </trkpt>
      <trkpt lat="45.88807" lon="5.69009">
        <ele>367.84</ele>
        <time>2023-05-07T13:15:51Z</time>
      </trkpt>
      <trkpt lat="45.88833" lon="5.69047">
        <ele>367.36</ele>
        <time>2023-05-07T13:16:08Z</time>
      </trkpt>
      <trkpt lat="45.88856" lon="5.69081">
        <ele>366.4</ele>
        <time>2023-05-07T13:16:25Z</time>
      </trkpt>
      <trkpt lat="45.88879" lon="5.69116">
        <ele>363.04</ele>
        <time>2023-05-07T13:16:41Z</time>
      </trkpt>
      <trkpt lat="45.889" lon="5.69149">
        <ele>364.96</ele>
        <time>2023-05-07T13:16:59Z</time>
      </trkpt>
      <trkpt lat="45.88926" lon="5.69183">
        <ele>373.13</ele>
        <time>2023-05-07T13:17:19Z</time>
      </trkpt>
      <trkpt lat="45.8895" lon="5.69206">
        <ele>378.9</ele>
        <time>2023-05-07T13:17:36Z</time>
      </trkpt>
      <trkpt lat="45.88963" lon="5.69216">
        <ele>384.18</ele>
        <time>2023-05-07T13:17:53Z</time>
      </trkpt>
      <trkpt lat="45.88965" lon="5.69224">
        <ele>386.11</ele>
        <time>2023-05-07T13:18:13Z</time>
      </trkpt>
      <trkpt lat="45.8897" lon="5.69222">
        <ele>389.95</ele>
        <time>2023-05-07T13:18:38Z</time>
      </trkpt>
      <trkpt lat="45.88992" lon="5.69231">
        <ele>392.36</ele>
        <time>2023-05-07T13:18:56Z</time>
      </trkpt>
      <trkpt lat="45.89014" lon="5.69251">
        <ele>394.28</ele>
        <time>2023-05-07T13:19:10Z</time>
      </trkpt>
      <trkpt lat="45.8903" lon="5.69261">
        <ele>397.16</ele>
        <time>2023-05-07T13:19:24Z</time>
      </trkpt>
      <trkpt lat="45.89034" lon="5.69265">
        <ele>397.64</ele>
        <time>2023-05-07T13:19:42Z</time>
      </trkpt>
      <trkpt lat="45.89033" lon="5.69271">
        <ele>395.72</ele>
        <time>2023-05-07T13:20:03Z</time>
      </trkpt>
      <trkpt lat="45.89033" lon="5.6927">
        <ele>398.12</ele>
        <time>2023-05-07T13:20:29Z</time>
      </trkpt>
      <trkpt lat="45.89038" lon="5.69272">
        <ele>401.49</ele>
        <time>2023-05-07T13:20:54Z</time>
      </trkpt>
      <trkpt lat="45.89039" lon="5.69276">
        <ele>398.12</ele>
        <time>2023-05-07T13:21:32Z</time>
      </trkpt>
      <trkpt lat="45.89041" lon="5.69272">
        <ele>396.2</ele>
        <time>2023-05-07T13:21:56Z</time>
      </trkpt>
      <trkpt lat="45.8905" lon="5.69272">
        <ele>400.05</ele>
        <time>2023-05-07T13:22:05Z</time>
      </trkpt>
      <trkpt lat="45.89052" lon="5.69272">
        <ele>400.05</ele>
        <time>2023-05-07T13:22:06Z</time>
      </trkpt>
      <trkpt lat="45.89053" lon="5.69273">
        <ele>400.05</ele>
        <time>2023-05-07T13:22:07Z</time>
      </trkpt>
      <trkpt lat="45.89073" lon="5.69279">
        <ele>401.97</ele>
        <time>2023-05-07T13:22:21Z</time>
      </trkpt>
      <trkpt lat="45.89078" lon="5.69278">
        <ele>401.49</ele>
        <time>2023-05-07T13:22:25Z</time>
      </trkpt>
      <trkpt lat="45.89079" lon="5.69279">
        <ele>401.49</ele>
        <time>2023-05-07T13:22:26Z</time>
      </trkpt>
      <trkpt lat="45.89088" lon="5.69286">
        <ele>400.05</ele>
        <time>2023-05-07T13:22:38Z</time>
      </trkpt>
      <trkpt lat="45.89098" lon="5.69294">
        <ele>398.6</ele>
        <time>2023-05-07T13:22:51Z</time>
      </trkpt>
      <trkpt lat="45.89113" lon="5.69305">
        <ele>398.6</ele>
        <time>2023-05-07T13:23:06Z</time>
      </trkpt>
      <trkpt lat="45.89113" lon="5.69311">
        <ele>394.76</ele>
        <time>2023-05-07T13:23:23Z</time>
      </trkpt>
      <trkpt lat="45.89112" lon="5.69308">
        <ele>393.32</ele>
        <time>2023-05-07T13:23:38Z</time>
      </trkpt>
      <trkpt lat="45.89113" lon="5.69309">
        <ele>392.84</ele>
        <time>2023-05-07T13:23:55Z</time>
      </trkpt>
      <trkpt lat="45.89112" lon="5.69312">
        <ele>391.87</ele>
        <time>2023-05-07T13:24:06Z</time>
      </trkpt>
      <trkpt lat="45.89115" lon="5.6931">
        <ele>393.8</ele>
        <time>2023-05-07T13:24:13Z</time>
      </trkpt>
      <trkpt lat="45.89116" lon="5.69311">
        <ele>394.28</ele>
        <time>2023-05-07T13:24:14Z</time>
      </trkpt>
      <trkpt lat="45.89136" lon="5.69319">
        <ele>396.68</ele>
        <time>2023-05-07T13:24:30Z</time>
      </trkpt>
      <trkpt lat="45.89158" lon="5.69331">
        <ele>395.72</ele>
        <time>2023-05-07T13:24:48Z</time>
      </trkpt>
      <trkpt lat="45.89174" lon="5.69339">
        <ele>396.2</ele>
        <time>2023-05-07T13:25:02Z</time>
      </trkpt>
      <trkpt lat="45.89178" lon="5.69342">
        <ele>397.16</ele>
        <time>2023-05-07T13:25:06Z</time>
      </trkpt>
      <trkpt lat="45.8918" lon="5.69342">
        <ele>397.16</ele>
        <time>2023-05-07T13:25:07Z</time>
      </trkpt>
      <trkpt lat="45.89181" lon="5.69343">
        <ele>397.16</ele>
        <time>2023-05-07T13:25:08Z</time>
      </trkpt>
      <trkpt lat="45.89182" lon="5.69344">
        <ele>397.16</ele>
        <time>2023-05-07T13:25:09Z</time>
      </trkpt>
      <trkpt lat="45.89183" lon="5.69344">
        <ele>397.16</ele>
        <time>2023-05-07T13:25:10Z</time>
      </trkpt>
      <trkpt lat="45.89199" lon="5.69355">
        <ele>400.05</ele>
        <time>2023-05-07T13:25:23Z</time>
      </trkpt>
      <trkpt lat="45.892" lon="5.69356">
        <ele>400.05</ele>
        <time>2023-05-07T13:25:24Z</time>
      </trkpt>
      <trkpt lat="45.89201" lon="5.69358">
        <ele>400.05</ele>
        <time>2023-05-07T13:25:25Z</time>
      </trkpt>
      <trkpt lat="45.89203" lon="5.69358">
        <ele>400.05</ele>
        <time>2023-05-07T13:25:26Z</time>
      </trkpt>
      <trkpt lat="45.89204" lon="5.69359">
        <ele>400.05</ele>
        <time>2023-05-07T13:25:27Z</time>
      </trkpt>
      <trkpt lat="45.8922" lon="5.69368">
        <ele>401.01</ele>
        <time>2023-05-07T13:25:40Z</time>
      </trkpt>
      <trkpt lat="45.89237" lon="5.69378">
        <ele>401.49</ele>
        <time>2023-05-07T13:25:54Z</time>
      </trkpt>
      <trkpt lat="45.89238" lon="5.69378">
        <ele>401.97</ele>
        <time>2023-05-07T13:25:55Z</time>
      </trkpt>
      <trkpt lat="45.8924" lon="5.69378">
        <ele>401.97</ele>
        <time>2023-05-07T13:25:56Z</time>
      </trkpt>
      <trkpt lat="45.89241" lon="5.69379">
        <ele>402.45</ele>
        <time>2023-05-07T13:25:57Z</time>
      </trkpt>
      <trkpt lat="45.89242" lon="5.69379">
        <ele>402.45</ele>
        <time>2023-05-07T13:25:58Z</time>
      </trkpt>
      <trkpt lat="45.89258" lon="5.6939">
        <ele>404.37</ele>
        <time>2023-05-07T13:26:13Z</time>
      </trkpt>
      <trkpt lat="45.89275" lon="5.69398">
        <ele>407.74</ele>
        <time>2023-05-07T13:26:29Z</time>
      </trkpt>
      <trkpt lat="45.89282" lon="5.69404">
        <ele>406.77</ele>
        <time>2023-05-07T13:26:47Z</time>
      </trkpt>
      <trkpt lat="45.89282" lon="5.6941">
        <ele>405.33</ele>
        <time>2023-05-07T13:27:05Z</time>
      </trkpt>
      <trkpt lat="45.89286" lon="5.69418">
        <ele>400.53</ele>
        <time>2023-05-07T13:27:34Z</time>
      </trkpt>
      <trkpt lat="45.89284" lon="5.69421">
        <ele>396.68</ele>
        <time>2023-05-07T13:28:01Z</time>
      </trkpt>
      <trkpt lat="45.89285" lon="5.69419">
        <ele>396.2</ele>
        <time>2023-05-07T13:28:12Z</time>
      </trkpt>
      <trkpt lat="45.89286" lon="5.69415">
        <ele>395.72</ele>
        <time>2023-05-07T13:28:32Z</time>
      </trkpt>
      <trkpt lat="45.89286" lon="5.69409">
        <ele>397.64</ele>
        <time>2023-05-07T13:28:58Z</time>
      </trkpt>
      <trkpt lat="45.89292" lon="5.69421">
        <ele>397.16</ele>
        <time>2023-05-07T13:29:20Z</time>
      </trkpt>
      <trkpt lat="45.89291" lon="5.69424">
        <ele>397.64</ele>
        <time>2023-05-07T13:29:35Z</time>
      </trkpt>
      <trkpt lat="45.89288" lon="5.69426">
        <ele>398.12</ele>
        <time>2023-05-07T13:29:45Z</time>
      </trkpt>
      <trkpt lat="45.89287" lon="5.69427">
        <ele>396.2</ele>
        <time>2023-05-07T13:29:59Z</time>
      </trkpt>
      <trkpt lat="45.89288" lon="5.69425">
        <ele>395.72</ele>
        <time>2023-05-07T13:30:02Z</time>
      </trkpt>
      <trkpt lat="45.8929" lon="5.69422">
        <ele>395.24</ele>
        <time>2023-05-07T13:30:06Z</time>
      </trkpt>
      <trkpt lat="45.89288" lon="5.69419">
        <ele>394.28</ele>
        <time>2023-05-07T13:30:10Z</time>
      </trkpt>
      <trkpt lat="45.89286" lon="5.69418">
        <ele>394.76</ele>
        <time>2023-05-07T13:30:11Z</time>
      </trkpt>
      <trkpt lat="45.89283" lon="5.69418">
        <ele>393.32</ele>
        <time>2023-05-07T13:30:22Z</time>
      </trkpt>
      <trkpt lat="45.89284" lon="5.6942">
        <ele>392.84</ele>
        <time>2023-05-07T13:30:39Z</time>
      </trkpt>
      <trkpt lat="45.89285" lon="5.69421">
        <ele>394.76</ele>
        <time>2023-05-07T13:30:54Z</time>
      </trkpt>
      <trkpt lat="45.89285" lon="5.69421">
        <ele>395.24</ele>
        <time>2023-05-07T13:31:09Z</time>
      </trkpt>
      <trkpt lat="45.8929" lon="5.69424">
        <ele>394.28</ele>
        <time>2023-05-07T13:31:24Z</time>
      </trkpt>
      <trkpt lat="45.89291" lon="5.69424">
        <ele>393.32</ele>
        <time>2023-05-07T13:31:37Z</time>
      </trkpt>
      <trkpt lat="45.89292" lon="5.69422">
        <ele>393.32</ele>
        <time>2023-05-07T13:31:57Z</time>
      </trkpt>
      <trkpt lat="45.89294" lon="5.69422">
        <ele>390.91</ele>
        <time>2023-05-07T13:32:15Z</time>
      </trkpt>
      <trkpt lat="45.89298" lon="5.69426">
        <ele>389.95</ele>
        <time>2023-05-07T13:32:36Z</time>
      </trkpt>
      <trkpt lat="45.893" lon="5.69427">
        <ele>390.43</ele>
        <time>2023-05-07T13:32:37Z</time>
      </trkpt>
      <trkpt lat="45.89301" lon="5.69428">
        <ele>390.91</ele>
        <time>2023-05-07T13:32:38Z</time>
      </trkpt>
      <trkpt lat="45.89318" lon="5.69428">
        <ele>390.91</ele>
        <time>2023-05-07T13:32:55Z</time>
      </trkpt>
      <trkpt lat="45.89338" lon="5.69437">
        <ele>388.03</ele>
        <time>2023-05-07T13:33:12Z</time>
      </trkpt>
      <trkpt lat="45.89353" lon="5.69447">
        <ele>386.11</ele>
        <time>2023-05-07T13:33:27Z</time>
      </trkpt>
      <trkpt lat="45.89354" lon="5.69448">
        <ele>386.11</ele>
        <time>2023-05-07T13:33:28Z</time>
      </trkpt>
      <trkpt lat="45.89372" lon="5.69457">
        <ele>385.63</ele>
        <time>2023-05-07T13:33:45Z</time>
      </trkpt>
      <trkpt lat="45.89386" lon="5.69468">
        <ele>382.26</ele>
        <time>2023-05-07T13:34:00Z</time>
      </trkpt>
      <trkpt lat="45.8939" lon="5.69474">
        <ele>378.42</ele>
        <time>2023-05-07T13:34:19Z</time>
      </trkpt>
      <trkpt lat="45.89386" lon="5.69477">
        <ele>378.9</ele>
        <time>2023-05-07T13:34:44Z</time>
      </trkpt>
      <trkpt lat="45.89386" lon="5.69477">
        <ele>377.45</ele>
        <time>2023-05-07T13:35:19Z</time>
      </trkpt>
      <trkpt lat="45.89383" lon="5.69482">
        <ele>381.78</ele>
        <time>2023-05-07T13:35:45Z</time>
      </trkpt>
      <trkpt lat="45.89389" lon="5.69483">
        <ele>383.22</ele>
        <time>2023-05-07T13:36:05Z</time>
      </trkpt>
      <trkpt lat="45.89392" lon="5.69488">
        <ele>384.66</ele>
        <time>2023-05-07T13:36:23Z</time>
      </trkpt>
      <trkpt lat="45.89399" lon="5.69496">
        <ele>384.18</ele>
        <time>2023-05-07T13:36:41Z</time>
      </trkpt>
      <trkpt lat="45.89399" lon="5.69505">
        <ele>385.15</ele>
        <time>2023-05-07T13:36:55Z</time>
      </trkpt>
      <trkpt lat="45.89408" lon="5.69524">
        <ele>386.11</ele>
        <time>2023-05-07T13:37:08Z</time>
      </trkpt>
      <trkpt lat="45.89411" lon="5.69539">
        <ele>384.66</ele>
        <time>2023-05-07T13:37:17Z</time>
      </trkpt>
      <trkpt lat="45.89417" lon="5.69564">
        <ele>385.63</ele>
        <time>2023-05-07T13:37:32Z</time>
      </trkpt>
      <trkpt lat="45.89425" lon="5.69581">
        <ele>383.7</ele>
        <time>2023-05-07T13:37:46Z</time>
      </trkpt>
      <trkpt lat="45.89425" lon="5.69583">
        <ele>384.18</ele>
        <time>2023-05-07T13:37:47Z</time>
      </trkpt>
      <trkpt lat="45.89425" lon="5.69586">
        <ele>384.18</ele>
        <time>2023-05-07T13:37:48Z</time>
      </trkpt>
      <trkpt lat="45.89425" lon="5.69587">
        <ele>384.66</ele>
        <time>2023-05-07T13:37:49Z</time>
      </trkpt>
      <trkpt lat="45.89427" lon="5.69597">
        <ele>385.15</ele>
        <time>2023-05-07T13:37:55Z</time>
      </trkpt>
      <trkpt lat="45.89427" lon="5.69611">
        <ele>387.55</ele>
        <time>2023-05-07T13:38:02Z</time>
      </trkpt>
      <trkpt lat="45.89433" lon="5.69625">
        <ele>389.95</ele>
        <time>2023-05-07T13:38:13Z</time>
      </trkpt>
      <trkpt lat="45.89432" lon="5.69638">
        <ele>391.87</ele>
        <time>2023-05-07T13:38:25Z</time>
      </trkpt>
      <trkpt lat="45.89429" lon="5.69644">
        <ele>391.39</ele>
        <time>2023-05-07T13:38:45Z</time>
      </trkpt>
      <trkpt lat="45.8943" lon="5.69647">
        <ele>391.87</ele>
        <time>2023-05-07T13:39:04Z</time>
      </trkpt>
      <trkpt lat="45.8943" lon="5.69642">
        <ele>389.95</ele>
        <time>2023-05-07T13:39:24Z</time>
      </trkpt>
      <trkpt lat="45.89431" lon="5.69644">
        <ele>390.43</ele>
        <time>2023-05-07T13:39:55Z</time>
      </trkpt>
      <trkpt lat="45.89432" lon="5.6965">
        <ele>391.87</ele>
        <time>2023-05-07T13:40:18Z</time>
      </trkpt>
      <trkpt lat="45.89431" lon="5.69664">
        <ele>391.39</ele>
        <time>2023-05-07T13:40:38Z</time>
      </trkpt>
      <trkpt lat="45.89438" lon="5.69683">
        <ele>394.28</ele>
        <time>2023-05-07T13:40:56Z</time>
      </trkpt>
      <trkpt lat="45.89459" lon="5.69703">
        <ele>397.16</ele>
        <time>2023-05-07T13:41:17Z</time>
      </trkpt>
      <trkpt lat="45.89479" lon="5.69719">
        <ele>401.01</ele>
        <time>2023-05-07T13:41:35Z</time>
      </trkpt>
      <trkpt lat="45.89505" lon="5.69759">
        <ele>403.41</ele>
        <time>2023-05-07T13:41:56Z</time>
      </trkpt>
      <trkpt lat="45.89525" lon="5.69804">
        <ele>398.12</ele>
        <time>2023-05-07T13:42:16Z</time>
      </trkpt>
      <trkpt lat="45.89544" lon="5.69823">
        <ele>402.45</ele>
        <time>2023-05-07T13:42:41Z</time>
      </trkpt>
      <trkpt lat="45.89576" lon="5.69864">
        <ele>410.14</ele>
        <time>2023-05-07T13:43:06Z</time>
      </trkpt>
      <trkpt lat="45.89612" lon="5.6986">
        <ele>419.27</ele>
        <time>2023-05-07T13:43:27Z</time>
      </trkpt>
      <trkpt lat="45.89619" lon="5.69863">
        <ele>419.75</ele>
        <time>2023-05-07T13:43:31Z</time>
      </trkpt>
      <trkpt lat="45.89651" lon="5.69882">
        <ele>424.56</ele>
        <time>2023-05-07T13:43:54Z</time>
      </trkpt>
      <trkpt lat="45.89671" lon="5.69875">
        <ele>425.04</ele>
        <time>2023-05-07T13:44:04Z</time>
      </trkpt>
      <trkpt lat="45.89673" lon="5.69874">
        <ele>425.04</ele>
        <time>2023-05-07T13:44:05Z</time>
      </trkpt>
      <trkpt lat="45.8969" lon="5.69876">
        <ele>429.37</ele>
        <time>2023-05-07T13:44:15Z</time>
      </trkpt>
      <trkpt lat="45.89692" lon="5.69877">
        <ele>429.85</ele>
        <time>2023-05-07T13:44:16Z</time>
      </trkpt>
      <trkpt lat="45.89724" lon="5.69893">
        <ele>436.58</ele>
        <time>2023-05-07T13:44:35Z</time>
      </trkpt>
      <trkpt lat="45.89753" lon="5.69901">
        <ele>430.33</ele>
        <time>2023-05-07T13:44:56Z</time>
      </trkpt>
      <trkpt lat="45.89784" lon="5.69904">
        <ele>429.85</ele>
        <time>2023-05-07T13:45:15Z</time>
      </trkpt>
      <trkpt lat="45.89785" lon="5.69902">
        <ele>429.85</ele>
        <time>2023-05-07T13:45:16Z</time>
      </trkpt>
      <trkpt lat="45.89811" lon="5.69894">
        <ele>433.69</ele>
        <time>2023-05-07T13:45:36Z</time>
      </trkpt>
      <trkpt lat="45.89852" lon="5.69919">
        <ele>437.54</ele>
        <time>2023-05-07T13:45:56Z</time>
      </trkpt>
      <trkpt lat="45.89879" lon="5.69934">
        <ele>437.54</ele>
        <time>2023-05-07T13:46:13Z</time>
      </trkpt>
      <trkpt lat="45.89914" lon="5.69954">
        <ele>434.65</ele>
        <time>2023-05-07T13:46:34Z</time>
      </trkpt>
      <trkpt lat="45.89943" lon="5.69963">
        <ele>437.06</ele>
        <time>2023-05-07T13:46:53Z</time>
      </trkpt>
      <trkpt lat="45.89974" lon="5.69981">
        <ele>437.54</ele>
        <time>2023-05-07T13:47:13Z</time>
      </trkpt>
      <trkpt lat="45.90006" lon="5.7001">
        <ele>439.94</ele>
        <time>2023-05-07T13:47:36Z</time>
      </trkpt>
      <trkpt lat="45.90023" lon="5.70033">
        <ele>436.58</ele>
        <time>2023-05-07T13:47:46Z</time>
      </trkpt>
      <trkpt lat="45.90033" lon="5.70048">
        <ele>435.61</ele>
        <time>2023-05-07T13:47:52Z</time>
      </trkpt>
      <trkpt lat="45.90055" lon="5.70053">
        <ele>443.31</ele>
        <time>2023-05-07T13:48:14Z</time>
      </trkpt>
      <trkpt lat="45.90061" lon="5.70049">
        <ele>445.71</ele>
        <time>2023-05-07T13:48:19Z</time>
      </trkpt>
      <trkpt lat="45.90097" lon="5.70025">
        <ele>448.11</ele>
        <time>2023-05-07T13:48:42Z</time>
      </trkpt>
      <trkpt lat="45.90126" lon="5.70041">
        <ele>442.34</ele>
        <time>2023-05-07T13:49:01Z</time>
      </trkpt>
      <trkpt lat="45.90153" lon="5.70039">
        <ele>438.02</ele>
        <time>2023-05-07T13:49:21Z</time>
      </trkpt>
      <trkpt lat="45.90182" lon="5.70056">
        <ele>439.94</ele>
        <time>2023-05-07T13:49:39Z</time>
      </trkpt>
      <trkpt lat="45.90217" lon="5.70039">
        <ele>443.31</ele>
        <time>2023-05-07T13:49:58Z</time>
      </trkpt>
      <trkpt lat="45.90251" lon="5.70039">
        <ele>448.59</ele>
        <time>2023-05-07T13:50:18Z</time>
      </trkpt>
      <trkpt lat="45.90288" lon="5.7005">
        <ele>448.59</ele>
        <time>2023-05-07T13:50:40Z</time>
      </trkpt>
      <trkpt lat="45.90306" lon="5.70047">
        <ele>451.48</ele>
        <time>2023-05-07T13:50:54Z</time>
      </trkpt>
      <trkpt lat="45.90342" lon="5.70068">
        <ele>455.32</ele>
        <time>2023-05-07T13:51:15Z</time>
      </trkpt>
      <trkpt lat="45.90383" lon="5.70078">
        <ele>453.4</ele>
        <time>2023-05-07T13:51:38Z</time>
      </trkpt>
      <trkpt lat="45.90412" lon="5.70077">
        <ele>456.28</ele>
        <time>2023-05-07T13:51:59Z</time>
      </trkpt>
      <trkpt lat="45.90444" lon="5.70068">
        <ele>458.69</ele>
        <time>2023-05-07T13:52:22Z</time>
      </trkpt>
      <trkpt lat="45.90484" lon="5.70069">
        <ele>466.38</ele>
        <time>2023-05-07T13:52:43Z</time>
      </trkpt>
      <trkpt lat="45.90498" lon="5.70068">
        <ele>474.55</ele>
        <time>2023-05-07T13:53:04Z</time>
      </trkpt>
      <trkpt lat="45.90538" lon="5.7006">
        <ele>469.74</ele>
        <time>2023-05-07T13:53:29Z</time>
      </trkpt>
      <trkpt lat="45.90565" lon="5.70056">
        <ele>465.9</ele>
        <time>2023-05-07T13:53:46Z</time>
      </trkpt>
      <trkpt lat="45.90586" lon="5.70039">
        <ele>472.14</ele>
        <time>2023-05-07T13:54:05Z</time>
      </trkpt>
      <trkpt lat="45.90598" lon="5.7005">
        <ele>481.76</ele>
        <time>2023-05-07T13:54:29Z</time>
      </trkpt>
      <trkpt lat="45.90598" lon="5.70049">
        <ele>482.72</ele>
        <time>2023-05-07T13:54:45Z</time>
      </trkpt>
      <trkpt lat="45.90595" lon="5.70022">
        <ele>480.32</ele>
        <time>2023-05-07T13:54:56Z</time>
      </trkpt>
      <trkpt lat="45.90597" lon="5.69984">
        <ele>482.72</ele>
        <time>2023-05-07T13:55:08Z</time>
      </trkpt>
      <trkpt lat="45.9059" lon="5.69949">
        <ele>483.2</ele>
        <time>2023-05-07T13:55:24Z</time>
      </trkpt>
      <trkpt lat="45.9059" lon="5.69938">
        <ele>482.24</ele>
        <time>2023-05-07T13:55:39Z</time>
      </trkpt>
      <trkpt lat="45.90591" lon="5.69933">
        <ele>483.2</ele>
        <time>2023-05-07T13:55:57Z</time>
      </trkpt>
      <trkpt lat="45.90591" lon="5.69928">
        <ele>482.72</ele>
        <time>2023-05-07T13:56:14Z</time>
      </trkpt>
      <trkpt lat="45.90592" lon="5.69929">
        <ele>482.24</ele>
        <time>2023-05-07T13:56:32Z</time>
      </trkpt>
      <trkpt lat="45.90591" lon="5.69927">
        <ele>482.24</ele>
        <time>2023-05-07T13:56:43Z</time>
      </trkpt>
      <trkpt lat="45.90592" lon="5.69967">
        <ele>479.35</ele>
        <time>2023-05-07T13:57:05Z</time>
      </trkpt>
      <trkpt lat="45.90601" lon="5.69996">
        <ele>477.43</ele>
        <time>2023-05-07T13:57:25Z</time>
      </trkpt>
      <trkpt lat="45.90603" lon="5.70019">
        <ele>476.47</ele>
        <time>2023-05-07T13:57:35Z</time>
      </trkpt>
      <trkpt lat="45.90613" lon="5.70055">
        <ele>473.59</ele>
        <time>2023-05-07T13:57:55Z</time>
      </trkpt>
      <trkpt lat="45.90627" lon="5.70075">
        <ele>467.34</ele>
        <time>2023-05-07T13:58:10Z</time>
      </trkpt>
      <trkpt lat="45.90642" lon="5.70086">
        <ele>462.53</ele>
        <time>2023-05-07T13:58:24Z</time>
      </trkpt>
      <trkpt lat="45.90662" lon="5.70099">
        <ele>457.24</ele>
        <time>2023-05-07T13:58:40Z</time>
      </trkpt>
      <trkpt lat="45.90676" lon="5.70108">
        <ele>449.07</ele>
        <time>2023-05-07T13:58:56Z</time>
      </trkpt>
      <trkpt lat="45.90687" lon="5.70117">
        <ele>448.11</ele>
        <time>2023-05-07T13:59:10Z</time>
      </trkpt>
      <trkpt lat="45.90709" lon="5.70153">
        <ele>442.34</ele>
        <time>2023-05-07T13:59:33Z</time>
      </trkpt>
      <trkpt lat="45.90724" lon="5.70183">
        <ele>440.42</ele>
        <time>2023-05-07T13:59:54Z</time>
      </trkpt>
      <trkpt lat="45.9073" lon="5.70227">
        <ele>438.98</ele>
        <time>2023-05-07T14:00:18Z</time>
      </trkpt>
      <trkpt lat="45.90705" lon="5.70255">
        <ele>432.25</ele>
        <time>2023-05-07T14:00:41Z</time>
      </trkpt>
      <trkpt lat="45.90691" lon="5.70298">
        <ele>426.48</ele>
        <time>2023-05-07T14:01:06Z</time>
      </trkpt>
      <trkpt lat="45.90693" lon="5.70325">
        <ele>418.79</ele>
        <time>2023-05-07T14:01:23Z</time>
      </trkpt>
      <trkpt lat="45.90684" lon="5.70337">
        <ele>418.31</ele>
        <time>2023-05-07T14:01:33Z</time>
      </trkpt>
      <trkpt lat="45.90671" lon="5.70347">
        <ele>420.71</ele>
        <time>2023-05-07T14:01:40Z</time>
      </trkpt>
      <trkpt lat="45.90649" lon="5.70364">
        <ele>434.17</ele>
        <time>2023-05-07T14:02:00Z</time>
      </trkpt>
      <trkpt lat="45.90644" lon="5.70368">
        <ele>435.61</ele>
        <time>2023-05-07T14:02:03Z</time>
      </trkpt>
      <trkpt lat="45.90581" lon="5.70356">
        <ele>441.86</ele>
        <time>2023-05-07T14:02:37Z</time>
      </trkpt>
      <trkpt lat="45.90573" lon="5.70356">
        <ele>445.23</ele>
        <time>2023-05-07T14:02:44Z</time>
      </trkpt>
      <trkpt lat="45.90536" lon="5.70367">
        <ele>458.69</ele>
        <time>2023-05-07T14:03:04Z</time>
      </trkpt>
      <trkpt lat="45.90515" lon="5.70364">
        <ele>466.86</ele>
        <time>2023-05-07T14:03:16Z</time>
      </trkpt>
      <trkpt lat="45.90521" lon="5.70374">
        <ele>469.26</ele>
        <time>2023-05-07T14:03:25Z</time>
      </trkpt>
      <trkpt lat="45.90522" lon="5.7038">
        <ele>472.14</ele>
        <time>2023-05-07T14:03:29Z</time>
      </trkpt>
      <trkpt lat="45.90523" lon="5.70399">
        <ele>475.51</ele>
        <time>2023-05-07T14:03:39Z</time>
      </trkpt>
      <trkpt lat="45.90494" lon="5.7042">
        <ele>480.32</ele>
        <time>2023-05-07T14:03:57Z</time>
      </trkpt>
      <trkpt lat="45.90455" lon="5.70426">
        <ele>480.32</ele>
        <time>2023-05-07T14:04:14Z</time>
      </trkpt>
      <trkpt lat="45.90427" lon="5.70422">
        <ele>484.16</ele>
        <time>2023-05-07T14:04:31Z</time>
      </trkpt>
      <trkpt lat="45.90414" lon="5.70425">
        <ele>488.49</ele>
        <time>2023-05-07T14:04:42Z</time>
      </trkpt>
      <trkpt lat="45.90413" lon="5.70453">
        <ele>484.16</ele>
        <time>2023-05-07T14:05:00Z</time>
      </trkpt>
      <trkpt lat="45.90404" lon="5.70495">
        <ele>485.6</ele>
        <time>2023-05-07T14:05:19Z</time>
      </trkpt>
      <trkpt lat="45.90392" lon="5.70526">
        <ele>492.81</ele>
        <time>2023-05-07T14:05:36Z</time>
      </trkpt>
      <trkpt lat="45.9037" lon="5.70556">
        <ele>492.81</ele>
        <time>2023-05-07T14:05:53Z</time>
      </trkpt>
      <trkpt lat="45.90368" lon="5.70558">
        <ele>491.37</ele>
        <time>2023-05-07T14:06:07Z</time>
      </trkpt>
      <trkpt lat="45.90368" lon="5.70557">
        <ele>490.89</ele>
        <time>2023-05-07T14:06:26Z</time>
      </trkpt>
      <trkpt lat="45.90367" lon="5.70557">
        <ele>489.45</ele>
        <time>2023-05-07T14:06:44Z</time>
      </trkpt>
      <trkpt lat="45.90368" lon="5.70558">
        <ele>488.49</ele>
        <time>2023-05-07T14:07:07Z</time>
      </trkpt>
      <trkpt lat="45.90368" lon="5.70555">
        <ele>487.05</ele>
        <time>2023-05-07T14:07:19Z</time>
      </trkpt>
      <trkpt lat="45.90393" lon="5.7053">
        <ele>488.01</ele>
        <time>2023-05-07T14:07:40Z</time>
      </trkpt>
      <trkpt lat="45.90406" lon="5.70531">
        <ele>489.45</ele>
        <time>2023-05-07T14:07:56Z</time>
      </trkpt>
      <trkpt lat="45.90407" lon="5.70532">
        <ele>490.89</ele>
        <time>2023-05-07T14:08:31Z</time>
      </trkpt>
      <trkpt lat="45.90407" lon="5.70534">
        <ele>491.37</ele>
        <time>2023-05-07T14:08:59Z</time>
      </trkpt>
      <trkpt lat="45.90415" lon="5.70532">
        <ele>488.49</ele>
        <time>2023-05-07T14:09:37Z</time>
      </trkpt>
      <trkpt lat="45.90406" lon="5.70537">
        <ele>486.08</ele>
        <time>2023-05-07T14:09:58Z</time>
      </trkpt>
      <trkpt lat="45.90406" lon="5.70536">
        <ele>482.24</ele>
        <time>2023-05-07T14:10:21Z</time>
      </trkpt>
      <trkpt lat="45.90406" lon="5.70537">
        <ele>482.72</ele>
        <time>2023-05-07T14:10:51Z</time>
      </trkpt>
      <trkpt lat="45.90404" lon="5.70539">
        <ele>483.68</ele>
        <time>2023-05-07T14:11:18Z</time>
      </trkpt>
      <trkpt lat="45.90405" lon="5.70537">
        <ele>485.6</ele>
        <time>2023-05-07T14:11:49Z</time>
      </trkpt>
      <trkpt lat="45.90406" lon="5.70536">
        <ele>487.05</ele>
        <time>2023-05-07T14:12:18Z</time>
      </trkpt>
      <trkpt lat="45.90403" lon="5.70538">
        <ele>487.05</ele>
        <time>2023-05-07T14:12:46Z</time>
      </trkpt>
      <trkpt lat="45.90405" lon="5.70536">
        <ele>483.68</ele>
        <time>2023-05-07T14:13:08Z</time>
      </trkpt>
      <trkpt lat="45.90402" lon="5.70539">
        <ele>484.64</ele>
        <time>2023-05-07T14:13:36Z</time>
      </trkpt>
      <trkpt lat="45.90404" lon="5.70534">
        <ele>484.16</ele>
        <time>2023-05-07T14:13:59Z</time>
      </trkpt>
      <trkpt lat="45.90397" lon="5.70532">
        <ele>482.72</ele>
        <time>2023-05-07T14:14:16Z</time>
      </trkpt>
      <trkpt lat="45.90375" lon="5.70548">
        <ele>486.56</ele>
        <time>2023-05-07T14:14:36Z</time>
      </trkpt>
      <trkpt lat="45.90355" lon="5.70584">
        <ele>491.85</ele>
        <time>2023-05-07T14:14:57Z</time>
      </trkpt>
      <trkpt lat="45.90341" lon="5.70616">
        <ele>493.77</ele>
        <time>2023-05-07T14:15:12Z</time>
      </trkpt>
      <trkpt lat="45.90336" lon="5.70652">
        <ele>496.18</ele>
        <time>2023-05-07T14:15:28Z</time>
      </trkpt>
      <trkpt lat="45.90328" lon="5.70685">
        <ele>498.58</ele>
        <time>2023-05-07T14:15:43Z</time>
      </trkpt>
      <trkpt lat="45.90317" lon="5.70727">
        <ele>500.98</ele>
        <time>2023-05-07T14:16:02Z</time>
      </trkpt>
      <trkpt lat="45.90301" lon="5.70762">
        <ele>502.91</ele>
        <time>2023-05-07T14:16:20Z</time>
      </trkpt>
      <trkpt lat="45.90285" lon="5.70799">
        <ele>506.27</ele>
        <time>2023-05-07T14:16:39Z</time>
      </trkpt>
      <trkpt lat="45.90253" lon="5.70824">
        <ele>512.04</ele>
        <time>2023-05-07T14:16:59Z</time>
      </trkpt>
      <trkpt lat="45.90228" lon="5.70848">
        <ele>517.33</ele>
        <time>2023-05-07T14:17:16Z</time>
      </trkpt>
      <trkpt lat="45.90203" lon="5.70864">
        <ele>521.17</ele>
        <time>2023-05-07T14:17:33Z</time>
      </trkpt>
      <trkpt lat="45.90176" lon="5.70874">
        <ele>522.61</ele>
        <time>2023-05-07T14:17:51Z</time>
      </trkpt>
      <trkpt lat="45.90155" lon="5.70902">
        <ele>523.09</ele>
        <time>2023-05-07T14:18:09Z</time>
      </trkpt>
      <trkpt lat="45.90138" lon="5.70919">
        <ele>524.06</ele>
        <time>2023-05-07T14:18:22Z</time>
      </trkpt>
      <trkpt lat="45.90112" lon="5.70934">
        <ele>524.06</ele>
        <time>2023-05-07T14:18:41Z</time>
      </trkpt>
      <trkpt lat="45.90088" lon="5.70956">
        <ele>527.42</ele>
        <time>2023-05-07T14:19:01Z</time>
      </trkpt>
      <trkpt lat="45.90063" lon="5.70972">
        <ele>531.75</ele>
        <time>2023-05-07T14:19:20Z</time>
      </trkpt>
      <trkpt lat="45.90027" lon="5.70998">
        <ele>537.99</ele>
        <time>2023-05-07T14:19:39Z</time>
      </trkpt>
      <trkpt lat="45.90006" lon="5.71024">
        <ele>539.92</ele>
        <time>2023-05-07T14:19:58Z</time>
      </trkpt>
      <trkpt lat="45.90002" lon="5.71034">
        <ele>539.92</ele>
        <time>2023-05-07T14:20:03Z</time>
      </trkpt>
      <trkpt lat="45.8999" lon="5.71067">
        <ele>540.4</ele>
        <time>2023-05-07T14:20:20Z</time>
      </trkpt>
      <trkpt lat="45.89988" lon="5.71069">
        <ele>540.4</ele>
        <time>2023-05-07T14:20:21Z</time>
      </trkpt>
      <trkpt lat="45.89967" lon="5.71116">
        <ele>540.88</ele>
        <time>2023-05-07T14:20:42Z</time>
      </trkpt>
      <trkpt lat="45.89971" lon="5.71142">
        <ele>538.96</ele>
        <time>2023-05-07T14:20:57Z</time>
      </trkpt>
      <trkpt lat="45.89971" lon="5.71168">
        <ele>537.03</ele>
        <time>2023-05-07T14:21:10Z</time>
      </trkpt>
      <trkpt lat="45.89971" lon="5.71171">
        <ele>537.03</ele>
        <time>2023-05-07T14:21:11Z</time>
      </trkpt>
      <trkpt lat="45.8997" lon="5.71175">
        <ele>537.03</ele>
        <time>2023-05-07T14:21:12Z</time>
      </trkpt>
      <trkpt lat="45.89969" lon="5.71178">
        <ele>537.03</ele>
        <time>2023-05-07T14:21:13Z</time>
      </trkpt>
      <trkpt lat="45.89969" lon="5.71181">
        <ele>537.03</ele>
        <time>2023-05-07T14:21:14Z</time>
      </trkpt>
      <trkpt lat="45.89967" lon="5.71184">
        <ele>537.03</ele>
        <time>2023-05-07T14:21:15Z</time>
      </trkpt>
      <trkpt lat="45.89946" lon="5.71246">
        <ele>532.71</ele>
        <time>2023-05-07T14:21:36Z</time>
      </trkpt>
      <trkpt lat="45.89938" lon="5.71293">
        <ele>530.3</ele>
        <time>2023-05-07T14:21:54Z</time>
      </trkpt>
      <trkpt lat="45.89927" lon="5.71344">
        <ele>528.38</ele>
        <time>2023-05-07T14:22:16Z</time>
      </trkpt>
      <trkpt lat="45.89921" lon="5.71382">
        <ele>528.38</ele>
        <time>2023-05-07T14:22:35Z</time>
      </trkpt>
      <trkpt lat="45.89926" lon="5.71403">
        <ele>532.23</ele>
        <time>2023-05-07T14:22:46Z</time>
      </trkpt>
      <trkpt lat="45.89933" lon="5.71449">
        <ele>532.23</ele>
        <time>2023-05-07T14:23:05Z</time>
      </trkpt>
      <trkpt lat="45.89936" lon="5.71506">
        <ele>532.71</ele>
        <time>2023-05-07T14:23:29Z</time>
      </trkpt>
      <trkpt lat="45.89932" lon="5.71538">
        <ele>529.34</ele>
        <time>2023-05-07T14:23:46Z</time>
      </trkpt>
      <trkpt lat="45.89927" lon="5.71585">
        <ele>531.27</ele>
        <time>2023-05-07T14:24:03Z</time>
      </trkpt>
      <trkpt lat="45.8991" lon="5.71635">
        <ele>534.63</ele>
        <time>2023-05-07T14:24:25Z</time>
      </trkpt>
      <trkpt lat="45.89894" lon="5.71689">
        <ele>537.99</ele>
        <time>2023-05-07T14:24:48Z</time>
      </trkpt>
      <trkpt lat="45.89883" lon="5.71738">
        <ele>540.4</ele>
        <time>2023-05-07T14:25:10Z</time>
      </trkpt>
      <trkpt lat="45.89889" lon="5.71778">
        <ele>541.36</ele>
        <time>2023-05-07T14:25:29Z</time>
      </trkpt>
      <trkpt lat="45.89897" lon="5.718">
        <ele>543.28</ele>
        <time>2023-05-07T14:25:42Z</time>
      </trkpt>
      <trkpt lat="45.89898" lon="5.71802">
        <ele>543.28</ele>
        <time>2023-05-07T14:25:43Z</time>
      </trkpt>
      <trkpt lat="45.89927" lon="5.71848">
        <ele>537.03</ele>
        <time>2023-05-07T14:26:02Z</time>
      </trkpt>
      <trkpt lat="45.89946" lon="5.71877">
        <ele>535.11</ele>
        <time>2023-05-07T14:26:23Z</time>
      </trkpt>
      <trkpt lat="45.89953" lon="5.71881">
        <ele>537.99</ele>
        <time>2023-05-07T14:26:30Z</time>
      </trkpt>
      <trkpt lat="45.89994" lon="5.71895">
        <ele>544.72</ele>
        <time>2023-05-07T14:26:51Z</time>
      </trkpt>
      <trkpt lat="45.90008" lon="5.71895">
        <ele>548.57</ele>
        <time>2023-05-07T14:27:01Z</time>
      </trkpt>
      <trkpt lat="45.9003" lon="5.71895">
        <ele>555.3</ele>
        <time>2023-05-07T14:27:22Z</time>
      </trkpt>
      <trkpt lat="45.90034" lon="5.71898">
        <ele>559.14</ele>
        <time>2023-05-07T14:27:47Z</time>
      </trkpt>
      <trkpt lat="45.90035" lon="5.71898">
        <ele>559.14</ele>
        <time>2023-05-07T14:28:06Z</time>
      </trkpt>
      <trkpt lat="45.90028" lon="5.71895">
        <ele>561.07</ele>
        <time>2023-05-07T14:28:29Z</time>
      </trkpt>
      <trkpt lat="45.90025" lon="5.719">
        <ele>560.11</ele>
        <time>2023-05-07T14:28:50Z</time>
      </trkpt>
      <trkpt lat="45.90025" lon="5.71908">
        <ele>555.78</ele>
        <time>2023-05-07T14:29:06Z</time>
      </trkpt>
      <trkpt lat="45.90034" lon="5.71919">
        <ele>552.41</ele>
        <time>2023-05-07T14:29:19Z</time>
      </trkpt>
      <trkpt lat="45.90044" lon="5.71928">
        <ele>551.93</ele>
        <time>2023-05-07T14:29:35Z</time>
      </trkpt>
      <trkpt lat="45.90048" lon="5.71944">
        <ele>554.82</ele>
        <time>2023-05-07T14:29:49Z</time>
      </trkpt>
      <trkpt lat="45.90046" lon="5.71948">
        <ele>558.18</ele>
        <time>2023-05-07T14:30:07Z</time>
      </trkpt>
      <trkpt lat="45.90046" lon="5.7195">
        <ele>558.66</ele>
        <time>2023-05-07T14:30:25Z</time>
      </trkpt>
      <trkpt lat="45.90047" lon="5.71944">
        <ele>558.18</ele>
        <time>2023-05-07T14:30:40Z</time>
      </trkpt>
      <trkpt lat="45.90046" lon="5.71948">
        <ele>557.22</ele>
        <time>2023-05-07T14:30:53Z</time>
      </trkpt>
      <trkpt lat="45.90048" lon="5.71948">
        <ele>558.18</ele>
        <time>2023-05-07T14:31:12Z</time>
      </trkpt>
      <trkpt lat="45.90044" lon="5.71949">
        <ele>560.11</ele>
        <time>2023-05-07T14:31:37Z</time>
      </trkpt>
    </trkseg>
  </trk>
</gpx>